Darstellungsparameter: Aktuell verwendete Einstellungen:
Skalierung der Graphiken ... ?
xyx+y,   Skalierungsfaktor:      Skalierung: Modus: x, Faktor: 1
Darstellungszeitraum ... ?
Vom - - bis: - -   Zeitraum: 21.06.2020 - 18.07.2020
Min/Max/Avg-Anzeige ... ?
Zeige MMA aktuell
Zeige MMA Monat
Zeige MMA alles
Zeige --A aktuell
Zeige --A Monat
Zeige --A alles
Keine MMA-Anzeige
MMA:
Average (ber die Originaldaten)
MMA-Basis: 21.06.2020 - 18.07.2020
Quicknavigation für Darstellung... ?
Tage:      1T, 2T, 3T, 5T -1T -2T -3T -5T +1T +2T +3T +5T
Wochen: 1W, 2W, 3W -1W -2W -3W +1W +2W +3W
Monate: 1M, 3M, 6M -1M -3M -6M +1M +3M +6M
Jahre:    1J, 3J, 5J, 10J -1J -3J -5J -10J +1J +3J +5J +10J
Nutze für die Darstellung ... ?
Originaldaten oder Mittelwerte auf ...
Stundenbasis Tagesbasis Wochenbasis
Monatsbasis Jahresbasis      Datenbasis: Original-Daten
Darstellen als:
Statistik (Auto) Statistik J:M      Darstellung:
Zur Graphik,    zurück zur Übersicht aller Sensoren.
 
Tabellarische Datenbersicht: ?
 
Sensor: Nr:Datum:Temp:Abs-Feuchte:Windchill:Wind:
Aussen-T/F 1 21-06-2020 00:00:00 14.9 C 11.47 g/m*3 14.9 C 1.6 km/h
2 21-06-2020 00:05:00 14.8 C 11.4 g/m*3 14.8 C 1.6 km/h
3 21-06-2020 00:10:00 14.8 C 11.53 g/m*3 14.8 C 0 km/h
4 21-06-2020 00:15:00 14.7 C 11.46 g/m*3 14.7 C 0 km/h
5 21-06-2020 00:20:00 14.6 C 11.39 g/m*3 14.6 C 0 km/h
6 21-06-2020 00:25:00 14.5 C 11.44 g/m*3 14.5 C 0 km/h
7 21-06-2020 00:30:00 14.4 C 11.37 g/m*3 14.4 C 1.6 km/h
8 21-06-2020 00:35:00 14.3 C 11.3 g/m*3 14.3 C 0 km/h
9 21-06-2020 00:40:00 14.3 C 11.3 g/m*3 14.3 C 0 km/h
10 21-06-2020 00:45:00 14.2 C 11.23 g/m*3 14.2 C 0 km/h
11 21-06-2020 00:50:00 14.2 C 11.23 g/m*3 14.2 C 1.6 km/h
12 21-06-2020 00:55:00 14.1 C 11.29 g/m*3 14.1 C 1.6 km/h
13 21-06-2020 01:00:00 14.1 C 11.29 g/m*3 14.1 C 1.6 km/h
14 21-06-2020 01:05:00 14.1 C 11.29 g/m*3 14.1 C 0 km/h
15 21-06-2020 01:10:00 13.9 C 11.15 g/m*3 13.9 C 1.6 km/h
16 21-06-2020 01:15:00 13.9 C 11.15 g/m*3 13.9 C 1.6 km/h
17 21-06-2020 01:20:00 13.8 C 11.08 g/m*3 13.8 C 0 km/h
18 21-06-2020 01:25:00 13.8 C 11.08 g/m*3 13.8 C 0 km/h
19 21-06-2020 01:30:00 13.8 C 11.08 g/m*3 13.8 C 0 km/h
20 21-06-2020 01:35:00 13.7 C 11.13 g/m*3 13.7 C 0 km/h
21 21-06-2020 01:40:00 13.7 C 11.13 g/m*3 13.7 C 0 km/h
22 21-06-2020 01:45:00 13.7 C 11.13 g/m*3 13.7 C 0 km/h
23 21-06-2020 01:50:00 13.6 C 11.06 g/m*3 13.6 C 0 km/h
24 21-06-2020 01:55:00 13.6 C 11.06 g/m*3 13.6 C 1.6 km/h
25 21-06-2020 02:00:00 13.6 C 11.06 g/m*3 13.6 C 0 km/h
Sensor: Nr:Datum:Temp:Abs-Feuchte:Windchill:Wind:
Aussen-T/F 26 21-06-2020 02:05:00 13.5 C 10.99 g/m*3 13.5 C 0 km/h
27 21-06-2020 02:10:00 13.4 C 10.93 g/m*3 13.4 C 0 km/h
28 21-06-2020 02:15:00 13.3 C 10.86 g/m*3 13.3 C 0 km/h
29 21-06-2020 02:20:00 13.3 C 10.86 g/m*3 13.3 C 1.6 km/h
30 21-06-2020 02:25:00 13.2 C 10.79 g/m*3 13.2 C 1.6 km/h
31 21-06-2020 02:30:00 13.2 C 10.79 g/m*3 13.2 C 0 km/h
32 21-06-2020 02:35:00 13.2 C 10.79 g/m*3 13.2 C 0 km/h
33 21-06-2020 02:40:00 13.2 C 10.91 g/m*3 13.2 C 0 km/h
34 21-06-2020 02:45:00 13.1 C 10.84 g/m*3 13.1 C 3.2 km/h
35 21-06-2020 02:50:00 13 C 10.66 g/m*3 13 C 3.2 km/h
36 21-06-2020 02:55:00 12.9 C 10.59 g/m*3 12.9 C 0 km/h
37 21-06-2020 03:00:00 12.8 C 10.53 g/m*3 12.8 C 0 km/h
38 21-06-2020 03:05:00 12.8 C 10.64 g/m*3 12.8 C 0 km/h
39 21-06-2020 03:10:00 12.8 C 10.64 g/m*3 12.8 C 0 km/h
40 21-06-2020 03:15:00 12.8 C 10.64 g/m*3 12.8 C 1.6 km/h
41 21-06-2020 03:20:00 12.7 C 10.58 g/m*3 12.7 C 0 km/h
42 21-06-2020 03:25:00 12.6 C 10.51 g/m*3 12.6 C 0 km/h
43 21-06-2020 03:30:00 12.5 C 10.44 g/m*3 12.5 C 0 km/h
44 21-06-2020 03:35:00 12.4 C 10.38 g/m*3 12.4 C 0 km/h
45 21-06-2020 03:40:00 12.4 C 10.38 g/m*3 12.4 C 0 km/h
46 21-06-2020 03:45:00 12.3 C 10.32 g/m*3 12.3 C 0 km/h
47 21-06-2020 03:50:00 12.2 C 10.25 g/m*3 12.2 C 0 km/h
48 21-06-2020 03:55:00 12.1 C 10.19 g/m*3 12.1 C 0 km/h
49 21-06-2020 04:00:00 12 C 10.12 g/m*3 12 C 0 km/h
50 21-06-2020 04:05:00 11.9 C 10.06 g/m*3 11.9 C 0 km/h
Sensor: Nr:Datum:Temp:Abs-Feuchte:Windchill:Wind:
Aussen-T/F 51 21-06-2020 04:10:00 11.9 C 10.06 g/m*3 11.9 C 0 km/h
52 21-06-2020 04:15:00 11.8 C 10 g/m*3 11.8 C 0 km/h
53 21-06-2020 04:20:00 11.8 C 10 g/m*3 11.8 C 0 km/h
54 21-06-2020 04:25:00 11.7 C 9.94 g/m*3 11.7 C 0 km/h
55 21-06-2020 04:30:00 11.7 C 9.94 g/m*3 11.7 C 0 km/h
56 21-06-2020 04:35:00 11.7 C 9.94 g/m*3 11.7 C 0 km/h
57 21-06-2020 04:40:00 11.8 C 10.1 g/m*3 11.8 C 0 km/h
58 21-06-2020 04:45:00 11.8 C 10.1 g/m*3 11.8 C 0 km/h
59 21-06-2020 04:50:00 11.8 C 10 g/m*3 11.8 C 0 km/h
60 21-06-2020 04:55:00 11.8 C 10.1 g/m*3 11.8 C 0 km/h
61 21-06-2020 05:00:00 11.9 C 10.17 g/m*3 11.9 C 0 km/h
62 21-06-2020 05:05:00 11.9 C 10.17 g/m*3 11.9 C 0 km/h
63 21-06-2020 05:10:00 12.1 C 10.29 g/m*3 12.1 C 0 km/h
64 21-06-2020 05:15:00 12.1 C 10.29 g/m*3 12.1 C 4.8 km/h
65 21-06-2020 05:20:00 12.3 C 10.42 g/m*3 12.3 C 4.8 km/h
66 21-06-2020 05:25:00 12.3 C 10.42 g/m*3 12.3 C 0 km/h
67 21-06-2020 05:30:00 12.3 C 10.42 g/m*3 12.3 C 0 km/h
68 21-06-2020 05:35:00 12.3 C 10.42 g/m*3 12.3 C 0 km/h
69 21-06-2020 05:40:00 12.3 C 10.42 g/m*3 12.3 C 0 km/h
70 21-06-2020 05:45:00 12.3 C 10.42 g/m*3 12.3 C 1.6 km/h
71 21-06-2020 05:50:00 12.3 C 10.42 g/m*3 12.3 C 0 km/h
72 21-06-2020 05:55:00 12.3 C 10.42 g/m*3 12.3 C 0 km/h
73 21-06-2020 06:00:00 12.3 C 10.42 g/m*3 12.3 C 0 km/h
74 21-06-2020 06:05:00 12.2 C 10.36 g/m*3 12.2 C 0 km/h
75 21-06-2020 06:10:00 12.2 C 10.36 g/m*3 12.2 C 0 km/h
Sensor: Nr:Datum:Temp:Abs-Feuchte:Windchill:Wind:
Aussen-T/F 76 21-06-2020 06:15:00 12.3 C 10.42 g/m*3 12.3 C 0 km/h
77 21-06-2020 06:20:00 12.3 C 10.42 g/m*3 12.3 C 0 km/h
78 21-06-2020 06:25:00 12.3 C 10.42 g/m*3 12.3 C 0 km/h
79 21-06-2020 06:30:00 12.4 C 10.49 g/m*3 12.4 C 0 km/h
80 21-06-2020 06:35:00 12.4 C 10.49 g/m*3 12.4 C 0 km/h
81 21-06-2020 06:40:00 12.4 C 10.49 g/m*3 12.4 C 0 km/h
82 21-06-2020 06:45:00 12.4 C 10.6 g/m*3 12.4 C 0 km/h
83 21-06-2020 06:50:00 12.6 C 10.62 g/m*3 12.6 C 0 km/h
84 21-06-2020 06:55:00 12.6 C 10.62 g/m*3 12.6 C 3.2 km/h
85 21-06-2020 07:00:00 12.6 C 10.62 g/m*3 12.6 C 4.8 km/h
86 21-06-2020 07:05:00 12.6 C 10.62 g/m*3 12.6 C 1.6 km/h
87 21-06-2020 07:10:00 12.6 C 10.62 g/m*3 12.6 C 1.6 km/h
88 21-06-2020 07:15:00 12.7 C 10.8 g/m*3 12.7 C 3.2 km/h
89 21-06-2020 07:20:00 12.7 C 10.8 g/m*3 12.7 C 4.8 km/h
90 21-06-2020 07:25:00 12.7 C 10.69 g/m*3 12.7 C 6.4 km/h
91 21-06-2020 07:30:00 12.7 C 10.69 g/m*3 12.7 C 6.4 km/h
92 21-06-2020 07:35:00 12.7 C 10.69 g/m*3 12.7 C 6.4 km/h
93 21-06-2020 07:40:00 12.7 C 10.8 g/m*3 12.7 C 1.6 km/h
94 21-06-2020 07:45:00 12.8 C 10.87 g/m*3 12.8 C 6.4 km/h
95 21-06-2020 07:50:00 12.8 C 10.87 g/m*3 12.8 C 4.8 km/h
96 21-06-2020 07:55:00 12.8 C 10.87 g/m*3 12.8 C 3.2 km/h
97 21-06-2020 08:00:00 12.9 C 10.93 g/m*3 12.9 C 3.2 km/h
98 21-06-2020 08:05:00 13 C 11 g/m*3 13 C 4.8 km/h
99 21-06-2020 08:10:00 13.1 C 11.07 g/m*3 13.1 C 4.8 km/h
100 21-06-2020 08:15:00 13.1 C 11.07 g/m*3 13.1 C 4.8 km/h
Sensor: Nr:Datum:Temp:Abs-Feuchte:Windchill:Wind:
Aussen-T/F 101 21-06-2020 08:20:00 13.2 C 11.14 g/m*3 13.2 C 1.6 km/h
102 21-06-2020 08:25:00 13.3 C 11.21 g/m*3 13.3 C 1.6 km/h
103 21-06-2020 08:30:00 13.3 C 11.21 g/m*3 13.3 C 1.6 km/h
104 21-06-2020 08:35:00 13.4 C 11.28 g/m*3 13.4 C 0 km/h
105 21-06-2020 08:40:00 13.6 C 11.42 g/m*3 13.6 C 3.2 km/h
106 21-06-2020 08:45:00 13.7 C 11.49 g/m*3 13.7 C 0 km/h
107 21-06-2020 08:50:00 13.7 C 11.37 g/m*3 13.7 C 0 km/h
108 21-06-2020 08:55:00 13.7 C 11.37 g/m*3 13.7 C 0 km/h
109 21-06-2020 09:00:00 13.8 C 11.44 g/m*3 13.8 C 0 km/h
110 21-06-2020 09:05:00 13.8 C 11.44 g/m*3 13.8 C 0 km/h
111 21-06-2020 09:10:00 13.9 C 11.51 g/m*3 13.9 C 0 km/h
112 21-06-2020 09:15:00 14 C 11.58 g/m*3 14 C 0 km/h
113 21-06-2020 09:20:00 14.2 C 11.72 g/m*3 14.2 C 0 km/h
114 21-06-2020 09:25:00 14.3 C 11.79 g/m*3 14.3 C 0 km/h
115 21-06-2020 09:30:00 14.4 C 11.87 g/m*3 14.4 C 0 km/h
116 21-06-2020 09:35:00 14.6 C 12.01 g/m*3 14.6 C 0 km/h
117 21-06-2020 09:40:00 14.7 C 12.09 g/m*3 14.7 C 0 km/h
118 21-06-2020 09:45:00 14.9 C 12.24 g/m*3 14.9 C 0 km/h
119 21-06-2020 09:50:00 15.2 C 12.46 g/m*3 15.2 C 0 km/h
120 21-06-2020 09:55:00 15.3 C 12.54 g/m*3 15.3 C 0 km/h
121 21-06-2020 10:00:00 15.4 C 12.61 g/m*3 15.4 C 0 km/h
122 21-06-2020 10:05:00 15.6 C 12.63 g/m*3 15.6 C 0 km/h
123 21-06-2020 10:10:00 15.8 C 12.79 g/m*3 15.8 C 0 km/h
124 21-06-2020 10:15:00 15.9 C 12.87 g/m*3 15.9 C 0 km/h
125 21-06-2020 10:20:00 16.3 C 13.18 g/m*3 16.3 C 0 km/h
Sensor: Nr:Datum:Temp:Abs-Feuchte:Windchill:Wind:
Aussen-T/F 126 21-06-2020 10:25:00 16.6 C 13.28 g/m*3 16.6 C 0 km/h
127 21-06-2020 10:30:00 17.1 C 13.54 g/m*3 17.1 C 0 km/h
128 21-06-2020 10:35:00 17.6 C 13.8 g/m*3 17.6 C 0 km/h
129 21-06-2020 10:40:00 18 C 13.98 g/m*3 18 C 0 km/h
130 21-06-2020 10:45:00 18.4 C 13.84 g/m*3 18.4 C 0 km/h
131 21-06-2020 10:50:00 18.8 C 13.69 g/m*3 18.8 C 0 km/h
132 21-06-2020 10:55:00 19.1 C 13.93 g/m*3 19.1 C 0 km/h
133 21-06-2020 11:00:00 19.4 C 14.01 g/m*3 19.4 C 0 km/h
134 21-06-2020 11:05:00 19.7 C 13.75 g/m*3 19.7 C 0 km/h
135 21-06-2020 11:10:00 20.1 C 13.56 g/m*3 20.1 C 0 km/h
136 21-06-2020 11:15:00 20.6 C 12.71 g/m*3 20.6 C 0 km/h
137 21-06-2020 11:20:00 21.1 C 13.27 g/m*3 21.1 C 0 km/h
138 21-06-2020 11:25:00 21.4 C 12.94 g/m*3 21.4 C 0 km/h
139 21-06-2020 11:30:00 21.6 C 12.52 g/m*3 21.6 C 0 km/h
140 21-06-2020 11:35:00 21.7 C 12.21 g/m*3 21.7 C 0 km/h
141 21-06-2020 11:40:00 21.9 C 12.35 g/m*3 21.9 C 0 km/h
142 21-06-2020 11:45:00 22.3 C 12.24 g/m*3 22.3 C 0 km/h
143 21-06-2020 11:50:00 22.5 C 11.58 g/m*3 22.5 C 6.4 km/h
144 21-06-2020 11:55:00 22.7 C 12.12 g/m*3 22.7 C 6.4 km/h
145 21-06-2020 12:00:00 22.7 C 12.32 g/m*3 22.7 C 1.6 km/h
146 21-06-2020 12:05:00 22.6 C 12.86 g/m*3 22.6 C 8.1 km/h
147 21-06-2020 12:10:00 22.5 C 12.98 g/m*3 22.5 C 8.1 km/h
148 21-06-2020 12:15:00 22.4 C 12.71 g/m*3 22.4 C 6.4 km/h
149 21-06-2020 12:20:00 22.3 C 11.85 g/m*3 22.3 C 8.1 km/h
150 21-06-2020 12:25:00 22.4 C 12.11 g/m*3 22.4 C 9.7 km/h
Sensor: Nr:Datum:Temp:Abs-Feuchte:Windchill:Wind:
Aussen-T/F 151 21-06-2020 12:30:00 22.6 C 11.85 g/m*3 22.6 C 12.9 km/h
152 21-06-2020 12:35:00 22.7 C 11.11 g/m*3 22.7 C 9.7 km/h
153 21-06-2020 12:40:00 22.7 C 10.91 g/m*3 22.7 C 8.1 km/h
154 21-06-2020 12:45:00 22.8 C 10.97 g/m*3 22.8 C 9.7 km/h
155 21-06-2020 12:50:00 22.9 C 11.04 g/m*3 22.9 C 11.3 km/h
156 21-06-2020 12:55:00 23.1 C 11.37 g/m*3 23.1 C 9.7 km/h
157 21-06-2020 13:00:00 23.3 C 10.87 g/m*3 23.3 C 8.1 km/h
158 21-06-2020 13:05:00 23.3 C 10.87 g/m*3 23.3 C 9.7 km/h
159 21-06-2020 13:10:00 23.3 C 12.55 g/m*3 23.3 C 6.4 km/h
160 21-06-2020 13:15:00 23.3 C 11.29 g/m*3 23.3 C 6.4 km/h
161 21-06-2020 13:20:00 23.4 C 11.14 g/m*3 23.4 C 9.7 km/h
162 21-06-2020 13:25:00 23.6 C 11.27 g/m*3 23.6 C 8.1 km/h
163 21-06-2020 13:30:00 23.7 C 11.34 g/m*3 23.7 C 9.7 km/h
164 21-06-2020 13:35:00 23.8 C 11.62 g/m*3 23.8 C 6.4 km/h
165 21-06-2020 13:40:00 23.9 C 12.11 g/m*3 23.9 C 8.1 km/h
166 21-06-2020 13:45:00 24.1 C 11.82 g/m*3 24.1 C 11.3 km/h
167 21-06-2020 13:50:00 24.1 C 11.16 g/m*3 24.1 C 9.7 km/h
168 21-06-2020 13:55:00 24.1 C 11.38 g/m*3 24.1 C 9.7 km/h
169 21-06-2020 14:00:00 24.1 C 11.38 g/m*3 24.1 C 6.4 km/h
170 21-06-2020 14:05:00 24.2 C 12.1 g/m*3 24.2 C 12.9 km/h
171 21-06-2020 14:10:00 24.3 C 11.51 g/m*3 24.3 C 16.1 km/h
172 21-06-2020 14:15:00 24.2 C 11.44 g/m*3 24.2 C 6.4 km/h
173 21-06-2020 14:20:00 24.2 C 12.32 g/m*3 24.2 C 6.4 km/h
174 21-06-2020 14:25:00 24.3 C 11.95 g/m*3 24.3 C 9.7 km/h
175 21-06-2020 14:30:00 24.6 C 11.7 g/m*3 24.6 C 11.3 km/h
Sensor: Nr:Datum:Temp:Abs-Feuchte:Windchill:Wind:
Aussen-T/F 176 21-06-2020 14:35:00 24.7 C 12.22 g/m*3 24.7 C 8.1 km/h
177 21-06-2020 14:40:00 24.8 C 11.84 g/m*3 24.8 C 14.5 km/h
178 21-06-2020 14:45:00 24.9 C 10.99 g/m*3 24.9 C 9.7 km/h
179 21-06-2020 14:50:00 25.1 C 11.11 g/m*3 25.1 C 12.9 km/h
180 21-06-2020 14:55:00 25.2 C 11.17 g/m*3 25.2 C 9.7 km/h
181 21-06-2020 15:00:00 25.3 C 11 g/m*3 25.3 C 12.9 km/h
182 21-06-2020 15:05:00 25.6 C 11.43 g/m*3 25.6 C 11.3 km/h
183 21-06-2020 15:10:00 25.9 C 11.14 g/m*3 25.9 C 9.7 km/h
184 21-06-2020 15:15:00 26.1 C 11.75 g/m*3 26.1 C 16.1 km/h
185 21-06-2020 15:20:00 26 C 11.2 g/m*3 26 C 11.3 km/h
186 21-06-2020 15:25:00 25.9 C 11.62 g/m*3 25.9 C 9.7 km/h
187 21-06-2020 15:30:00 26.2 C 11.08 g/m*3 26.2 C 11.3 km/h
188 21-06-2020 15:35:00 26.4 C 11.95 g/m*3 26.4 C 9.7 km/h
189 21-06-2020 15:40:00 26.8 C 11.96 g/m*3 26.8 C 9.7 km/h
190 21-06-2020 15:45:00 27.1 C 11.9 g/m*3 27.1 C 8.1 km/h
191 21-06-2020 15:50:00 27.3 C 12.3 g/m*3 27.3 C 8.1 km/h
192 21-06-2020 15:55:00 27.3 C 11.77 g/m*3 27.3 C 16.1 km/h
193 21-06-2020 16:00:00 27.3 C 11.77 g/m*3 27.3 C 6.4 km/h
194 21-06-2020 16:05:00 27.5 C 11.64 g/m*3 27.5 C 9.7 km/h
195 21-06-2020 16:10:00 27.6 C 11.71 g/m*3 27.6 C 12.9 km/h
196 21-06-2020 16:15:00 27.5 C 11.64 g/m*3 27.5 C 14.5 km/h
197 21-06-2020 16:20:00 27.8 C 11.3 g/m*3 27.8 C 6.4 km/h
198 21-06-2020 16:25:00 27.9 C 11.09 g/m*3 27.9 C 11.3 km/h
199 21-06-2020 16:30:00 28.2 C 11.27 g/m*3 28.2 C 17.7 km/h
200 21-06-2020 16:35:00 27.9 C 10.82 g/m*3 27.9 C 17.7 km/h
Sensor: Nr:Datum:Temp:Abs-Feuchte:Windchill:Wind:
Aussen-T/F 201 21-06-2020 16:40:00 27.7 C 10.97 g/m*3 27.7 C 9.7 km/h
202 21-06-2020 16:45:00 27.7 C 11.5 g/m*3 27.7 C 17.7 km/h
203 21-06-2020 16:50:00 27.6 C 11.44 g/m*3 27.6 C 19.3 km/h
204 21-06-2020 16:55:00 27.7 C 11.23 g/m*3 27.7 C 16.1 km/h
205 21-06-2020 17:00:00 27.8 C 11.57 g/m*3 27.8 C 14.5 km/h
206 21-06-2020 17:05:00 28 C 11.69 g/m*3 28 C 11.3 km/h
207 21-06-2020 17:10:00 28 C 11.15 g/m*3 28 C 17.7 km/h
208 21-06-2020 17:15:00 27.7 C 10.97 g/m*3 27.7 C 17.7 km/h
209 21-06-2020 17:20:00 27.8 C 10.76 g/m*3 27.8 C 14.5 km/h
210 21-06-2020 17:25:00 27.9 C 10.55 g/m*3 27.9 C 12.9 km/h
211 21-06-2020 17:30:00 27.9 C 10.82 g/m*3 27.9 C 11.3 km/h
212 21-06-2020 17:35:00 28 C 10.88 g/m*3 28 C 12.9 km/h
213 21-06-2020 17:40:00 28.1 C 10.66 g/m*3 28.1 C 11.3 km/h
214 21-06-2020 17:45:00 27.9 C 10.82 g/m*3 27.9 C 11.3 km/h
215 21-06-2020 17:50:00 27.7 C 10.7 g/m*3 27.7 C 11.3 km/h
216 21-06-2020 17:55:00 27.4 C 11.58 g/m*3 27.4 C 11.3 km/h
217 21-06-2020 18:00:00 27.3 C 11.51 g/m*3 27.3 C 9.7 km/h
218 21-06-2020 18:05:00 27 C 11.07 g/m*3 27 C 11.3 km/h
219 21-06-2020 18:10:00 26.7 C 11.39 g/m*3 26.7 C 14.5 km/h
220 21-06-2020 18:15:00 26.4 C 11.2 g/m*3 26.4 C 12.9 km/h
221 21-06-2020 18:20:00 26.3 C 11.39 g/m*3 26.3 C 8.1 km/h
222 21-06-2020 18:25:00 26.6 C 11.58 g/m*3 26.6 C 6.4 km/h
223 21-06-2020 18:30:00 27.2 C 11.71 g/m*3 27.2 C 9.7 km/h
224 21-06-2020 18:35:00 27.3 C 11.51 g/m*3 27.3 C 12.9 km/h
225 21-06-2020 18:40:00 26.8 C 11.71 g/m*3 26.8 C 11.3 km/h
Sensor: Nr:Datum:Temp:Abs-Feuchte:Windchill:Wind:
Aussen-T/F 226 21-06-2020 18:45:00 26.8 C 11.96 g/m*3 26.8 C 11.3 km/h
227 21-06-2020 18:50:00 26.8 C 11.96 g/m*3 26.8 C 9.7 km/h
228 21-06-2020 18:55:00 26.9 C 11.77 g/m*3 26.9 C 11.3 km/h
229 21-06-2020 19:00:00 27 C 11.84 g/m*3 27 C 11.3 km/h
230 21-06-2020 19:05:00 27.3 C 12.04 g/m*3 27.3 C 9.7 km/h
231 21-06-2020 19:10:00 27.3 C 12.04 g/m*3 27.3 C 12.9 km/h
232 21-06-2020 19:15:00 26.7 C 12.15 g/m*3 26.7 C 9.7 km/h
233 21-06-2020 19:20:00 26.1 C 12.73 g/m*3 26.1 C 8.1 km/h
234 21-06-2020 19:25:00 25.8 C 12.76 g/m*3 25.8 C 8.1 km/h
235 21-06-2020 19:30:00 25.5 C 12.78 g/m*3 25.5 C 3.2 km/h
236 21-06-2020 19:35:00 25.2 C 12.8 g/m*3 25.2 C 8.1 km/h
237 21-06-2020 19:40:00 25 C 12.66 g/m*3 25 C 3.2 km/h
238 21-06-2020 19:45:00 24.7 C 13.58 g/m*3 24.7 C 0 km/h
239 21-06-2020 19:50:00 24.6 C 14.18 g/m*3 24.6 C 1.6 km/h
240 21-06-2020 19:55:00 24.3 C 12.61 g/m*3 24.3 C 8.1 km/h
241 21-06-2020 20:00:00 24.2 C 13.86 g/m*3 24.2 C 3.2 km/h
242 21-06-2020 20:05:00 24.2 C 13.86 g/m*3 24.2 C 4.8 km/h
243 21-06-2020 20:10:00 24.2 C 14.3 g/m*3 24.2 C 0 km/h
244 21-06-2020 20:15:00 24.1 C 14 g/m*3 24.1 C 6.4 km/h
245 21-06-2020 20:20:00 23.9 C 13.63 g/m*3 23.9 C 1.6 km/h
246 21-06-2020 20:25:00 23.8 C 13.77 g/m*3 23.8 C 1.6 km/h
247 21-06-2020 20:30:00 23.7 C 13.9 g/m*3 23.7 C 3.2 km/h
248 21-06-2020 20:35:00 23.6 C 13.82 g/m*3 23.6 C 4.8 km/h
249 21-06-2020 20:40:00 23.4 C 14.09 g/m*3 23.4 C 3.2 km/h
250 21-06-2020 20:45:00 23.2 C 13.93 g/m*3 23.2 C 4.8 km/h
Sensor: Nr:Datum:Temp:Abs-Feuchte:Windchill:Wind:
Aussen-T/F 251 21-06-2020 20:50:00 22.9 C 13.69 g/m*3 22.9 C 4.8 km/h
252 21-06-2020 20:55:00 22.6 C 13.46 g/m*3 22.6 C 4.8 km/h
253 21-06-2020 21:00:00 22.4 C 13.31 g/m*3 22.4 C 4.8 km/h
254 21-06-2020 21:05:00 22.4 C 13.5 g/m*3 22.4 C 4.8 km/h
255 21-06-2020 21:10:00 22.4 C 13.11 g/m*3 22.4 C 6.4 km/h
256 21-06-2020 21:15:00 22.5 C 12.18 g/m*3 22.5 C 8.1 km/h
257 21-06-2020 21:20:00 22.6 C 12.46 g/m*3 22.6 C 1.6 km/h
258 21-06-2020 21:25:00 22.6 C 13.06 g/m*3 22.6 C 1.6 km/h
259 21-06-2020 21:30:00 22.5 C 13.18 g/m*3 22.5 C 3.2 km/h
260 21-06-2020 21:35:00 22.3 C 13.23 g/m*3 22.3 C 0 km/h
261 21-06-2020 21:40:00 22 C 13 g/m*3 22 C 4.8 km/h
262 21-06-2020 21:45:00 21.7 C 13.16 g/m*3 21.7 C 4.8 km/h
263 21-06-2020 21:50:00 21.4 C 12.94 g/m*3 21.4 C 6.4 km/h
264 21-06-2020 21:55:00 20.9 C 12.75 g/m*3 20.9 C 6.4 km/h
265 21-06-2020 22:00:00 20.6 C 12.89 g/m*3 20.6 C 4.8 km/h
266 21-06-2020 22:05:00 20.2 C 12.76 g/m*3 20.2 C 4.8 km/h
267 21-06-2020 22:10:00 19.9 C 12.71 g/m*3 19.9 C 4.8 km/h
268 21-06-2020 22:15:00 19.6 C 12.49 g/m*3 19.6 C 4.8 km/h
269 21-06-2020 22:20:00 19.3 C 12.44 g/m*3 19.3 C 4.8 km/h
270 21-06-2020 22:25:00 19.1 C 12.46 g/m*3 19.1 C 4.8 km/h
271 21-06-2020 22:30:00 18.9 C 12.31 g/m*3 18.9 C 6.4 km/h
272 21-06-2020 22:35:00 18.7 C 12.33 g/m*3 18.7 C 6.4 km/h
273 21-06-2020 22:40:00 18.5 C 12.18 g/m*3 18.5 C 4.8 km/h
274 21-06-2020 22:45:00 18.3 C 12.2 g/m*3 18.3 C 6.4 km/h
275 21-06-2020 22:50:00 18.2 C 12.28 g/m*3 18.2 C 4.8 km/h
Sensor: Nr:Datum:Temp:Abs-Feuchte:Windchill:Wind:
Aussen-T/F 276 21-06-2020 22:55:00 18.1 C 12.21 g/m*3 18.1 C 4.8 km/h
277 21-06-2020 23:00:00 18.1 C 12.36 g/m*3 18.1 C 4.8 km/h
278 21-06-2020 23:05:00 18 C 12.44 g/m*3 18 C 4.8 km/h
279 21-06-2020 23:10:00 17.9 C 12.37 g/m*3 17.9 C 4.8 km/h
280 21-06-2020 23:15:00 17.9 C 12.37 g/m*3 17.9 C 3.2 km/h
281 21-06-2020 23:20:00 17.9 C 12.52 g/m*3 17.9 C 4.8 km/h
282 21-06-2020 23:25:00 17.8 C 12.45 g/m*3 17.8 C 4.8 km/h
283 21-06-2020 23:30:00 17.8 C 12.45 g/m*3 17.8 C 3.2 km/h
284 21-06-2020 23:35:00 17.7 C 12.37 g/m*3 17.7 C 3.2 km/h
285 21-06-2020 23:40:00 17.7 C 12.52 g/m*3 17.7 C 1.6 km/h
286 21-06-2020 23:45:00 17.6 C 12.45 g/m*3 17.6 C 0 km/h
287 21-06-2020 23:50:00 17.6 C 12.45 g/m*3 17.6 C 0 km/h
288 21-06-2020 23:55:00 17.6 C 12.6 g/m*3 17.6 C 0 km/h
289 22-06-2020 00:00:00 17.7 C 12.82 g/m*3 17.7 C 0 km/h
290 22-06-2020 00:05:00 17.7 C 12.67 g/m*3 17.7 C 0 km/h
291 22-06-2020 00:10:00 17.7 C 12.67 g/m*3 17.7 C 0 km/h
292 22-06-2020 00:15:00 17.7 C 12.67 g/m*3 17.7 C 0 km/h
293 22-06-2020 00:20:00 17.6 C 12.6 g/m*3 17.6 C 0 km/h
294 22-06-2020 00:25:00 17.5 C 12.37 g/m*3 17.5 C 0 km/h
295 22-06-2020 00:30:00 17.4 C 12.3 g/m*3 17.4 C 0 km/h
296 22-06-2020 00:35:00 17.3 C 12.37 g/m*3 17.3 C 0 km/h
297 22-06-2020 00:40:00 17.2 C 12.3 g/m*3 17.2 C 0 km/h
298 22-06-2020 00:45:00 17.1 C 12.37 g/m*3 17.1 C 0 km/h
299 22-06-2020 00:50:00 16.9 C 12.23 g/m*3 16.9 C 0 km/h
300 22-06-2020 00:55:00 16.8 C 12.15 g/m*3 16.8 C 0 km/h
Sensor: Nr:Datum:Temp:Abs-Feuchte:Windchill:Wind:
Aussen-T/F 301 22-06-2020 01:00:00 16.7 C 12.08 g/m*3 16.7 C 0 km/h
302 22-06-2020 01:05:00 16.6 C 12.15 g/m*3 16.6 C 0 km/h
303 22-06-2020 01:10:00 16.5 C 12.08 g/m*3 16.5 C 4.8 km/h
304 22-06-2020 01:15:00 16.4 C 12 g/m*3 16.4 C 6.4 km/h
305 22-06-2020 01:20:00 16.5 C 12.08 g/m*3 16.5 C 3.2 km/h
306 22-06-2020 01:25:00 16.6 C 12.15 g/m*3 16.6 C 1.6 km/h
307 22-06-2020 01:30:00 16.7 C 12.22 g/m*3 16.7 C 4.8 km/h
308 22-06-2020 01:35:00 16.8 C 12.15 g/m*3 16.8 C 0 km/h
309 22-06-2020 01:40:00 16.7 C 12.08 g/m*3 16.7 C 6.4 km/h
310 22-06-2020 01:45:00 16.6 C 12.01 g/m*3 16.6 C 4.8 km/h
311 22-06-2020 01:50:00 16.5 C 12.08 g/m*3 16.5 C 6.4 km/h
312 22-06-2020 01:55:00 16.4 C 12 g/m*3 16.4 C 4.8 km/h
313 22-06-2020 02:00:00 16.3 C 12.07 g/m*3 16.3 C 4.8 km/h
314 22-06-2020 02:05:00 16.3 C 12.07 g/m*3 16.3 C 6.4 km/h
315 22-06-2020 02:10:00 16.2 C 12 g/m*3 16.2 C 6.4 km/h
316 22-06-2020 02:15:00 16.2 C 12 g/m*3 16.2 C 4.8 km/h
317 22-06-2020 02:20:00 16.2 C 12 g/m*3 16.2 C 3.2 km/h
318 22-06-2020 02:25:00 16.2 C 12 g/m*3 16.2 C 1.6 km/h
319 22-06-2020 02:30:00 16.2 C 12 g/m*3 16.2 C 0 km/h
320 22-06-2020 02:35:00 16.1 C 11.93 g/m*3 16.1 C 0 km/h
321 22-06-2020 02:40:00 16.1 C 11.93 g/m*3 16.1 C 1.6 km/h
322 22-06-2020 02:45:00 15.9 C 11.78 g/m*3 15.9 C 0 km/h
323 22-06-2020 02:50:00 15.8 C 11.71 g/m*3 15.8 C 0 km/h
324 22-06-2020 02:55:00 15.7 C 11.77 g/m*3 15.7 C 0 km/h
325 22-06-2020 03:00:00 15.6 C 11.7 g/m*3 15.6 C 1.6 km/h
Sensor: Nr:Datum:Temp:Abs-Feuchte:Windchill:Wind:
Aussen-T/F 326 22-06-2020 03:05:00 15.6 C 11.7 g/m*3 15.6 C 1.6 km/h
327 22-06-2020 03:10:00 15.5 C 11.63 g/m*3 15.5 C 0 km/h
328 22-06-2020 03:15:00 15.4 C 11.69 g/m*3 15.4 C 0 km/h
329 22-06-2020 03:20:00 15.4 C 11.69 g/m*3 15.4 C 0 km/h
330 22-06-2020 03:25:00 15.3 C 11.62 g/m*3 15.3 C 0 km/h
331 22-06-2020 03:30:00 15.3 C 11.62 g/m*3 15.3 C 0 km/h
332 22-06-2020 03:35:00 15.3 C 11.75 g/m*3 15.3 C 1.6 km/h
333 22-06-2020 03:40:00 15.4 C 11.82 g/m*3 15.4 C 3.2 km/h
334 22-06-2020 03:45:00 15.5 C 11.9 g/m*3 15.5 C 3.2 km/h
335 22-06-2020 03:50:00 15.6 C 11.84 g/m*3 15.6 C 1.6 km/h
336 22-06-2020 03:55:00 15.6 C 11.84 g/m*3 15.6 C 3.2 km/h
337 22-06-2020 04:00:00 15.6 C 11.84 g/m*3 15.6 C 0 km/h
338 22-06-2020 04:05:00 15.7 C 11.91 g/m*3 15.7 C 0 km/h
339 22-06-2020 04:10:00 15.7 C 11.91 g/m*3 15.7 C 1.6 km/h
340 22-06-2020 04:15:00 15.8 C 11.98 g/m*3 15.8 C 0 km/h
341 22-06-2020 04:20:00 15.8 C 11.98 g/m*3 15.8 C 0 km/h
342 22-06-2020 04:25:00 15.9 C 12.05 g/m*3 15.9 C 1.6 km/h
343 22-06-2020 04:30:00 16.1 C 12.06 g/m*3 16.1 C 0 km/h
344 22-06-2020 04:35:00 16.2 C 12.14 g/m*3 16.2 C 0 km/h
345 22-06-2020 04:40:00 16.3 C 12.21 g/m*3 16.3 C 0 km/h
346 22-06-2020 04:45:00 16.3 C 12.21 g/m*3 16.3 C 1.6 km/h
347 22-06-2020 04:50:00 16.3 C 12.21 g/m*3 16.3 C 0 km/h
348 22-06-2020 04:55:00 16.4 C 12.14 g/m*3 16.4 C 4.8 km/h
349 22-06-2020 05:00:00 16.5 C 12.08 g/m*3 16.5 C 4.8 km/h
350 22-06-2020 05:05:00 16.6 C 12.29 g/m*3 16.6 C 1.6 km/h
Sensor: Nr:Datum:Temp:Abs-Feuchte:Windchill:Wind:
Aussen-T/F 351 22-06-2020 05:10:00 16.7 C 12.36 g/m*3 16.7 C 0 km/h
352 22-06-2020 05:15:00 16.7 C 12.36 g/m*3 16.7 C 6.4 km/h
353 22-06-2020 05:20:00 16.8 C 12.3 g/m*3 16.8 C 9.7 km/h
354 22-06-2020 05:25:00 16.8 C 12.01 g/m*3 16.8 C 8.1 km/h
355 22-06-2020 05:30:00 16.8 C 11.87 g/m*3 16.8 C 11.3 km/h
356 22-06-2020 05:35:00 16.6 C 11.72 g/m*3 16.6 C 14.5 km/h
357 22-06-2020 05:40:00 16.3 C 11.52 g/m*3 16.3 C 17.7 km/h
358 22-06-2020 05:45:00 16.1 C 11.51 g/m*3 16.1 C 17.7 km/h
359 22-06-2020 05:50:00 15.9 C 11.38 g/m*3 15.9 C 12.9 km/h
360 22-06-2020 05:55:00 15.8 C 11.31 g/m*3 15.8 C 12.9 km/h
361 22-06-2020 06:00:00 15.7 C 11.24 g/m*3 15.7 C 12.9 km/h
362 22-06-2020 06:05:00 15.7 C 11.37 g/m*3 15.7 C 1.6 km/h
363 22-06-2020 06:10:00 15.7 C 11.37 g/m*3 15.7 C 4.8 km/h
364 22-06-2020 06:15:00 15.7 C 11.51 g/m*3 15.7 C 3.2 km/h
365 22-06-2020 06:20:00 15.6 C 11.3 g/m*3 15.6 C 6.4 km/h
366 22-06-2020 06:25:00 15.6 C 11.3 g/m*3 15.6 C 6.4 km/h
367 22-06-2020 06:30:00 15.5 C 11.24 g/m*3 15.5 C 4.8 km/h
368 22-06-2020 06:35:00 15.4 C 11.17 g/m*3 15.4 C 3.2 km/h
369 22-06-2020 06:40:00 15.4 C 11.17 g/m*3 15.4 C 6.4 km/h
370 22-06-2020 06:45:00 15.4 C 11.3 g/m*3 15.4 C 4.8 km/h
371 22-06-2020 06:50:00 15.4 C 11.17 g/m*3 15.4 C 3.2 km/h
372 22-06-2020 06:55:00 15.3 C 11.23 g/m*3 15.3 C 3.2 km/h
373 22-06-2020 07:00:00 15.3 C 11.1 g/m*3 15.3 C 1.6 km/h
374 22-06-2020 07:05:00 15.3 C 11.1 g/m*3 15.3 C 1.6 km/h
375 22-06-2020 07:10:00 15.3 C 11.1 g/m*3 15.3 C 9.7 km/h
Sensor: Nr:Datum:Temp:Abs-Feuchte:Windchill:Wind:
Aussen-T/F 376 22-06-2020 07:15:00 15.3 C 11.1 g/m*3 15.3 C 1.6 km/h
377 22-06-2020 07:20:00 15.3 C 11.1 g/m*3 15.3 C 1.6 km/h
378 22-06-2020 07:25:00 15.3 C 11.1 g/m*3 15.3 C 0 km/h
379 22-06-2020 07:30:00 15.3 C 11.1 g/m*3 15.3 C 4.8 km/h
380 22-06-2020 07:35:00 15.3 C 11.1 g/m*3 15.3 C 8.1 km/h
381 22-06-2020 07:40:00 15.3 C 10.97 g/m*3 15.3 C 8.1 km/h
382 22-06-2020 07:45:00 15.3 C 10.97 g/m*3 15.3 C 6.4 km/h
383 22-06-2020 07:50:00 15.3 C 10.97 g/m*3 15.3 C 11.3 km/h
384 22-06-2020 07:55:00 15.2 C 11.03 g/m*3 15.2 C 9.7 km/h
385 22-06-2020 08:00:00 15.2 C 11.16 g/m*3 15.2 C 3.2 km/h
386 22-06-2020 08:05:00 15.2 C 11.03 g/m*3 15.2 C 3.2 km/h
387 22-06-2020 08:10:00 15.1 C 10.97 g/m*3 15.1 C 6.4 km/h
388 22-06-2020 08:15:00 15.2 C 11.03 g/m*3 15.2 C 8.1 km/h
389 22-06-2020 08:20:00 15.2 C 11.03 g/m*3 15.2 C 8.1 km/h
390 22-06-2020 08:25:00 15.2 C 11.03 g/m*3 15.2 C 4.8 km/h
391 22-06-2020 08:30:00 15.2 C 11.16 g/m*3 15.2 C 6.4 km/h
392 22-06-2020 08:35:00 15.3 C 11.23 g/m*3 15.3 C 1.6 km/h
393 22-06-2020 08:40:00 15.3 C 11.23 g/m*3 15.3 C 3.2 km/h
394 22-06-2020 08:45:00 15.3 C 11.1 g/m*3 15.3 C 4.8 km/h
395 22-06-2020 08:50:00 15.3 C 11.1 g/m*3 15.3 C 1.6 km/h
396 22-06-2020 08:55:00 15.4 C 11.3 g/m*3 15.4 C 1.6 km/h
397 22-06-2020 09:00:00 15.6 C 11.44 g/m*3 15.6 C 4.8 km/h
398 22-06-2020 09:05:00 15.7 C 11.51 g/m*3 15.7 C 0 km/h
399 22-06-2020 09:10:00 15.8 C 11.44 g/m*3 15.8 C 3.2 km/h
400 22-06-2020 09:15:00 15.9 C 11.38 g/m*3 15.9 C 1.6 km/h
Sensor: Nr:Datum:Temp:Abs-Feuchte:Windchill:Wind:
Aussen-T/F 401 22-06-2020 09:20:00 16.1 C 11.51 g/m*3 16.1 C 3.2 km/h
402 22-06-2020 09:25:00 16.2 C 11.45 g/m*3 16.2 C 8.1 km/h
403 22-06-2020 09:30:00 16.2 C 11.45 g/m*3 16.2 C 4.8 km/h
404 22-06-2020 09:35:00 16.3 C 11.38 g/m*3 16.3 C 6.4 km/h
405 22-06-2020 09:40:00 16.4 C 11.45 g/m*3 16.4 C 3.2 km/h
406 22-06-2020 09:45:00 16.6 C 11.44 g/m*3 16.6 C 6.4 km/h
407 22-06-2020 09:50:00 16.6 C 11.58 g/m*3 16.6 C 6.4 km/h
408 22-06-2020 09:55:00 16.7 C 11.51 g/m*3 16.7 C 6.4 km/h
409 22-06-2020 10:00:00 16.7 C 11.51 g/m*3 16.7 C 6.4 km/h
410 22-06-2020 10:05:00 16.7 C 11.51 g/m*3 16.7 C 8.1 km/h
411 22-06-2020 10:10:00 16.7 C 11.51 g/m*3 16.7 C 8.1 km/h
412 22-06-2020 10:15:00 16.7 C 11.51 g/m*3 16.7 C 8.1 km/h
413 22-06-2020 10:20:00 16.8 C 11.58 g/m*3 16.8 C 8.1 km/h
414 22-06-2020 10:25:00 16.8 C 11.58 g/m*3 16.8 C 6.4 km/h
415 22-06-2020 10:30:00 16.9 C 11.65 g/m*3 16.9 C 6.4 km/h
416 22-06-2020 10:35:00 16.9 C 11.65 g/m*3 16.9 C 4.8 km/h
417 22-06-2020 10:40:00 17.1 C 11.79 g/m*3 17.1 C 6.4 km/h
418 22-06-2020 10:45:00 17.1 C 11.79 g/m*3 17.1 C 9.7 km/h
419 22-06-2020 10:50:00 17.2 C 11.86 g/m*3 17.2 C 4.8 km/h
420 22-06-2020 10:55:00 17.3 C 11.79 g/m*3 17.3 C 8.1 km/h
421 22-06-2020 11:00:00 17.3 C 11.93 g/m*3 17.3 C 8.1 km/h
422 22-06-2020 11:05:00 17.4 C 12 g/m*3 17.4 C 4.8 km/h
423 22-06-2020 11:10:00 17.4 C 11.86 g/m*3 17.4 C 6.4 km/h
424 22-06-2020 11:15:00 17.4 C 12 g/m*3 17.4 C 4.8 km/h
425 22-06-2020 11:20:00 17.5 C 12.08 g/m*3 17.5 C 6.4 km/h
Sensor: Nr:Datum:Temp:Abs-Feuchte:Windchill:Wind:
Aussen-T/F 426 22-06-2020 11:25:00 17.6 C 12 g/m*3 17.6 C 8.1 km/h
427 22-06-2020 11:30:00 17.6 C 12 g/m*3 17.6 C 11.3 km/h
428 22-06-2020 11:35:00 17.6 C 12 g/m*3 17.6 C 3.2 km/h
429 22-06-2020 11:40:00 17.7 C 12.07 g/m*3 17.7 C 4.8 km/h
430 22-06-2020 11:45:00 17.8 C 11.99 g/m*3 17.8 C 6.4 km/h
431 22-06-2020 11:50:00 17.9 C 12.06 g/m*3 17.9 C 4.8 km/h
432 22-06-2020 11:55:00 17.9 C 12.06 g/m*3 17.9 C 9.7 km/h
433 22-06-2020 12:00:00 18.1 C 12.21 g/m*3 18.1 C 6.4 km/h
434 22-06-2020 12:05:00 18.2 C 12.12 g/m*3 18.2 C 4.8 km/h
435 22-06-2020 12:10:00 18.3 C 12.2 g/m*3 18.3 C 6.4 km/h
436 22-06-2020 12:15:00 18.3 C 12.04 g/m*3 18.3 C 4.8 km/h
437 22-06-2020 12:20:00 18.4 C 12.27 g/m*3 18.4 C 3.2 km/h
438 22-06-2020 12:25:00 18.5 C 12.18 g/m*3 18.5 C 4.8 km/h
439 22-06-2020 12:30:00 18.6 C 12.26 g/m*3 18.6 C 4.8 km/h
440 22-06-2020 12:35:00 18.7 C 12.49 g/m*3 18.7 C 9.7 km/h
441 22-06-2020 12:40:00 18.8 C 12.4 g/m*3 18.8 C 6.4 km/h
442 22-06-2020 12:45:00 19.1 C 12.62 g/m*3 19.1 C 8.1 km/h
443 22-06-2020 12:50:00 19.2 C 12.37 g/m*3 19.2 C 6.4 km/h
444 22-06-2020 12:55:00 19.3 C 12.61 g/m*3 19.3 C 4.8 km/h
445 22-06-2020 13:00:00 19.6 C 12.66 g/m*3 19.6 C 8.1 km/h
446 22-06-2020 13:05:00 19.7 C 12.57 g/m*3 19.7 C 4.8 km/h
447 22-06-2020 13:10:00 19.8 C 12.64 g/m*3 19.8 C 6.4 km/h
448 22-06-2020 13:15:00 19.8 C 12.81 g/m*3 19.8 C 4.8 km/h
449 22-06-2020 13:20:00 19.9 C 12.89 g/m*3 19.9 C 6.4 km/h
450 22-06-2020 13:25:00 19.9 C 12.71 g/m*3 19.9 C 3.2 km/h
Sensor: Nr:Datum:Temp:Abs-Feuchte:Windchill:Wind:
Aussen-T/F 451 22-06-2020 13:30:00 19.8 C 12.64 g/m*3 19.8 C 11.3 km/h
452 22-06-2020 13:35:00 19.8 C 12.64 g/m*3 19.8 C 11.3 km/h
453 22-06-2020 13:40:00 19.8 C 12.47 g/m*3 19.8 C 9.7 km/h
454 22-06-2020 13:45:00 19.8 C 12.64 g/m*3 19.8 C 12.9 km/h
455 22-06-2020 13:50:00 19.9 C 12.54 g/m*3 19.9 C 9.7 km/h
456 22-06-2020 13:55:00 20.1 C 12.86 g/m*3 20.1 C 8.1 km/h
457 22-06-2020 14:00:00 20.2 C 12.41 g/m*3 20.2 C 9.7 km/h
458 22-06-2020 14:05:00 20.3 C 12.66 g/m*3 20.3 C 8.1 km/h
459 22-06-2020 14:10:00 20.6 C 12.53 g/m*3 20.6 C 12.9 km/h
460 22-06-2020 14:15:00 20.8 C 12.67 g/m*3 20.8 C 12.9 km/h
461 22-06-2020 14:20:00 21 C 12.46 g/m*3 21 C 12.9 km/h
462 22-06-2020 14:25:00 21.2 C 12.42 g/m*3 21.2 C 11.3 km/h
463 22-06-2020 14:30:00 21.3 C 12.49 g/m*3 21.3 C 9.7 km/h
464 22-06-2020 14:35:00 21.3 C 12.49 g/m*3 21.3 C 11.3 km/h
465 22-06-2020 14:40:00 21.6 C 12.71 g/m*3 21.6 C 8.1 km/h
466 22-06-2020 14:45:00 21.8 C 12.66 g/m*3 21.8 C 8.1 km/h
467 22-06-2020 14:50:00 21.8 C 12.47 g/m*3 21.8 C 8.1 km/h
468 22-06-2020 14:55:00 21.9 C 12.93 g/m*3 21.9 C 6.4 km/h
469 22-06-2020 15:00:00 22.4 C 12.71 g/m*3 22.4 C 9.7 km/h
470 22-06-2020 15:05:00 22.5 C 12.58 g/m*3 22.5 C 9.7 km/h
471 22-06-2020 15:10:00 22.5 C 12.78 g/m*3 22.5 C 6.4 km/h
472 22-06-2020 15:15:00 22.7 C 12.32 g/m*3 22.7 C 9.7 km/h
473 22-06-2020 15:20:00 22.7 C 12.32 g/m*3 22.7 C 12.9 km/h
474 22-06-2020 15:25:00 22.7 C 12.32 g/m*3 22.7 C 8.1 km/h
475 22-06-2020 15:30:00 23 C 12.13 g/m*3 23 C 9.7 km/h
Sensor: Nr:Datum:Temp:Abs-Feuchte:Windchill:Wind:
Aussen-T/F 476 22-06-2020 15:35:00 23.3 C 12.55 g/m*3 23.3 C 8.1 km/h
477 22-06-2020 15:40:00 23.8 C 12.48 g/m*3 23.8 C 9.7 km/h
478 22-06-2020 15:45:00 23.7 C 12.19 g/m*3 23.7 C 11.3 km/h
479 22-06-2020 15:50:00 23.4 C 11.78 g/m*3 23.4 C 12.9 km/h
480 22-06-2020 15:55:00 22.9 C 11.65 g/m*3 22.9 C 9.7 km/h
481 22-06-2020 16:00:00 22.8 C 11.79 g/m*3 22.8 C 6.4 km/h
482 22-06-2020 16:05:00 22.7 C 11.92 g/m*3 22.7 C 9.7 km/h
483 22-06-2020 16:10:00 22.7 C 12.12 g/m*3 22.7 C 8.1 km/h
484 22-06-2020 16:15:00 23 C 11.92 g/m*3 23 C 8.1 km/h
485 22-06-2020 16:20:00 23.1 C 11.99 g/m*3 23.1 C 9.7 km/h
486 22-06-2020 16:25:00 23.4 C 11.99 g/m*3 23.4 C 14.5 km/h
487 22-06-2020 16:30:00 23.4 C 12.2 g/m*3 23.4 C 9.7 km/h
488 22-06-2020 16:35:00 23.3 C 11.92 g/m*3 23.3 C 11.3 km/h
489 22-06-2020 16:40:00 22.9 C 11.65 g/m*3 22.9 C 9.7 km/h
490 22-06-2020 16:45:00 23 C 11.72 g/m*3 23 C 0 km/h
491 22-06-2020 16:50:00 23.5 C 11.84 g/m*3 23.5 C 6.4 km/h
492 22-06-2020 16:55:00 23.9 C 11.03 g/m*3 23.9 C 11.3 km/h
493 22-06-2020 17:00:00 23.8 C 10.76 g/m*3 23.8 C 9.7 km/h
494 22-06-2020 17:05:00 23.8 C 10.76 g/m*3 23.8 C 12.9 km/h
495 22-06-2020 17:10:00 24.1 C 10.72 g/m*3 24.1 C 9.7 km/h
496 22-06-2020 17:15:00 24.4 C 10.9 g/m*3 24.4 C 9.7 km/h
497 22-06-2020 17:20:00 24.8 C 10.47 g/m*3 24.8 C 9.7 km/h
498 22-06-2020 17:25:00 25 C 10.13 g/m*3 25 C 6.4 km/h
499 22-06-2020 17:30:00 25.1 C 10.19 g/m*3 25.1 C 11.3 km/h
500 22-06-2020 17:35:00 24.7 C 9.73 g/m*3 24.7 C 12.9 km/h
Sensor: Nr:Datum:Temp:Abs-Feuchte:Windchill:Wind:
Aussen-T/F 501 22-06-2020 17:40:00 24.5 C 9.18 g/m*3 24.5 C 11.3 km/h
502 22-06-2020 17:45:00 24.6 C 9.45 g/m*3 24.6 C 11.3 km/h
503 22-06-2020 17:50:00 24.8 C 9.33 g/m*3 24.8 C 6.4 km/h
504 22-06-2020 17:55:00 25.1 C 9.95 g/m*3 25.1 C 6.4 km/h
505 22-06-2020 18:00:00 25.3 C 9.6 g/m*3 25.3 C 11.3 km/h
506 22-06-2020 18:05:00 25.2 C 9.31 g/m*3 25.2 C 14.5 km/h
507 22-06-2020 18:10:00 24.9 C 8.93 g/m*3 24.9 C 6.4 km/h
508 22-06-2020 18:15:00 25 C 9.21 g/m*3 25 C 11.3 km/h
509 22-06-2020 18:20:00 24.9 C 8.93 g/m*3 24.9 C 9.7 km/h
510 22-06-2020 18:25:00 24.9 C 8.93 g/m*3 24.9 C 11.3 km/h
511 22-06-2020 18:30:00 25.1 C 8.57 g/m*3 25.1 C 8.1 km/h
512 22-06-2020 18:35:00 25.2 C 8.85 g/m*3 25.2 C 4.8 km/h
513 22-06-2020 18:40:00 25.1 C 9.26 g/m*3 25.1 C 11.3 km/h
514 22-06-2020 18:45:00 25.1 C 9.49 g/m*3 25.1 C 11.3 km/h
515 22-06-2020 18:50:00 25.2 C 9.54 g/m*3 25.2 C 8.1 km/h
516 22-06-2020 18:55:00 25.3 C 9.36 g/m*3 25.3 C 9.7 km/h
517 22-06-2020 19:00:00 25.2 C 9.31 g/m*3 25.2 C 11.3 km/h
518 22-06-2020 19:05:00 25.1 C 9.72 g/m*3 25.1 C 12.9 km/h
519 22-06-2020 19:10:00 25 C 9.44 g/m*3 25 C 4.8 km/h
520 22-06-2020 19:15:00 25.1 C 9.72 g/m*3 25.1 C 6.4 km/h
521 22-06-2020 19:20:00 25 C 9.44 g/m*3 25 C 9.7 km/h
522 22-06-2020 19:25:00 24.8 C 9.33 g/m*3 24.8 C 6.4 km/h
523 22-06-2020 19:30:00 24.7 C 9.96 g/m*3 24.7 C 4.8 km/h
524 22-06-2020 19:35:00 24.6 C 9.68 g/m*3 24.6 C 6.4 km/h
525 22-06-2020 19:40:00 24.5 C 9.62 g/m*3 24.5 C 6.4 km/h
Sensor: Nr:Datum:Temp:Abs-Feuchte:Windchill:Wind:
Aussen-T/F 526 22-06-2020 19:45:00 24.4 C 9.57 g/m*3 24.4 C 6.4 km/h
527 22-06-2020 19:50:00 24.3 C 9.74 g/m*3 24.3 C 3.2 km/h
528 22-06-2020 19:55:00 24.2 C 9.24 g/m*3 24.2 C 4.8 km/h
529 22-06-2020 20:00:00 24.2 C 9.68 g/m*3 24.2 C 3.2 km/h
530 22-06-2020 20:05:00 24.2 C 9.68 g/m*3 24.2 C 6.4 km/h
531 22-06-2020 20:10:00 24.1 C 9.85 g/m*3 24.1 C 3.2 km/h
532 22-06-2020 20:15:00 24.1 C 9.63 g/m*3 24.1 C 3.2 km/h
533 22-06-2020 20:20:00 23.9 C 9.74 g/m*3 23.9 C 3.2 km/h
534 22-06-2020 20:25:00 23.8 C 9.68 g/m*3 23.8 C 4.8 km/h
535 22-06-2020 20:30:00 23.8 C 9.46 g/m*3 23.8 C 3.2 km/h
536 22-06-2020 20:35:00 23.8 C 9.68 g/m*3 23.8 C 3.2 km/h
537 22-06-2020 20:40:00 23.7 C 9.63 g/m*3 23.7 C 6.4 km/h
538 22-06-2020 20:45:00 23.6 C 9.57 g/m*3 23.6 C 3.2 km/h
539 22-06-2020 20:50:00 23.5 C 9.73 g/m*3 23.5 C 0 km/h
540 22-06-2020 20:55:00 23.3 C 9.83 g/m*3 23.3 C 3.2 km/h
541 22-06-2020 21:00:00 23.2 C 9.56 g/m*3 23.2 C 1.6 km/h
542 22-06-2020 21:05:00 22.9 C 11.65 g/m*3 22.9 C 0 km/h
543 22-06-2020 21:10:00 22.7 C 10.51 g/m*3 22.7 C 0 km/h
544 22-06-2020 21:15:00 22.3 C 11.26 g/m*3 22.3 C 3.2 km/h
545 22-06-2020 21:20:00 21.8 C 10.36 g/m*3 21.8 C 1.6 km/h
546 22-06-2020 21:25:00 21.3 C 11.18 g/m*3 21.3 C 1.6 km/h
547 22-06-2020 21:30:00 20.7 C 11.34 g/m*3 20.7 C 3.2 km/h
548 22-06-2020 21:35:00 20.1 C 11.13 g/m*3 20.1 C 1.6 km/h
549 22-06-2020 21:40:00 19.5 C 11.08 g/m*3 19.5 C 4.8 km/h
550 22-06-2020 21:45:00 19.1 C 10.82 g/m*3 19.1 C 6.4 km/h
Sensor: Nr:Datum:Temp:Abs-Feuchte:Windchill:Wind:
Aussen-T/F 551 22-06-2020 21:50:00 18.7 C 10.89 g/m*3 18.7 C 6.4 km/h
552 22-06-2020 21:55:00 18.3 C 10.63 g/m*3 18.3 C 6.4 km/h
553 22-06-2020 22:00:00 18.1 C 10.51 g/m*3 18.1 C 8.1 km/h
554 22-06-2020 22:05:00 17.8 C 10.47 g/m*3 17.8 C 8.1 km/h
555 22-06-2020 22:10:00 17.7 C 10.41 g/m*3 17.7 C 8.1 km/h
556 22-06-2020 22:15:00 17.5 C 10.44 g/m*3 17.5 C 8.1 km/h
557 22-06-2020 22:20:00 17.3 C 10.46 g/m*3 17.3 C 8.1 km/h
558 22-06-2020 22:25:00 17.2 C 10.25 g/m*3 17.2 C 8.1 km/h
559 22-06-2020 22:30:00 17.1 C 10.34 g/m*3 17.1 C 8.1 km/h
560 22-06-2020 22:35:00 16.9 C 10.21 g/m*3 16.9 C 8.1 km/h
561 22-06-2020 22:40:00 16.8 C 10.44 g/m*3 16.8 C 6.4 km/h
562 22-06-2020 22:45:00 16.8 C 10.58 g/m*3 16.8 C 0 km/h
563 22-06-2020 22:50:00 16.7 C 10.66 g/m*3 16.7 C 0 km/h
564 22-06-2020 22:55:00 16.4 C 10.33 g/m*3 16.4 C 4.8 km/h
565 22-06-2020 23:00:00 16.3 C 10.54 g/m*3 16.3 C 0 km/h
566 22-06-2020 23:05:00 16.1 C 10.42 g/m*3 16.1 C 0 km/h
567 22-06-2020 23:10:00 15.9 C 10.56 g/m*3 15.9 C 0 km/h
568 22-06-2020 23:15:00 15.7 C 10.57 g/m*3 15.7 C 0 km/h
569 22-06-2020 23:20:00 15.6 C 10.51 g/m*3 15.6 C 0 km/h
570 22-06-2020 23:25:00 15.4 C 10.51 g/m*3 15.4 C 0 km/h
571 22-06-2020 23:30:00 15.2 C 10.38 g/m*3 15.2 C 0 km/h
572 22-06-2020 23:35:00 15.1 C 10.45 g/m*3 15.1 C 0 km/h
573 22-06-2020 23:40:00 14.9 C 10.2 g/m*3 14.9 C 0 km/h
574 22-06-2020 23:45:00 14.7 C 10.2 g/m*3 14.7 C 0 km/h
575 22-06-2020 23:50:00 14.7 C 10.32 g/m*3 14.7 C 0 km/h
Sensor: Nr:Datum:Temp:Abs-Feuchte:Windchill:Wind:
Aussen-T/F 576 22-06-2020 23:55:00 14.6 C 10.39 g/m*3 14.6 C 0 km/h
577 23-06-2020 00:00:00 14.4 C 10.26 g/m*3 14.4 C 0 km/h
578 23-06-2020 00:05:00 14.3 C 10.2 g/m*3 14.3 C 0 km/h
579 23-06-2020 00:10:00 14.2 C 10.14 g/m*3 14.2 C 0 km/h
580 23-06-2020 00:15:00 14.1 C 10.07 g/m*3 14.1 C 0 km/h
581 23-06-2020 00:20:00 14 C 10.13 g/m*3 14 C 0 km/h
582 23-06-2020 00:25:00 13.9 C 10.07 g/m*3 13.9 C 0 km/h
583 23-06-2020 00:30:00 13.8 C 10.01 g/m*3 13.8 C 0 km/h
584 23-06-2020 00:35:00 13.6 C 10 g/m*3 13.6 C 0 km/h
585 23-06-2020 00:40:00 13.5 C 9.94 g/m*3 13.5 C 0 km/h
586 23-06-2020 00:45:00 13.4 C 10 g/m*3 13.4 C 0 km/h
587 23-06-2020 00:50:00 13.3 C 9.94 g/m*3 13.3 C 0 km/h
588 23-06-2020 00:55:00 13.2 C 9.87 g/m*3 13.2 C 0 km/h
589 23-06-2020 01:00:00 13.2 C 9.99 g/m*3 13.2 C 0 km/h
590 23-06-2020 01:05:00 13.1 C 9.93 g/m*3 13.1 C 0 km/h
591 23-06-2020 01:10:00 13 C 9.87 g/m*3 13 C 0 km/h
592 23-06-2020 01:15:00 13 C 9.87 g/m*3 13 C 0 km/h
593 23-06-2020 01:20:00 12.9 C 9.92 g/m*3 12.9 C 0 km/h
594 23-06-2020 01:25:00 12.8 C 9.86 g/m*3 12.8 C 0 km/h
595 23-06-2020 01:30:00 12.8 C 9.86 g/m*3 12.8 C 0 km/h
596 23-06-2020 01:35:00 12.7 C 9.8 g/m*3 12.7 C 0 km/h
597 23-06-2020 01:40:00 12.7 C 9.8 g/m*3 12.7 C 0 km/h
598 23-06-2020 01:45:00 12.6 C 9.74 g/m*3 12.6 C 0 km/h
599 23-06-2020 01:50:00 12.6 C 9.74 g/m*3 12.6 C 0 km/h
600 23-06-2020 01:55:00 12.5 C 9.78 g/m*3 12.5 C 0 km/h
Sensor: Nr:Datum:Temp:Abs-Feuchte:Windchill:Wind:
Aussen-T/F 601 23-06-2020 02:00:00 12.4 C 9.72 g/m*3 12.4 C 0 km/h
602 23-06-2020 02:05:00 12.4 C 9.72 g/m*3 12.4 C 0 km/h
603 23-06-2020 02:10:00 12.4 C 9.72 g/m*3 12.4 C 0 km/h
604 23-06-2020 02:15:00 12.4 C 9.72 g/m*3 12.4 C 0 km/h
605 23-06-2020 02:20:00 12.4 C 9.72 g/m*3 12.4 C 0 km/h
606 23-06-2020 02:25:00 12.3 C 9.77 g/m*3 12.3 C 0 km/h
607 23-06-2020 02:30:00 12.3 C 9.77 g/m*3 12.3 C 0 km/h
608 23-06-2020 02:35:00 12.3 C 9.77 g/m*3 12.3 C 0 km/h
609 23-06-2020 02:40:00 12.2 C 9.71 g/m*3 12.2 C 0 km/h
610 23-06-2020 02:45:00 12.2 C 9.71 g/m*3 12.2 C 0 km/h
611 23-06-2020 02:50:00 12.1 C 9.65 g/m*3 12.1 C 0 km/h
612 23-06-2020 02:55:00 12.1 C 9.65 g/m*3 12.1 C 0 km/h
613 23-06-2020 03:00:00 12 C 9.59 g/m*3 12 C 0 km/h
614 23-06-2020 03:05:00 11.9 C 9.53 g/m*3 11.9 C 0 km/h
615 23-06-2020 03:10:00 11.9 C 9.64 g/m*3 11.9 C 0 km/h
616 23-06-2020 03:15:00 11.9 C 9.64 g/m*3 11.9 C 0 km/h
617 23-06-2020 03:20:00 11.9 C 9.64 g/m*3 11.9 C 1.6 km/h
618 23-06-2020 03:25:00 11.9 C 9.64 g/m*3 11.9 C 0 km/h
619 23-06-2020 03:30:00 12 C 9.7 g/m*3 12 C 0 km/h
620 23-06-2020 03:35:00 11.9 C 9.64 g/m*3 11.9 C 0 km/h
621 23-06-2020 03:40:00 11.9 C 9.64 g/m*3 11.9 C 0 km/h
622 23-06-2020 03:45:00 11.8 C 9.58 g/m*3 11.8 C 0 km/h
623 23-06-2020 03:50:00 11.7 C 9.52 g/m*3 11.7 C 0 km/h
624 23-06-2020 03:55:00 11.7 C 9.52 g/m*3 11.7 C 0 km/h
625 23-06-2020 04:00:00 11.6 C 9.46 g/m*3 11.6 C 0 km/h
Sensor: Nr:Datum:Temp:Abs-Feuchte:Windchill:Wind:
Aussen-T/F 626 23-06-2020 04:05:00 11.5 C 9.4 g/m*3 11.5 C 0 km/h
627 23-06-2020 04:10:00 11.4 C 9.34 g/m*3 11.4 C 0 km/h
628 23-06-2020 04:15:00 11.4 C 9.44 g/m*3 11.4 C 0 km/h
629 23-06-2020 04:20:00 11.3 C 9.38 g/m*3 11.3 C 0 km/h
630 23-06-2020 04:25:00 11.3 C 9.38 g/m*3 11.3 C 0 km/h
631 23-06-2020 04:30:00 11.2 C 9.33 g/m*3 11.2 C 0 km/h
632 23-06-2020 04:35:00 11.2 C 9.33 g/m*3 11.2 C 0 km/h
633 23-06-2020 04:40:00 11.2 C 9.33 g/m*3 11.2 C 0 km/h
634 23-06-2020 04:45:00 11.1 C 9.27 g/m*3 11.1 C 0 km/h
635 23-06-2020 04:50:00 11.1 C 9.37 g/m*3 11.1 C 0 km/h
636 23-06-2020 04:55:00 11.1 C 9.37 g/m*3 11.1 C 0 km/h
637 23-06-2020 05:00:00 11 C 9.31 g/m*3 11 C 0 km/h
638 23-06-2020 05:05:00 10.9 C 9.25 g/m*3 10.9 C 0 km/h
639 23-06-2020 05:10:00 10.9 C 9.25 g/m*3 10.9 C 0 km/h
640 23-06-2020 05:15:00 10.9 C 9.25 g/m*3 10.9 C 0 km/h
641 23-06-2020 05:20:00 10.8 C 9.19 g/m*3 10.8 C 0 km/h
642 23-06-2020 05:25:00 10.8 C 9.19 g/m*3 10.8 C 0 km/h
643 23-06-2020 05:30:00 10.8 C 9.19 g/m*3 10.8 C 0 km/h
644 23-06-2020 05:35:00 10.8 C 9.19 g/m*3 10.8 C 0 km/h
645 23-06-2020 05:40:00 10.7 C 9.13 g/m*3 10.7 C 0 km/h
646 23-06-2020 05:45:00 10.7 C 9.13 g/m*3 10.7 C 0 km/h
647 23-06-2020 05:50:00 10.7 C 9.23 g/m*3 10.7 C 0 km/h
648 23-06-2020 05:55:00 10.8 C 9.29 g/m*3 10.8 C 0 km/h
649 23-06-2020 06:00:00 10.8 C 9.29 g/m*3 10.8 C 0 km/h
650 23-06-2020 06:05:00 10.8 C 9.29 g/m*3 10.8 C 0 km/h
Sensor: Nr:Datum:Temp:Abs-Feuchte:Windchill:Wind:
Aussen-T/F 651 23-06-2020 06:10:00 10.9 C 9.35 g/m*3 10.9 C 0 km/h
652 23-06-2020 06:15:00 10.9 C 9.35 g/m*3 10.9 C 0 km/h
653 23-06-2020 06:20:00 10.9 C 9.35 g/m*3 10.9 C 0 km/h
654 23-06-2020 06:25:00 10.9 C 9.35 g/m*3 10.9 C 0 km/h
655 23-06-2020 06:30:00 10.9 C 9.35 g/m*3 10.9 C 0 km/h
656 23-06-2020 06:35:00 10.9 C 9.35 g/m*3 10.9 C 0 km/h
657 23-06-2020 06:40:00 11 C 9.41 g/m*3 11 C 0 km/h
658 23-06-2020 06:45:00 11.1 C 9.57 g/m*3 11.1 C 0 km/h
659 23-06-2020 06:50:00 11.1 C 9.57 g/m*3 11.1 C 0 km/h
660 23-06-2020 06:55:00 11.1 C 9.57 g/m*3 11.1 C 0 km/h
661 23-06-2020 07:00:00 11.2 C 9.63 g/m*3 11.2 C 0 km/h
662 23-06-2020 07:05:00 11.2 C 9.63 g/m*3 11.2 C 0 km/h
663 23-06-2020 07:10:00 11.3 C 9.69 g/m*3 11.3 C 0 km/h
664 23-06-2020 07:15:00 11.3 C 9.69 g/m*3 11.3 C 0 km/h
665 23-06-2020 07:20:00 11.4 C 9.75 g/m*3 11.4 C 0 km/h
666 23-06-2020 07:25:00 11.5 C 9.81 g/m*3 11.5 C 0 km/h
667 23-06-2020 07:30:00 11.6 C 9.87 g/m*3 11.6 C 0 km/h
668 23-06-2020 07:35:00 11.7 C 9.94 g/m*3 11.7 C 0 km/h
669 23-06-2020 07:40:00 11.7 C 9.94 g/m*3 11.7 C 0 km/h
670 23-06-2020 07:45:00 11.8 C 10 g/m*3 11.8 C 0 km/h
671 23-06-2020 07:50:00 11.9 C 10.06 g/m*3 11.9 C 0 km/h
672 23-06-2020 07:55:00 12 C 10.12 g/m*3 12 C 0 km/h
673 23-06-2020 08:00:00 12.1 C 10.19 g/m*3 12.1 C 0 km/h
674 23-06-2020 08:05:00 12.2 C 10.25 g/m*3 12.2 C 0 km/h
675 23-06-2020 08:10:00 12.3 C 10.32 g/m*3 12.3 C 0 km/h
Sensor: Nr:Datum:Temp:Abs-Feuchte:Windchill:Wind:
Aussen-T/F 676 23-06-2020 08:15:00 12.4 C 10.38 g/m*3 12.4 C 0 km/h
677 23-06-2020 08:20:00 12.6 C 10.51 g/m*3 12.6 C 0 km/h
678 23-06-2020 08:25:00 12.7 C 10.58 g/m*3 12.7 C 0 km/h
679 23-06-2020 08:30:00 12.8 C 10.64 g/m*3 12.8 C 0 km/h
680 23-06-2020 08:35:00 12.9 C 10.71 g/m*3 12.9 C 0 km/h
681 23-06-2020 08:40:00 13.1 C 10.84 g/m*3 13.1 C 0 km/h
682 23-06-2020 08:45:00 13.2 C 10.91 g/m*3 13.2 C 0 km/h
683 23-06-2020 08:50:00 13.3 C 10.98 g/m*3 13.3 C 0 km/h
684 23-06-2020 08:55:00 13.4 C 11.04 g/m*3 13.4 C 0 km/h
685 23-06-2020 09:00:00 13.6 C 11.18 g/m*3 13.6 C 0 km/h
686 23-06-2020 09:05:00 13.7 C 11.25 g/m*3 13.7 C 0 km/h
687 23-06-2020 09:10:00 13.9 C 11.39 g/m*3 13.9 C 0 km/h
688 23-06-2020 09:15:00 14.1 C 11.53 g/m*3 14.1 C 0 km/h
689 23-06-2020 09:20:00 14.2 C 11.6 g/m*3 14.2 C 0 km/h
690 23-06-2020 09:25:00 14.4 C 11.62 g/m*3 14.4 C 0 km/h
691 23-06-2020 09:30:00 14.6 C 11.76 g/m*3 14.6 C 0 km/h
692 23-06-2020 09:35:00 14.8 C 11.78 g/m*3 14.8 C 0 km/h
693 23-06-2020 09:40:00 15 C 11.93 g/m*3 15 C 0 km/h
694 23-06-2020 09:45:00 15.2 C 12.07 g/m*3 15.2 C 0 km/h
695 23-06-2020 09:50:00 15.4 C 12.09 g/m*3 15.4 C 0 km/h
696 23-06-2020 09:55:00 15.7 C 12.18 g/m*3 15.7 C 0 km/h
697 23-06-2020 10:00:00 16 C 12.4 g/m*3 16 C 0 km/h
698 23-06-2020 10:05:00 16.3 C 12.49 g/m*3 16.3 C 0 km/h
699 23-06-2020 10:10:00 16.6 C 12.43 g/m*3 16.6 C 0 km/h
700 23-06-2020 10:15:00 17.1 C 12.66 g/m*3 17.1 C 0 km/h
Sensor: Nr:Datum:Temp:Abs-Feuchte:Windchill:Wind:
Aussen-T/F 701 23-06-2020 10:20:00 17.6 C 13.05 g/m*3 17.6 C 0 km/h
702 23-06-2020 10:25:00 18.3 C 13.13 g/m*3 18.3 C 3.2 km/h
703 23-06-2020 10:30:00 18.9 C 12.96 g/m*3 18.9 C 3.2 km/h
704 23-06-2020 10:35:00 19.5 C 12.75 g/m*3 19.5 C 3.2 km/h
705 23-06-2020 10:40:00 20.2 C 13.11 g/m*3 20.2 C 3.2 km/h
706 23-06-2020 10:45:00 20.6 C 12.89 g/m*3 20.6 C 1.6 km/h
707 23-06-2020 10:50:00 21.1 C 13.08 g/m*3 21.1 C 3.2 km/h
708 23-06-2020 10:55:00 21.4 C 12.37 g/m*3 21.4 C 3.2 km/h
709 23-06-2020 11:00:00 21.7 C 12.4 g/m*3 21.7 C 6.4 km/h
710 23-06-2020 11:05:00 22 C 12.23 g/m*3 22 C 3.2 km/h
711 23-06-2020 11:10:00 22.2 C 11.98 g/m*3 22.2 C 4.8 km/h
712 23-06-2020 11:15:00 22.5 C 12.38 g/m*3 22.5 C 6.4 km/h
713 23-06-2020 11:20:00 22.6 C 11.85 g/m*3 22.6 C 4.8 km/h
714 23-06-2020 11:25:00 22.6 C 12.05 g/m*3 22.6 C 4.8 km/h
715 23-06-2020 11:30:00 22.7 C 11.72 g/m*3 22.7 C 6.4 km/h
716 23-06-2020 11:35:00 22.8 C 11.58 g/m*3 22.8 C 0 km/h
717 23-06-2020 11:40:00 22.9 C 11.44 g/m*3 22.9 C 0 km/h
718 23-06-2020 11:45:00 23 C 11.3 g/m*3 23 C 9.7 km/h
719 23-06-2020 11:50:00 23.1 C 11.37 g/m*3 23.1 C 6.4 km/h
720 23-06-2020 11:55:00 23.1 C 11.37 g/m*3 23.1 C 6.4 km/h
721 23-06-2020 12:00:00 23.1 C 11.37 g/m*3 23.1 C 11.3 km/h
722 23-06-2020 12:05:00 23.1 C 11.16 g/m*3 23.1 C 11.3 km/h
723 23-06-2020 12:10:00 23.1 C 11.37 g/m*3 23.1 C 3.2 km/h
724 23-06-2020 12:15:00 23.1 C 11.16 g/m*3 23.1 C 3.2 km/h
725 23-06-2020 12:20:00 23.2 C 11.02 g/m*3 23.2 C 6.4 km/h
Sensor: Nr:Datum:Temp:Abs-Feuchte:Windchill:Wind:
Aussen-T/F 726 23-06-2020 12:25:00 23.3 C 11.08 g/m*3 23.3 C 4.8 km/h
727 23-06-2020 12:30:00 23.4 C 11.14 g/m*3 23.4 C 14.5 km/h
728 23-06-2020 12:35:00 23.6 C 11.06 g/m*3 23.6 C 14.5 km/h
729 23-06-2020 12:40:00 23.7 C 10.91 g/m*3 23.7 C 11.3 km/h
730 23-06-2020 12:45:00 23.7 C 10.91 g/m*3 23.7 C 6.4 km/h
731 23-06-2020 12:50:00 23.7 C 11.55 g/m*3 23.7 C 0 km/h
732 23-06-2020 12:55:00 23.7 C 10.91 g/m*3 23.7 C 1.6 km/h
733 23-06-2020 13:00:00 23.9 C 10.82 g/m*3 23.9 C 8.1 km/h
734 23-06-2020 13:05:00 24.2 C 10.78 g/m*3 24.2 C 14.5 km/h
735 23-06-2020 13:10:00 24.3 C 10.62 g/m*3 24.3 C 9.7 km/h
736 23-06-2020 13:15:00 24.3 C 10.62 g/m*3 24.3 C 8.1 km/h
737 23-06-2020 13:20:00 24.3 C 10.4 g/m*3 24.3 C 6.4 km/h
738 23-06-2020 13:25:00 24.3 C 10.62 g/m*3 24.3 C 8.1 km/h
739 23-06-2020 13:30:00 24.4 C 10.68 g/m*3 24.4 C 9.7 km/h
740 23-06-2020 13:35:00 24.4 C 10.46 g/m*3 24.4 C 9.7 km/h
741 23-06-2020 13:40:00 24.5 C 10.52 g/m*3 24.5 C 11.3 km/h
742 23-06-2020 13:45:00 24.6 C 10.35 g/m*3 24.6 C 8.1 km/h
743 23-06-2020 13:50:00 24.9 C 10.53 g/m*3 24.9 C 9.7 km/h
744 23-06-2020 13:55:00 25.2 C 10.24 g/m*3 25.2 C 12.9 km/h
745 23-06-2020 14:00:00 25.3 C 10.07 g/m*3 25.3 C 9.7 km/h
746 23-06-2020 14:05:00 25.3 C 10.07 g/m*3 25.3 C 9.7 km/h
747 23-06-2020 14:10:00 25.3 C 10.07 g/m*3 25.3 C 14.5 km/h
748 23-06-2020 14:15:00 25.3 C 10.3 g/m*3 25.3 C 12.9 km/h
749 23-06-2020 14:20:00 25.3 C 10.07 g/m*3 25.3 C 11.3 km/h
750 23-06-2020 14:25:00 25.3 C 10.07 g/m*3 25.3 C 8.1 km/h
Sensor: Nr:Datum:Temp:Abs-Feuchte:Windchill:Wind:
Aussen-T/F 751 23-06-2020 14:30:00 25.3 C 10.07 g/m*3 25.3 C 9.7 km/h
752 23-06-2020 14:35:00 25.3 C 10.07 g/m*3 25.3 C 8.1 km/h
753 23-06-2020 14:40:00 25.5 C 10.18 g/m*3 25.5 C 11.3 km/h
754 23-06-2020 14:45:00 25.7 C 9.82 g/m*3 25.7 C 9.7 km/h
755 23-06-2020 14:50:00 26.1 C 10.28 g/m*3 26.1 C 9.7 km/h
756 23-06-2020 14:55:00 26.2 C 10.34 g/m*3 26.2 C 12.9 km/h
757 23-06-2020 15:00:00 26.2 C 10.59 g/m*3 26.2 C 12.9 km/h
758 23-06-2020 15:05:00 26.3 C 10.64 g/m*3 26.3 C 11.3 km/h
759 23-06-2020 15:10:00 26.4 C 10.95 g/m*3 26.4 C 8.1 km/h
760 23-06-2020 15:15:00 26.6 C 10.57 g/m*3 26.6 C 6.4 km/h
761 23-06-2020 15:20:00 26.7 C 10.63 g/m*3 26.7 C 3.2 km/h
762 23-06-2020 15:25:00 26.8 C 10.94 g/m*3 26.8 C 8.1 km/h
763 23-06-2020 15:30:00 27.2 C 10.67 g/m*3 27.2 C 12.9 km/h
764 23-06-2020 15:35:00 27.4 C 10.52 g/m*3 27.4 C 12.9 km/h
765 23-06-2020 15:40:00 27.7 C 10.97 g/m*3 27.7 C 11.3 km/h
766 23-06-2020 15:45:00 27.8 C 10.49 g/m*3 27.8 C 9.7 km/h
767 23-06-2020 15:50:00 27.8 C 10.22 g/m*3 27.8 C 12.9 km/h
768 23-06-2020 15:55:00 27.8 C 10.49 g/m*3 27.8 C 8.1 km/h
769 23-06-2020 16:00:00 28.1 C 10.39 g/m*3 28.1 C 9.7 km/h
770 23-06-2020 16:05:00 28.4 C 10.84 g/m*3 28.4 C 11.3 km/h
771 23-06-2020 16:10:00 28.4 C 10.56 g/m*3 28.4 C 9.7 km/h
772 23-06-2020 16:15:00 28.4 C 10.28 g/m*3 28.4 C 9.7 km/h
773 23-06-2020 16:20:00 28.3 C 10.51 g/m*3 28.3 C 12.9 km/h
774 23-06-2020 16:25:00 28 C 10.61 g/m*3 28 C 12.9 km/h
775 23-06-2020 16:30:00 28.3 C 10.78 g/m*3 28.3 C 9.7 km/h
Sensor: Nr:Datum:Temp:Abs-Feuchte:Windchill:Wind:
Aussen-T/F 776 23-06-2020 16:35:00 28.4 C 10.84 g/m*3 28.4 C 8.1 km/h
777 23-06-2020 16:40:00 28.3 C 10.51 g/m*3 28.3 C 8.1 km/h
778 23-06-2020 16:45:00 28.3 C 10.78 g/m*3 28.3 C 8.1 km/h
779 23-06-2020 16:50:00 28.3 C 11.06 g/m*3 28.3 C 12.9 km/h
780 23-06-2020 16:55:00 28.3 C 11.33 g/m*3 28.3 C 11.3 km/h
781 23-06-2020 17:00:00 28.7 C 11.3 g/m*3 28.7 C 11.3 km/h
782 23-06-2020 17:05:00 28.9 C 10.86 g/m*3 28.9 C 8.1 km/h
783 23-06-2020 17:10:00 29.1 C 11.26 g/m*3 29.1 C 3.2 km/h
784 23-06-2020 17:15:00 29.3 C 11.68 g/m*3 29.3 C 9.7 km/h
785 23-06-2020 17:20:00 29.6 C 12.17 g/m*3 29.6 C 6.4 km/h
786 23-06-2020 17:25:00 29.8 C 11.4 g/m*3 29.8 C 6.4 km/h
787 23-06-2020 17:30:00 29.5 C 11.51 g/m*3 29.5 C 4.8 km/h
788 23-06-2020 17:35:00 29.6 C 11.28 g/m*3 29.6 C 9.7 km/h
789 23-06-2020 17:40:00 29.4 C 11.45 g/m*3 29.4 C 6.4 km/h
790 23-06-2020 17:45:00 29.4 C 11.74 g/m*3 29.4 C 6.4 km/h
791 23-06-2020 17:50:00 29.5 C 11.51 g/m*3 29.5 C 6.4 km/h
792 23-06-2020 17:55:00 29.5 C 11.51 g/m*3 29.5 C 6.4 km/h
793 23-06-2020 18:00:00 29.6 C 11.28 g/m*3 29.6 C 6.4 km/h
794 23-06-2020 18:05:00 29.6 C 11.57 g/m*3 29.6 C 8.1 km/h
795 23-06-2020 18:10:00 29.5 C 11.81 g/m*3 29.5 C 8.1 km/h
796 23-06-2020 18:15:00 29.6 C 11.57 g/m*3 29.6 C 9.7 km/h
797 23-06-2020 18:20:00 29.4 C 11.45 g/m*3 29.4 C 8.1 km/h
798 23-06-2020 18:25:00 29.4 C 11.74 g/m*3 29.4 C 9.7 km/h
799 23-06-2020 18:30:00 29.3 C 11.68 g/m*3 29.3 C 9.7 km/h
800 23-06-2020 18:35:00 29.1 C 11.55 g/m*3 29.1 C 9.7 km/h
Sensor: Nr:Datum:Temp:Abs-Feuchte:Windchill:Wind:
Aussen-T/F 801 23-06-2020 18:40:00 28.8 C 11.65 g/m*3 28.8 C 11.3 km/h
802 23-06-2020 18:45:00 28.7 C 11.3 g/m*3 28.7 C 9.7 km/h
803 23-06-2020 18:50:00 28.7 C 11.59 g/m*3 28.7 C 11.3 km/h
804 23-06-2020 18:55:00 28.7 C 11.59 g/m*3 28.7 C 8.1 km/h
805 23-06-2020 19:00:00 28.8 C 11.65 g/m*3 28.8 C 6.4 km/h
806 23-06-2020 19:05:00 28.9 C 11.43 g/m*3 28.9 C 11.3 km/h
807 23-06-2020 19:10:00 28.8 C 11.36 g/m*3 28.8 C 6.4 km/h
808 23-06-2020 19:15:00 28.8 C 11.93 g/m*3 28.8 C 9.7 km/h
809 23-06-2020 19:20:00 28.7 C 11.87 g/m*3 28.7 C 9.7 km/h
810 23-06-2020 19:25:00 28.7 C 11.87 g/m*3 28.7 C 8.1 km/h
811 23-06-2020 19:30:00 28.6 C 12.08 g/m*3 28.6 C 6.4 km/h
812 23-06-2020 19:35:00 28.3 C 11.33 g/m*3 28.3 C 9.7 km/h
813 23-06-2020 19:40:00 28 C 11.69 g/m*3 28 C 8.1 km/h
814 23-06-2020 19:45:00 28 C 11.69 g/m*3 28 C 8.1 km/h
815 23-06-2020 19:50:00 28 C 11.69 g/m*3 28 C 8.1 km/h
816 23-06-2020 19:55:00 27.9 C 11.63 g/m*3 27.9 C 8.1 km/h
817 23-06-2020 20:00:00 27.9 C 11.9 g/m*3 27.9 C 6.4 km/h
818 23-06-2020 20:05:00 27.7 C 11.77 g/m*3 27.7 C 11.3 km/h
819 23-06-2020 20:10:00 27.7 C 11.77 g/m*3 27.7 C 8.1 km/h
820 23-06-2020 20:15:00 27.6 C 11.71 g/m*3 27.6 C 6.4 km/h
821 23-06-2020 20:20:00 27.4 C 11.84 g/m*3 27.4 C 6.4 km/h
822 23-06-2020 20:25:00 27.4 C 12.1 g/m*3 27.4 C 1.6 km/h
823 23-06-2020 20:30:00 27.4 C 12.37 g/m*3 27.4 C 4.8 km/h
824 23-06-2020 20:35:00 27.4 C 13.94 g/m*3 27.4 C 3.2 km/h
825 23-06-2020 20:40:00 27.4 C 13.94 g/m*3 27.4 C 0 km/h
Sensor: Nr:Datum:Temp:Abs-Feuchte:Windchill:Wind:
Aussen-T/F 826 23-06-2020 20:45:00 27.3 C 13.87 g/m*3 27.3 C 3.2 km/h
827 23-06-2020 20:50:00 27.1 C 13.72 g/m*3 27.1 C 3.2 km/h
828 23-06-2020 20:55:00 26.8 C 13.74 g/m*3 26.8 C 1.6 km/h
829 23-06-2020 21:00:00 26.4 C 13.69 g/m*3 26.4 C 3.2 km/h
830 23-06-2020 21:05:00 25.9 C 13.8 g/m*3 25.9 C 3.2 km/h
831 23-06-2020 21:10:00 25.5 C 13.49 g/m*3 25.5 C 4.8 km/h
832 23-06-2020 21:15:00 25 C 13.35 g/m*3 25 C 3.2 km/h
833 23-06-2020 21:20:00 24.5 C 13.2 g/m*3 24.5 C 4.8 km/h
834 23-06-2020 21:25:00 23.9 C 13.2 g/m*3 23.9 C 6.4 km/h
835 23-06-2020 21:30:00 23.5 C 13.11 g/m*3 23.5 C 3.2 km/h
836 23-06-2020 21:35:00 23.1 C 13.23 g/m*3 23.1 C 1.6 km/h
837 23-06-2020 21:40:00 22.7 C 12.93 g/m*3 22.7 C 3.2 km/h
838 23-06-2020 21:45:00 22.3 C 13.03 g/m*3 22.3 C 1.6 km/h
839 23-06-2020 21:50:00 22 C 12.62 g/m*3 22 C 4.8 km/h
840 23-06-2020 21:55:00 21.7 C 12.4 g/m*3 21.7 C 4.8 km/h
841 23-06-2020 22:00:00 21.4 C 12.19 g/m*3 21.4 C 6.4 km/h
842 23-06-2020 22:05:00 21.2 C 12.05 g/m*3 21.2 C 6.4 km/h
843 23-06-2020 22:10:00 21.1 C 12.16 g/m*3 21.1 C 8.1 km/h
844 23-06-2020 22:15:00 20.9 C 12.02 g/m*3 20.9 C 6.4 km/h
845 23-06-2020 22:20:00 20.7 C 12.06 g/m*3 20.7 C 6.4 km/h
846 23-06-2020 22:25:00 20.6 C 11.81 g/m*3 20.6 C 4.8 km/h
847 23-06-2020 22:30:00 20.4 C 11.68 g/m*3 20.4 C 6.4 km/h
848 23-06-2020 22:35:00 20.3 C 11.61 g/m*3 20.3 C 6.4 km/h
849 23-06-2020 22:40:00 20.2 C 12.06 g/m*3 20.2 C 4.8 km/h
850 23-06-2020 22:45:00 20.1 C 11.82 g/m*3 20.1 C 6.4 km/h
Sensor: Nr:Datum:Temp:Abs-Feuchte:Windchill:Wind:
Aussen-T/F 851 23-06-2020 22:50:00 19.9 C 11.68 g/m*3 19.9 C 6.4 km/h
852 23-06-2020 22:55:00 19.8 C 11.79 g/m*3 19.8 C 6.4 km/h
853 23-06-2020 23:00:00 19.7 C 12.06 g/m*3 19.7 C 3.2 km/h
854 23-06-2020 23:05:00 19.5 C 11.92 g/m*3 19.5 C 4.8 km/h
855 23-06-2020 23:10:00 19.3 C 11.94 g/m*3 19.3 C 4.8 km/h
856 23-06-2020 23:15:00 19.2 C 11.87 g/m*3 19.2 C 3.2 km/h
857 23-06-2020 23:20:00 19 C 11.9 g/m*3 19 C 4.8 km/h
858 23-06-2020 23:25:00 18.9 C 11.83 g/m*3 18.9 C 3.2 km/h
859 23-06-2020 23:30:00 18.7 C 11.85 g/m*3 18.7 C 4.8 km/h
860 23-06-2020 23:35:00 18.6 C 11.78 g/m*3 18.6 C 3.2 km/h
861 23-06-2020 23:40:00 18.4 C 11.64 g/m*3 18.4 C 1.6 km/h
862 23-06-2020 23:45:00 18.3 C 11.57 g/m*3 18.3 C 0 km/h
863 23-06-2020 23:50:00 18.2 C 11.66 g/m*3 18.2 C 0 km/h
864 23-06-2020 23:55:00 18.2 C 11.81 g/m*3 18.2 C 3.2 km/h
865 24-06-2020 00:00:00 18.1 C 11.59 g/m*3 18.1 C 4.8 km/h
866 24-06-2020 00:05:00 17.9 C 11.6 g/m*3 17.9 C 1.6 km/h
867 24-06-2020 00:10:00 17.8 C 11.54 g/m*3 17.8 C 3.2 km/h
868 24-06-2020 00:15:00 17.8 C 11.54 g/m*3 17.8 C 1.6 km/h
869 24-06-2020 00:20:00 17.7 C 11.62 g/m*3 17.7 C 3.2 km/h
870 24-06-2020 00:25:00 17.7 C 11.62 g/m*3 17.7 C 3.2 km/h
871 24-06-2020 00:30:00 17.7 C 11.62 g/m*3 17.7 C 1.6 km/h
872 24-06-2020 00:35:00 17.6 C 11.55 g/m*3 17.6 C 1.6 km/h
873 24-06-2020 00:40:00 17.5 C 11.48 g/m*3 17.5 C 3.2 km/h
874 24-06-2020 00:45:00 17.4 C 11.26 g/m*3 17.4 C 4.8 km/h
875 24-06-2020 00:50:00 17.4 C 11.41 g/m*3 17.4 C 3.2 km/h
Sensor: Nr:Datum:Temp:Abs-Feuchte:Windchill:Wind:
Aussen-T/F 876 24-06-2020 00:55:00 17.4 C 11.41 g/m*3 17.4 C 1.6 km/h
877 24-06-2020 01:00:00 17.3 C 11.34 g/m*3 17.3 C 1.6 km/h
878 24-06-2020 01:05:00 17.3 C 11.34 g/m*3 17.3 C 0 km/h
879 24-06-2020 01:10:00 17.2 C 11.42 g/m*3 17.2 C 3.2 km/h
880 24-06-2020 01:15:00 17.2 C 11.42 g/m*3 17.2 C 4.8 km/h
881 24-06-2020 01:20:00 17.1 C 11.21 g/m*3 17.1 C 1.6 km/h
882 24-06-2020 01:25:00 17 C 11.14 g/m*3 17 C 4.8 km/h
883 24-06-2020 01:30:00 16.9 C 10.93 g/m*3 16.9 C 3.2 km/h
884 24-06-2020 01:35:00 16.9 C 10.93 g/m*3 16.9 C 4.8 km/h
885 24-06-2020 01:40:00 16.9 C 10.93 g/m*3 16.9 C 3.2 km/h
886 24-06-2020 01:45:00 16.9 C 11.08 g/m*3 16.9 C 0 km/h
887 24-06-2020 01:50:00 16.9 C 11.22 g/m*3 16.9 C 0 km/h
888 24-06-2020 01:55:00 16.8 C 11.01 g/m*3 16.8 C 3.2 km/h
889 24-06-2020 02:00:00 16.7 C 10.94 g/m*3 16.7 C 3.2 km/h
890 24-06-2020 02:05:00 16.7 C 10.94 g/m*3 16.7 C 0 km/h
891 24-06-2020 02:10:00 16.6 C 11.02 g/m*3 16.6 C 0 km/h
892 24-06-2020 02:15:00 16.4 C 10.89 g/m*3 16.4 C 0 km/h
893 24-06-2020 02:20:00 16.3 C 10.96 g/m*3 16.3 C 1.6 km/h
894 24-06-2020 02:25:00 16.1 C 10.83 g/m*3 16.1 C 0 km/h
895 24-06-2020 02:30:00 15.9 C 10.83 g/m*3 15.9 C 0 km/h
896 24-06-2020 02:35:00 15.8 C 10.77 g/m*3 15.8 C 0 km/h
897 24-06-2020 02:40:00 15.7 C 10.84 g/m*3 15.7 C 0 km/h
898 24-06-2020 02:45:00 15.6 C 10.91 g/m*3 15.6 C 0 km/h
899 24-06-2020 02:50:00 15.4 C 10.77 g/m*3 15.4 C 0 km/h
900 24-06-2020 02:55:00 15.3 C 10.84 g/m*3 15.3 C 0 km/h
Sensor: Nr:Datum:Temp:Abs-Feuchte:Windchill:Wind:
Aussen-T/F 901 24-06-2020 03:00:00 15.2 C 10.77 g/m*3 15.2 C 0 km/h
902 24-06-2020 03:05:00 15.1 C 10.71 g/m*3 15.1 C 0 km/h
903 24-06-2020 03:10:00 14.9 C 10.58 g/m*3 14.9 C 0 km/h
904 24-06-2020 03:15:00 14.8 C 10.64 g/m*3 14.8 C 0 km/h
905 24-06-2020 03:20:00 14.8 C 10.64 g/m*3 14.8 C 0 km/h
906 24-06-2020 03:25:00 14.7 C 10.58 g/m*3 14.7 C 0 km/h
907 24-06-2020 03:30:00 14.6 C 10.51 g/m*3 14.6 C 0 km/h
908 24-06-2020 03:35:00 14.4 C 10.51 g/m*3 14.4 C 0 km/h
909 24-06-2020 03:40:00 14.4 C 10.63 g/m*3 14.4 C 0 km/h
910 24-06-2020 03:45:00 14.3 C 10.57 g/m*3 14.3 C 0 km/h
911 24-06-2020 03:50:00 14.3 C 10.69 g/m*3 14.3 C 0 km/h
912 24-06-2020 03:55:00 14.2 C 10.62 g/m*3 14.2 C 0 km/h
913 24-06-2020 04:00:00 14.2 C 10.62 g/m*3 14.2 C 0 km/h
914 24-06-2020 04:05:00 14.1 C 10.56 g/m*3 14.1 C 0 km/h
915 24-06-2020 04:10:00 13.9 C 10.43 g/m*3 13.9 C 0 km/h
916 24-06-2020 04:15:00 13.8 C 10.37 g/m*3 13.8 C 0 km/h
917 24-06-2020 04:20:00 13.7 C 10.3 g/m*3 13.7 C 0 km/h
918 24-06-2020 04:25:00 13.6 C 10.36 g/m*3 13.6 C 0 km/h
919 24-06-2020 04:30:00 13.5 C 10.29 g/m*3 13.5 C 0 km/h
920 24-06-2020 04:35:00 13.4 C 10.23 g/m*3 13.4 C 0 km/h
921 24-06-2020 04:40:00 13.3 C 10.17 g/m*3 13.3 C 0 km/h
922 24-06-2020 04:45:00 13.3 C 10.17 g/m*3 13.3 C 0 km/h
923 24-06-2020 04:50:00 13.2 C 10.1 g/m*3 13.2 C 0 km/h
924 24-06-2020 04:55:00 13.2 C 10.22 g/m*3 13.2 C 0 km/h
925 24-06-2020 05:00:00 13.1 C 10.16 g/m*3 13.1 C 0 km/h
Sensor: Nr:Datum:Temp:Abs-Feuchte:Windchill:Wind:
Aussen-T/F 926 24-06-2020 05:05:00 13.1 C 10.16 g/m*3 13.1 C 0 km/h
927 24-06-2020 05:10:00 13 C 10.09 g/m*3 13 C 0 km/h
928 24-06-2020 05:15:00 12.9 C 10.03 g/m*3 12.9 C 0 km/h
929 24-06-2020 05:20:00 12.9 C 10.03 g/m*3 12.9 C 0 km/h
930 24-06-2020 05:25:00 12.9 C 10.14 g/m*3 12.9 C 0 km/h
931 24-06-2020 05:30:00 12.9 C 10.14 g/m*3 12.9 C 0 km/h
932 24-06-2020 05:35:00 12.8 C 10.08 g/m*3 12.8 C 0 km/h
933 24-06-2020 05:40:00 12.8 C 10.08 g/m*3 12.8 C 0 km/h
934 24-06-2020 05:45:00 12.8 C 10.08 g/m*3 12.8 C 0 km/h
935 24-06-2020 05:50:00 12.8 C 10.08 g/m*3 12.8 C 0 km/h
936 24-06-2020 05:55:00 12.8 C 10.19 g/m*3 12.8 C 0 km/h
937 24-06-2020 06:00:00 12.8 C 10.19 g/m*3 12.8 C 0 km/h
938 24-06-2020 06:05:00 12.8 C 10.19 g/m*3 12.8 C 0 km/h
939 24-06-2020 06:10:00 12.7 C 10.13 g/m*3 12.7 C 0 km/h
940 24-06-2020 06:15:00 12.7 C 10.13 g/m*3 12.7 C 0 km/h
941 24-06-2020 06:20:00 12.7 C 10.13 g/m*3 12.7 C 0 km/h
942 24-06-2020 06:25:00 12.7 C 10.24 g/m*3 12.7 C 0 km/h
943 24-06-2020 06:30:00 12.8 C 10.3 g/m*3 12.8 C 0 km/h
944 24-06-2020 06:35:00 12.8 C 10.3 g/m*3 12.8 C 0 km/h
945 24-06-2020 06:40:00 12.8 C 10.3 g/m*3 12.8 C 0 km/h
946 24-06-2020 06:45:00 12.8 C 10.3 g/m*3 12.8 C 0 km/h
947 24-06-2020 06:50:00 12.9 C 10.37 g/m*3 12.9 C 0 km/h
948 24-06-2020 06:55:00 12.9 C 10.37 g/m*3 12.9 C 0 km/h
949 24-06-2020 07:00:00 13 C 10.43 g/m*3 13 C 0 km/h
950 24-06-2020 07:05:00 13.1 C 10.5 g/m*3 13.1 C 0 km/h
Sensor: Nr:Datum:Temp:Abs-Feuchte:Windchill:Wind:
Aussen-T/F 951 24-06-2020 07:10:00 13.1 C 10.5 g/m*3 13.1 C 0 km/h
952 24-06-2020 07:15:00 13.2 C 10.68 g/m*3 13.2 C 0 km/h
953 24-06-2020 07:20:00 13.2 C 10.68 g/m*3 13.2 C 0 km/h
954 24-06-2020 07:25:00 13.3 C 10.74 g/m*3 13.3 C 0 km/h
955 24-06-2020 07:30:00 13.3 C 10.74 g/m*3 13.3 C 0 km/h
956 24-06-2020 07:35:00 13.4 C 10.81 g/m*3 13.4 C 0 km/h
957 24-06-2020 07:40:00 13.6 C 10.95 g/m*3 13.6 C 0 km/h
958 24-06-2020 07:45:00 13.7 C 11.01 g/m*3 13.7 C 0 km/h
959 24-06-2020 07:50:00 13.8 C 11.08 g/m*3 13.8 C 0 km/h
960 24-06-2020 07:55:00 13.8 C 11.08 g/m*3 13.8 C 0 km/h
961 24-06-2020 08:00:00 13.9 C 11.15 g/m*3 13.9 C 0 km/h
962 24-06-2020 08:05:00 14 C 11.22 g/m*3 14 C 0 km/h
963 24-06-2020 08:10:00 14.1 C 11.17 g/m*3 14.1 C 0 km/h
964 24-06-2020 08:15:00 14.2 C 11.23 g/m*3 14.2 C 0 km/h
965 24-06-2020 08:20:00 14.3 C 11.3 g/m*3 14.3 C 0 km/h
966 24-06-2020 08:25:00 14.5 C 11.44 g/m*3 14.5 C 0 km/h
967 24-06-2020 08:30:00 14.6 C 11.51 g/m*3 14.6 C 0 km/h
968 24-06-2020 08:35:00 14.8 C 11.65 g/m*3 14.8 C 0 km/h
969 24-06-2020 08:40:00 14.9 C 11.73 g/m*3 14.9 C 0 km/h
970 24-06-2020 08:45:00 15.1 C 11.74 g/m*3 15.1 C 0 km/h
971 24-06-2020 08:50:00 15.3 C 11.88 g/m*3 15.3 C 0 km/h
972 24-06-2020 08:55:00 15.4 C 11.96 g/m*3 15.4 C 0 km/h
973 24-06-2020 09:00:00 15.6 C 12.1 g/m*3 15.6 C 0 km/h
974 24-06-2020 09:05:00 15.8 C 12.11 g/m*3 15.8 C 0 km/h
975 24-06-2020 09:10:00 16.1 C 12.2 g/m*3 16.1 C 1.6 km/h
Sensor: Nr:Datum:Temp:Abs-Feuchte:Windchill:Wind:
Aussen-T/F 976 24-06-2020 09:15:00 16.3 C 12.21 g/m*3 16.3 C 1.6 km/h
977 24-06-2020 09:20:00 16.6 C 12.15 g/m*3 16.6 C 3.2 km/h
978 24-06-2020 09:25:00 16.9 C 11.94 g/m*3 16.9 C 4.8 km/h
979 24-06-2020 09:30:00 17.3 C 12.08 g/m*3 17.3 C 1.6 km/h
980 24-06-2020 09:35:00 17.6 C 12.3 g/m*3 17.6 C 0 km/h
981 24-06-2020 09:40:00 17.9 C 12.52 g/m*3 17.9 C 0 km/h
982 24-06-2020 09:45:00 18.2 C 12.12 g/m*3 18.2 C 6.4 km/h
983 24-06-2020 09:50:00 18.6 C 11.78 g/m*3 18.6 C 4.8 km/h
984 24-06-2020 09:55:00 18.9 C 12.31 g/m*3 18.9 C 0 km/h
985 24-06-2020 10:00:00 19.1 C 12.29 g/m*3 19.1 C 1.6 km/h
986 24-06-2020 10:05:00 19.6 C 11.14 g/m*3 19.6 C 4.8 km/h
987 24-06-2020 10:10:00 20.2 C 12.24 g/m*3 20.2 C 1.6 km/h
988 24-06-2020 10:15:00 20.6 C 11.63 g/m*3 20.6 C 1.6 km/h
989 24-06-2020 10:20:00 21.1 C 12.16 g/m*3 21.1 C 6.4 km/h
990 24-06-2020 10:25:00 21.7 C 12.02 g/m*3 21.7 C 1.6 km/h
991 24-06-2020 10:30:00 22.4 C 11.12 g/m*3 22.4 C 11.3 km/h
992 24-06-2020 10:35:00 23.1 C 12.2 g/m*3 23.1 C 8.1 km/h
993 24-06-2020 10:40:00 23.4 C 10.72 g/m*3 23.4 C 11.3 km/h
994 24-06-2020 10:45:00 23.7 C 11.34 g/m*3 23.7 C 8.1 km/h
995 24-06-2020 10:50:00 23.8 C 11.62 g/m*3 23.8 C 4.8 km/h
996 24-06-2020 10:55:00 24.1 C 10.28 g/m*3 24.1 C 14.5 km/h
997 24-06-2020 11:00:00 24.2 C 10.56 g/m*3 24.2 C 12.9 km/h
998 24-06-2020 11:05:00 24.3 C 11.06 g/m*3 24.3 C 14.5 km/h
999 24-06-2020 11:10:00 24.4 C 10.24 g/m*3 24.4 C 16.1 km/h
1000 24-06-2020 11:15:00 24.6 C 11.25 g/m*3 24.6 C 14.5 km/h
Sensor: Nr:Datum:Temp:Abs-Feuchte:Windchill:Wind:
Aussen-T/F 1001 24-06-2020 11:20:00 24.7 C 10.86 g/m*3 24.7 C 6.4 km/h
1002 24-06-2020 11:25:00 24.8 C 10.02 g/m*3 24.8 C 14.5 km/h
1003 24-06-2020 11:30:00 24.9 C 10.07 g/m*3 24.9 C 12.9 km/h
1004 24-06-2020 11:35:00 24.9 C 10.53 g/m*3 24.9 C 11.3 km/h
1005 24-06-2020 11:40:00 24.9 C 10.07 g/m*3 24.9 C 11.3 km/h
1006 24-06-2020 11:45:00 25 C 10.36 g/m*3 25 C 14.5 km/h
1007 24-06-2020 11:50:00 25.1 C 10.19 g/m*3 25.1 C 11.3 km/h
1008 24-06-2020 11:55:00 25.1 C 10.19 g/m*3 25.1 C 16.1 km/h
1009 24-06-2020 12:00:00 25.1 C 10.19 g/m*3 25.1 C 20.9 km/h
1010 24-06-2020 12:05:00 25.1 C 10.42 g/m*3 25.1 C 12.9 km/h
1011 24-06-2020 12:10:00 25.1 C 10.19 g/m*3 25.1 C 14.5 km/h
1012 24-06-2020 12:15:00 25.2 C 10.48 g/m*3 25.2 C 11.3 km/h
1013 24-06-2020 12:20:00 25.3 C 10.07 g/m*3 25.3 C 17.7 km/h
1014 24-06-2020 12:25:00 25.6 C 10.71 g/m*3 25.6 C 12.9 km/h
1015 24-06-2020 12:30:00 25.6 C 10 g/m*3 25.6 C 9.7 km/h
1016 24-06-2020 12:35:00 25.5 C 9.94 g/m*3 25.5 C 24.1 km/h
1017 24-06-2020 12:40:00 25.6 C 10 g/m*3 25.6 C 24.1 km/h
1018 24-06-2020 12:45:00 25.6 C 9.76 g/m*3 25.6 C 12.9 km/h
1019 24-06-2020 12:50:00 25.7 C 10.29 g/m*3 25.7 C 9.7 km/h
1020 24-06-2020 12:55:00 25.9 C 10.41 g/m*3 25.9 C 9.7 km/h
1021 24-06-2020 13:00:00 25.9 C 10.17 g/m*3 25.9 C 9.7 km/h
1022 24-06-2020 13:05:00 26 C 10.47 g/m*3 26 C 12.9 km/h
1023 24-06-2020 13:10:00 26.1 C 10.28 g/m*3 26.1 C 17.7 km/h
1024 24-06-2020 13:15:00 26.1 C 10.04 g/m*3 26.1 C 14.5 km/h
1025 24-06-2020 13:20:00 26.2 C 9.6 g/m*3 26.2 C 17.7 km/h
Sensor: Nr:Datum:Temp:Abs-Feuchte:Windchill:Wind:
Aussen-T/F 1026 24-06-2020 13:25:00 26.3 C 9.65 g/m*3 26.3 C 17.7 km/h
1027 24-06-2020 13:30:00 26.3 C 9.65 g/m*3 26.3 C 14.5 km/h
1028 24-06-2020 13:35:00 26.4 C 9.46 g/m*3 26.4 C 16.1 km/h
1029 24-06-2020 13:40:00 26.6 C 9.57 g/m*3 26.6 C 19.3 km/h
1030 24-06-2020 13:45:00 26.5 C 9.76 g/m*3 26.5 C 16.1 km/h
1031 24-06-2020 13:50:00 26.6 C 9.82 g/m*3 26.6 C 20.9 km/h
1032 24-06-2020 13:55:00 26.6 C 9.57 g/m*3 26.6 C 17.7 km/h
1033 24-06-2020 14:00:00 26.7 C 9.62 g/m*3 26.7 C 16.1 km/h
1034 24-06-2020 14:05:00 26.8 C 9.16 g/m*3 26.8 C 19.3 km/h
1035 24-06-2020 14:10:00 26.8 C 9.67 g/m*3 26.8 C 16.1 km/h
1036 24-06-2020 14:15:00 26.8 C 9.42 g/m*3 26.8 C 14.5 km/h
1037 24-06-2020 14:20:00 26.8 C 9.67 g/m*3 26.8 C 14.5 km/h
1038 24-06-2020 14:25:00 26.9 C 9.73 g/m*3 26.9 C 12.9 km/h
1039 24-06-2020 14:30:00 27 C 10.04 g/m*3 27 C 14.5 km/h
1040 24-06-2020 14:35:00 27.1 C 9.83 g/m*3 27.1 C 12.9 km/h
1041 24-06-2020 14:40:00 27.3 C 9.94 g/m*3 27.3 C 16.1 km/h
1042 24-06-2020 14:45:00 27.4 C 10 g/m*3 27.4 C 16.1 km/h
1043 24-06-2020 14:50:00 27.5 C 9.79 g/m*3 27.5 C 14.5 km/h
1044 24-06-2020 14:55:00 27.5 C 9.52 g/m*3 27.5 C 20.9 km/h
1045 24-06-2020 15:00:00 27.4 C 9.47 g/m*3 27.4 C 17.7 km/h
1046 24-06-2020 15:05:00 27.6 C 9.04 g/m*3 27.6 C 14.5 km/h
1047 24-06-2020 15:10:00 27.6 C 9.31 g/m*3 27.6 C 11.3 km/h
1048 24-06-2020 15:15:00 27.7 C 9.09 g/m*3 27.7 C 16.1 km/h
1049 24-06-2020 15:20:00 27.8 C 8.88 g/m*3 27.8 C 17.7 km/h
1050 24-06-2020 15:25:00 27.8 C 8.88 g/m*3 27.8 C 14.5 km/h
Sensor: Nr:Datum:Temp:Abs-Feuchte:Windchill:Wind:
Aussen-T/F 1051 24-06-2020 15:30:00 27.8 C 9.15 g/m*3 27.8 C 29 km/h
1052 24-06-2020 15:35:00 27.8 C 9.15 g/m*3 27.8 C 17.7 km/h
1053 24-06-2020 15:40:00 28 C 9.79 g/m*3 28 C 14.5 km/h
1054 24-06-2020 15:45:00 28.3 C 9.4 g/m*3 28.3 C 16.1 km/h
1055 24-06-2020 15:50:00 28.2 C 9.07 g/m*3 28.2 C 20.9 km/h
1056 24-06-2020 15:55:00 28.2 C 9.35 g/m*3 28.2 C 20.9 km/h
1057 24-06-2020 16:00:00 28.4 C 8.62 g/m*3 28.4 C 20.9 km/h
1058 24-06-2020 16:05:00 28.3 C 8.02 g/m*3 28.3 C 19.3 km/h
1059 24-06-2020 16:10:00 28.2 C 7.97 g/m*3 28.2 C 24.1 km/h
1060 24-06-2020 16:15:00 28.2 C 8.52 g/m*3 28.2 C 17.7 km/h
1061 24-06-2020 16:20:00 28.4 C 8.34 g/m*3 28.4 C 19.3 km/h
1062 24-06-2020 16:25:00 28.4 C 8.34 g/m*3 28.4 C 17.7 km/h
1063 24-06-2020 16:30:00 28.8 C 8.24 g/m*3 28.8 C 8.1 km/h
1064 24-06-2020 16:35:00 29.3 C 8.47 g/m*3 29.3 C 17.7 km/h
1065 24-06-2020 16:40:00 29.1 C 8.09 g/m*3 29.1 C 17.7 km/h
1066 24-06-2020 16:45:00 29.2 C 8.42 g/m*3 29.2 C 12.9 km/h
1067 24-06-2020 16:50:00 29.1 C 8.09 g/m*3 29.1 C 19.3 km/h
1068 24-06-2020 16:55:00 28.8 C 8.24 g/m*3 28.8 C 20.9 km/h
1069 24-06-2020 17:00:00 28.7 C 8.48 g/m*3 28.7 C 14.5 km/h
1070 24-06-2020 17:05:00 28.9 C 8 g/m*3 28.9 C 19.3 km/h
1071 24-06-2020 17:10:00 28.6 C 7.87 g/m*3 28.6 C 19.3 km/h
1072 24-06-2020 17:15:00 28.8 C 8.24 g/m*3 28.8 C 12.9 km/h
1073 24-06-2020 17:20:00 28.9 C 7.71 g/m*3 28.9 C 14.5 km/h
1074 24-06-2020 17:25:00 29 C 7.76 g/m*3 29 C 12.9 km/h
1075 24-06-2020 17:30:00 28.9 C 7.71 g/m*3 28.9 C 12.9 km/h
Sensor: Nr:Datum:Temp:Abs-Feuchte:Windchill:Wind:
Aussen-T/F 1076 24-06-2020 17:35:00 28.9 C 7.71 g/m*3 28.9 C 19.3 km/h
1077 24-06-2020 17:40:00 28.8 C 7.67 g/m*3 28.8 C 11.3 km/h
1078 24-06-2020 17:45:00 28.8 C 7.67 g/m*3 28.8 C 14.5 km/h
1079 24-06-2020 17:50:00 28.9 C 7.43 g/m*3 28.9 C 14.5 km/h
1080 24-06-2020 17:55:00 28.8 C 7.39 g/m*3 28.8 C 17.7 km/h
1081 24-06-2020 18:00:00 28.7 C 7.35 g/m*3 28.7 C 20.9 km/h
1082 24-06-2020 18:05:00 28.7 C 7.35 g/m*3 28.7 C 14.5 km/h
1083 24-06-2020 18:10:00 28.6 C 7.03 g/m*3 28.6 C 14.5 km/h
1084 24-06-2020 18:15:00 28.8 C 7.39 g/m*3 28.8 C 9.7 km/h
1085 24-06-2020 18:20:00 28.9 C 7.43 g/m*3 28.9 C 16.1 km/h
1086 24-06-2020 18:25:00 28.7 C 7.63 g/m*3 28.7 C 17.7 km/h
1087 24-06-2020 18:30:00 28.8 C 7.39 g/m*3 28.8 C 16.1 km/h
1088 24-06-2020 18:35:00 28.8 C 7.1 g/m*3 28.8 C 12.9 km/h
1089 24-06-2020 18:40:00 28.8 C 7.1 g/m*3 28.8 C 14.5 km/h
1090 24-06-2020 18:45:00 28.8 C 7.67 g/m*3 28.8 C 14.5 km/h
1091 24-06-2020 18:50:00 29.1 C 7.22 g/m*3 29.1 C 8.1 km/h
1092 24-06-2020 18:55:00 29.1 C 7.8 g/m*3 29.1 C 14.5 km/h
1093 24-06-2020 19:00:00 28.9 C 7.14 g/m*3 28.9 C 19.3 km/h
1094 24-06-2020 19:05:00 28.5 C 7.55 g/m*3 28.5 C 17.7 km/h
1095 24-06-2020 19:10:00 28.4 C 7.78 g/m*3 28.4 C 12.9 km/h
1096 24-06-2020 19:15:00 28.4 C 7.78 g/m*3 28.4 C 14.5 km/h
1097 24-06-2020 19:20:00 28.2 C 7.42 g/m*3 28.2 C 9.7 km/h
1098 24-06-2020 19:25:00 28 C 8.7 g/m*3 28 C 12.9 km/h
1099 24-06-2020 19:30:00 27.5 C 7.94 g/m*3 27.5 C 14.5 km/h
1100 24-06-2020 19:35:00 27.2 C 8.07 g/m*3 27.2 C 14.5 km/h
Sensor: Nr:Datum:Temp:Abs-Feuchte:Windchill:Wind:
Aussen-T/F 1101 24-06-2020 19:40:00 27.1 C 8.28 g/m*3 27.1 C 16.1 km/h
1102 24-06-2020 19:45:00 27.2 C 8.59 g/m*3 27.2 C 12.9 km/h
1103 24-06-2020 19:50:00 27.2 C 8.85 g/m*3 27.2 C 14.5 km/h
1104 24-06-2020 19:55:00 27.3 C 8.63 g/m*3 27.3 C 8.1 km/h
1105 24-06-2020 20:00:00 27.3 C 8.63 g/m*3 27.3 C 8.1 km/h
1106 24-06-2020 20:05:00 27.3 C 8.9 g/m*3 27.3 C 8.1 km/h
1107 24-06-2020 20:10:00 27.3 C 9.16 g/m*3 27.3 C 8.1 km/h
1108 24-06-2020 20:15:00 27.3 C 9.16 g/m*3 27.3 C 8.1 km/h
1109 24-06-2020 20:20:00 27.3 C 9.16 g/m*3 27.3 C 9.7 km/h
1110 24-06-2020 20:25:00 27.2 C 9.11 g/m*3 27.2 C 8.1 km/h
1111 24-06-2020 20:30:00 27.1 C 9.06 g/m*3 27.1 C 9.7 km/h
1112 24-06-2020 20:35:00 27.1 C 9.58 g/m*3 27.1 C 4.8 km/h
1113 24-06-2020 20:40:00 27.1 C 9.58 g/m*3 27.1 C 3.2 km/h
1114 24-06-2020 20:45:00 27.2 C 10.15 g/m*3 27.2 C 3.2 km/h
1115 24-06-2020 20:50:00 27.2 C 10.67 g/m*3 27.2 C 3.2 km/h
1116 24-06-2020 20:55:00 27.1 C 11.13 g/m*3 27.1 C 1.6 km/h
1117 24-06-2020 21:00:00 26.9 C 11.77 g/m*3 26.9 C 4.8 km/h
1118 24-06-2020 21:05:00 26.5 C 11.51 g/m*3 26.5 C 1.6 km/h
1119 24-06-2020 21:10:00 26.1 C 11.51 g/m*3 26.1 C 3.2 km/h
1120 24-06-2020 21:15:00 25.6 C 11.43 g/m*3 25.6 C 4.8 km/h
1121 24-06-2020 21:20:00 24.9 C 11.45 g/m*3 24.9 C 1.6 km/h
1122 24-06-2020 21:25:00 24.4 C 11.57 g/m*3 24.4 C 3.2 km/h
1123 24-06-2020 21:30:00 23.9 C 11.25 g/m*3 23.9 C 3.2 km/h
1124 24-06-2020 21:35:00 23.4 C 11.14 g/m*3 23.4 C 6.4 km/h
1125 24-06-2020 21:40:00 22.9 C 11.04 g/m*3 22.9 C 3.2 km/h
Sensor: Nr:Datum:Temp:Abs-Feuchte:Windchill:Wind:
Aussen-T/F 1126 24-06-2020 21:45:00 22.5 C 10.79 g/m*3 22.5 C 4.8 km/h
1127 24-06-2020 21:50:00 22.2 C 10.99 g/m*3 22.2 C 3.2 km/h
1128 24-06-2020 21:55:00 21.8 C 11.13 g/m*3 21.8 C 4.8 km/h
1129 24-06-2020 22:00:00 21.6 C 11.19 g/m*3 21.6 C 4.8 km/h
1130 24-06-2020 22:05:00 21.3 C 11.37 g/m*3 21.3 C 0 km/h
1131 24-06-2020 22:10:00 21.2 C 11.3 g/m*3 21.2 C 0 km/h
1132 24-06-2020 22:15:00 21 C 11.36 g/m*3 21 C 0 km/h
1133 24-06-2020 22:20:00 20.9 C 11.11 g/m*3 20.9 C 9.7 km/h
1134 24-06-2020 22:25:00 20.8 C 11.23 g/m*3 20.8 C 1.6 km/h
1135 24-06-2020 22:30:00 20.8 C 11.41 g/m*3 20.8 C 3.2 km/h
1136 24-06-2020 22:35:00 20.8 C 11.59 g/m*3 20.8 C 4.8 km/h
1137 24-06-2020 22:40:00 20.7 C 11.52 g/m*3 20.7 C 0 km/h
1138 24-06-2020 22:45:00 20.6 C 11.63 g/m*3 20.6 C 0 km/h
1139 24-06-2020 22:50:00 20.4 C 11.32 g/m*3 20.4 C 3.2 km/h
1140 24-06-2020 22:55:00 20.3 C 11.61 g/m*3 20.3 C 1.6 km/h
1141 24-06-2020 23:00:00 20.2 C 11.37 g/m*3 20.2 C 0 km/h
1142 24-06-2020 23:05:00 20.1 C 11.3 g/m*3 20.1 C 0 km/h
1143 24-06-2020 23:10:00 20 C 11.23 g/m*3 20 C 0 km/h
1144 24-06-2020 23:15:00 19.8 C 11.27 g/m*3 19.8 C 0 km/h
1145 24-06-2020 23:20:00 19.8 C 11.27 g/m*3 19.8 C 4.8 km/h
1146 24-06-2020 23:25:00 19.9 C 11.17 g/m*3 19.9 C 3.2 km/h
1147 24-06-2020 23:30:00 19.9 C 11.17 g/m*3 19.9 C 1.6 km/h
1148 24-06-2020 23:35:00 19.8 C 11.27 g/m*3 19.8 C 1.6 km/h
1149 24-06-2020 23:40:00 19.6 C 11.14 g/m*3 19.6 C 0 km/h
1150 24-06-2020 23:45:00 19.4 C 11.18 g/m*3 19.4 C 0 km/h
Sensor: Nr:Datum:Temp:Abs-Feuchte:Windchill:Wind:
Aussen-T/F 1151 24-06-2020 23:50:00 19.3 C 11.11 g/m*3 19.3 C 6.4 km/h
1152 24-06-2020 23:55:00 19.3 C 11.11 g/m*3 19.3 C 3.2 km/h
1153 25-06-2020 00:00:00 19.2 C 11.05 g/m*3 19.2 C 3.2 km/h
1154 25-06-2020 00:05:00 19.1 C 11.15 g/m*3 19.1 C 4.8 km/h
1155 25-06-2020 00:10:00 19 C 10.76 g/m*3 19 C 3.2 km/h
1156 25-06-2020 00:15:00 18.9 C 11.18 g/m*3 18.9 C 1.6 km/h
1157 25-06-2020 00:20:00 18.8 C 11.11 g/m*3 18.8 C 3.2 km/h
1158 25-06-2020 00:25:00 18.7 C 11.05 g/m*3 18.7 C 0 km/h
1159 25-06-2020 00:30:00 18.6 C 10.98 g/m*3 18.6 C 1.6 km/h
1160 25-06-2020 00:35:00 18.5 C 11.08 g/m*3 18.5 C 3.2 km/h
1161 25-06-2020 00:40:00 18.4 C 11.01 g/m*3 18.4 C 0 km/h
1162 25-06-2020 00:45:00 18.3 C 11.1 g/m*3 18.3 C 0 km/h
1163 25-06-2020 00:50:00 18.2 C 10.88 g/m*3 18.2 C 3.2 km/h
1164 25-06-2020 00:55:00 18.3 C 11.1 g/m*3 18.3 C 1.6 km/h
1165 25-06-2020 01:00:00 18.3 C 10.94 g/m*3 18.3 C 1.6 km/h
1166 25-06-2020 01:05:00 18.3 C 11.1 g/m*3 18.3 C 0 km/h
1167 25-06-2020 01:10:00 18.4 C 11.01 g/m*3 18.4 C 4.8 km/h
1168 25-06-2020 01:15:00 18.4 C 11.01 g/m*3 18.4 C 3.2 km/h
1169 25-06-2020 01:20:00 18.4 C 11.01 g/m*3 18.4 C 0 km/h
1170 25-06-2020 01:25:00 18.3 C 10.94 g/m*3 18.3 C 1.6 km/h
1171 25-06-2020 01:30:00 18.3 C 11.1 g/m*3 18.3 C 0 km/h
1172 25-06-2020 01:35:00 18.1 C 10.97 g/m*3 18.1 C 1.6 km/h
1173 25-06-2020 01:40:00 18.1 C 10.97 g/m*3 18.1 C 3.2 km/h
1174 25-06-2020 01:45:00 18 C 11.06 g/m*3 18 C 1.6 km/h
1175 25-06-2020 01:50:00 18 C 11.06 g/m*3 18 C 0 km/h
Sensor: Nr:Datum:Temp:Abs-Feuchte:Windchill:Wind:
Aussen-T/F 1176 25-06-2020 01:55:00 17.9 C 10.99 g/m*3 17.9 C 1.6 km/h
1177 25-06-2020 02:00:00 17.9 C 10.99 g/m*3 17.9 C 1.6 km/h
1178 25-06-2020 02:05:00 17.7 C 11.01 g/m*3 17.7 C 0 km/h
1179 25-06-2020 02:10:00 17.6 C 10.95 g/m*3 17.6 C 0 km/h
1180 25-06-2020 02:15:00 17.4 C 10.97 g/m*3 17.4 C 0 km/h
1181 25-06-2020 02:20:00 17.3 C 10.9 g/m*3 17.3 C 0 km/h
1182 25-06-2020 02:25:00 17.2 C 10.84 g/m*3 17.2 C 0 km/h
1183 25-06-2020 02:30:00 17 C 10.85 g/m*3 17 C 0 km/h
1184 25-06-2020 02:35:00 16.8 C 10.87 g/m*3 16.8 C 0 km/h
1185 25-06-2020 02:40:00 16.7 C 10.8 g/m*3 16.7 C 0 km/h
1186 25-06-2020 02:45:00 16.6 C 10.88 g/m*3 16.6 C 0 km/h
1187 25-06-2020 02:50:00 16.5 C 10.81 g/m*3 16.5 C 0 km/h
1188 25-06-2020 02:55:00 16.4 C 10.89 g/m*3 16.4 C 0 km/h
1189 25-06-2020 03:00:00 16.3 C 10.82 g/m*3 16.3 C 0 km/h
1190 25-06-2020 03:05:00 16.2 C 10.76 g/m*3 16.2 C 0 km/h
1191 25-06-2020 03:10:00 16.1 C 10.83 g/m*3 16.1 C 0 km/h
1192 25-06-2020 03:15:00 16.1 C 10.83 g/m*3 16.1 C 0 km/h
1193 25-06-2020 03:20:00 15.9 C 10.7 g/m*3 15.9 C 4.8 km/h
1194 25-06-2020 03:25:00 15.9 C 10.83 g/m*3 15.9 C 1.6 km/h
1195 25-06-2020 03:30:00 15.8 C 10.77 g/m*3 15.8 C 3.2 km/h
1196 25-06-2020 03:35:00 15.8 C 10.77 g/m*3 15.8 C 4.8 km/h
1197 25-06-2020 03:40:00 15.8 C 10.77 g/m*3 15.8 C 3.2 km/h
1198 25-06-2020 03:45:00 15.8 C 10.9 g/m*3 15.8 C 3.2 km/h
1199 25-06-2020 03:50:00 15.7 C 10.84 g/m*3 15.7 C 0 km/h
1200 25-06-2020 03:55:00 15.7 C 10.84 g/m*3 15.7 C 0 km/h
Sensor: Nr:Datum:Temp:Abs-Feuchte:Windchill:Wind:
Aussen-T/F 1201 25-06-2020 04:00:00 15.6 C 10.77 g/m*3 15.6 C 0 km/h
1202 25-06-2020 04:05:00 15.5 C 10.84 g/m*3 15.5 C 1.6 km/h
1203 25-06-2020 04:10:00 15.4 C 10.77 g/m*3 15.4 C 1.6 km/h
1204 25-06-2020 04:15:00 15.4 C 10.77 g/m*3 15.4 C 1.6 km/h
1205 25-06-2020 04:20:00 15.3 C 10.71 g/m*3 15.3 C 3.2 km/h
1206 25-06-2020 04:25:00 15.3 C 10.84 g/m*3 15.3 C 1.6 km/h
1207 25-06-2020 04:30:00 15.2 C 10.77 g/m*3 15.2 C 1.6 km/h
1208 25-06-2020 04:35:00 15.1 C 10.71 g/m*3 15.1 C 1.6 km/h
1209 25-06-2020 04:40:00 15 C 10.77 g/m*3 15 C 1.6 km/h
1210 25-06-2020 04:45:00 14.9 C 10.71 g/m*3 14.9 C 0 km/h
1211 25-06-2020 04:50:00 14.9 C 10.71 g/m*3 14.9 C 1.6 km/h
1212 25-06-2020 04:55:00 14.8 C 10.77 g/m*3 14.8 C 1.6 km/h
1213 25-06-2020 05:00:00 14.8 C 10.77 g/m*3 14.8 C 4.8 km/h
1214 25-06-2020 05:05:00 14.7 C 10.7 g/m*3 14.7 C 3.2 km/h
1215 25-06-2020 05:10:00 14.7 C 10.7 g/m*3 14.7 C 3.2 km/h
1216 25-06-2020 05:15:00 14.7 C 10.83 g/m*3 14.7 C 1.6 km/h
1217 25-06-2020 05:20:00 14.6 C 10.76 g/m*3 14.6 C 0 km/h
1218 25-06-2020 05:25:00 14.6 C 10.76 g/m*3 14.6 C 0 km/h
1219 25-06-2020 05:30:00 14.6 C 10.89 g/m*3 14.6 C 0 km/h
1220 25-06-2020 05:35:00 14.6 C 10.89 g/m*3 14.6 C 0 km/h
1221 25-06-2020 05:40:00 14.5 C 10.82 g/m*3 14.5 C 0 km/h
1222 25-06-2020 05:45:00 14.5 C 10.82 g/m*3 14.5 C 0 km/h
1223 25-06-2020 05:50:00 14.5 C 10.82 g/m*3 14.5 C 1.6 km/h
1224 25-06-2020 05:55:00 14.5 C 10.94 g/m*3 14.5 C 1.6 km/h
1225 25-06-2020 06:00:00 14.5 C 10.94 g/m*3 14.5 C 0 km/h
Sensor: Nr:Datum:Temp:Abs-Feuchte:Windchill:Wind:
Aussen-T/F 1226 25-06-2020 06:05:00 14.5 C 10.94 g/m*3 14.5 C 3.2 km/h
1227 25-06-2020 06:10:00 14.5 C 10.94 g/m*3 14.5 C 1.6 km/h
1228 25-06-2020 06:15:00 14.6 C 11.01 g/m*3 14.6 C 3.2 km/h
1229 25-06-2020 06:20:00 14.6 C 11.01 g/m*3 14.6 C 3.2 km/h
1230 25-06-2020 06:25:00 14.6 C 11.01 g/m*3 14.6 C 4.8 km/h
1231 25-06-2020 06:30:00 14.7 C 11.08 g/m*3 14.7 C 3.2 km/h
1232 25-06-2020 06:35:00 14.7 C 11.21 g/m*3 14.7 C 3.2 km/h
1233 25-06-2020 06:40:00 14.7 C 11.21 g/m*3 14.7 C 1.6 km/h
1234 25-06-2020 06:45:00 14.8 C 11.27 g/m*3 14.8 C 1.6 km/h
1235 25-06-2020 06:50:00 14.9 C 11.34 g/m*3 14.9 C 3.2 km/h
1236 25-06-2020 06:55:00 15 C 11.41 g/m*3 15 C 1.6 km/h
1237 25-06-2020 07:00:00 15.2 C 11.42 g/m*3 15.2 C 6.4 km/h
1238 25-06-2020 07:05:00 15.3 C 11.49 g/m*3 15.3 C 1.6 km/h
1239 25-06-2020 07:10:00 15.6 C 11.7 g/m*3 15.6 C 0 km/h
1240 25-06-2020 07:15:00 15.8 C 11.71 g/m*3 15.8 C 3.2 km/h
1241 25-06-2020 07:20:00 15.9 C 11.78 g/m*3 15.9 C 3.2 km/h
1242 25-06-2020 07:25:00 16 C 11.72 g/m*3 16 C 0 km/h
1243 25-06-2020 07:30:00 16.1 C 11.79 g/m*3 16.1 C 3.2 km/h
1244 25-06-2020 07:35:00 16.1 C 11.79 g/m*3 16.1 C 0 km/h
1245 25-06-2020 07:40:00 16.1 C 11.79 g/m*3 16.1 C 1.6 km/h
1246 25-06-2020 07:45:00 16.2 C 11.86 g/m*3 16.2 C 4.8 km/h
1247 25-06-2020 07:50:00 16.2 C 11.86 g/m*3 16.2 C 0 km/h
1248 25-06-2020 07:55:00 16.3 C 11.93 g/m*3 16.3 C 1.6 km/h
1249 25-06-2020 08:00:00 16.4 C 11.86 g/m*3 16.4 C 1.6 km/h
1250 25-06-2020 08:05:00 16.6 C 12.15 g/m*3 16.6 C 1.6 km/h
Sensor: Nr:Datum:Temp:Abs-Feuchte:Windchill:Wind:
Aussen-T/F 1251 25-06-2020 08:10:00 16.8 C 12.01 g/m*3 16.8 C 4.8 km/h
1252 25-06-2020 08:15:00 17 C 12.15 g/m*3 17 C 1.6 km/h
1253 25-06-2020 08:20:00 17.2 C 12.3 g/m*3 17.2 C 3.2 km/h
1254 25-06-2020 08:25:00 17.2 C 12.3 g/m*3 17.2 C 1.6 km/h
1255 25-06-2020 08:30:00 17.3 C 12.23 g/m*3 17.3 C 3.2 km/h
1256 25-06-2020 08:35:00 17.4 C 12.3 g/m*3 17.4 C 1.6 km/h
1257 25-06-2020 08:40:00 17.5 C 12.37 g/m*3 17.5 C 0 km/h
1258 25-06-2020 08:45:00 17.7 C 12.52 g/m*3 17.7 C 3.2 km/h
1259 25-06-2020 08:50:00 17.9 C 12.52 g/m*3 17.9 C 3.2 km/h
1260 25-06-2020 08:55:00 18.1 C 12.36 g/m*3 18.1 C 8.1 km/h
1261 25-06-2020 09:00:00 18.3 C 12.66 g/m*3 18.3 C 8.1 km/h
1262 25-06-2020 09:05:00 18.6 C 12.89 g/m*3 18.6 C 6.4 km/h
1263 25-06-2020 09:10:00 18.8 C 12.56 g/m*3 18.8 C 4.8 km/h
1264 25-06-2020 09:15:00 19.1 C 12.29 g/m*3 19.1 C 3.2 km/h
1265 25-06-2020 09:20:00 19.6 C 12.32 g/m*3 19.6 C 8.1 km/h
1266 25-06-2020 09:25:00 20.2 C 12.59 g/m*3 20.2 C 6.4 km/h
1267 25-06-2020 09:30:00 20.5 C 12.28 g/m*3 20.5 C 4.8 km/h
1268 25-06-2020 09:35:00 20.9 C 12.57 g/m*3 20.9 C 8.1 km/h
1269 25-06-2020 09:40:00 21.2 C 12.42 g/m*3 21.2 C 9.7 km/h
1270 25-06-2020 09:45:00 21.4 C 12.37 g/m*3 21.4 C 8.1 km/h
1271 25-06-2020 09:50:00 21.7 C 12.4 g/m*3 21.7 C 14.5 km/h
1272 25-06-2020 09:55:00 21.8 C 12.28 g/m*3 21.8 C 16.1 km/h
1273 25-06-2020 10:00:00 22.1 C 12.69 g/m*3 22.1 C 16.1 km/h
1274 25-06-2020 10:05:00 22.2 C 12.57 g/m*3 22.2 C 9.7 km/h
1275 25-06-2020 10:10:00 22.4 C 12.31 g/m*3 22.4 C 11.3 km/h
Sensor: Nr:Datum:Temp:Abs-Feuchte:Windchill:Wind:
Aussen-T/F 1276 25-06-2020 10:15:00 22.7 C 12.53 g/m*3 22.7 C 11.3 km/h
1277 25-06-2020 10:20:00 23.1 C 12.4 g/m*3 23.1 C 16.1 km/h
1278 25-06-2020 10:25:00 23.3 C 12.75 g/m*3 23.3 C 9.7 km/h
1279 25-06-2020 10:30:00 23.6 C 12.76 g/m*3 23.6 C 11.3 km/h
1280 25-06-2020 10:35:00 23.8 C 12.69 g/m*3 23.8 C 11.3 km/h
1281 25-06-2020 10:40:00 24.1 C 12.69 g/m*3 24.1 C 8.1 km/h
1282 25-06-2020 10:45:00 24.2 C 12.98 g/m*3 24.2 C 9.7 km/h
1283 25-06-2020 10:50:00 24.2 C 12.54 g/m*3 24.2 C 9.7 km/h
1284 25-06-2020 10:55:00 24.3 C 12.83 g/m*3 24.3 C 9.7 km/h
1285 25-06-2020 11:00:00 24.4 C 12.69 g/m*3 24.4 C 12.9 km/h
1286 25-06-2020 11:05:00 24.4 C 12.69 g/m*3 24.4 C 12.9 km/h
1287 25-06-2020 11:10:00 24.5 C 12.98 g/m*3 24.5 C 8.1 km/h
1288 25-06-2020 11:15:00 24.6 C 12.83 g/m*3 24.6 C 17.7 km/h
1289 25-06-2020 11:20:00 24.6 C 12.6 g/m*3 24.6 C 14.5 km/h
1290 25-06-2020 11:25:00 24.8 C 12.75 g/m*3 24.8 C 12.9 km/h
1291 25-06-2020 11:30:00 24.8 C 12.52 g/m*3 24.8 C 17.7 km/h
1292 25-06-2020 11:35:00 24.7 C 12.68 g/m*3 24.7 C 17.7 km/h
1293 25-06-2020 11:40:00 24.8 C 12.75 g/m*3 24.8 C 16.1 km/h
1294 25-06-2020 11:45:00 24.8 C 12.75 g/m*3 24.8 C 11.3 km/h
1295 25-06-2020 11:50:00 24.8 C 12.97 g/m*3 24.8 C 9.7 km/h
1296 25-06-2020 11:55:00 24.9 C 12.82 g/m*3 24.9 C 11.3 km/h
1297 25-06-2020 12:00:00 25 C 12.89 g/m*3 25 C 8.1 km/h
1298 25-06-2020 12:05:00 25.1 C 12.73 g/m*3 25.1 C 22.5 km/h
1299 25-06-2020 12:10:00 25.2 C 12.8 g/m*3 25.2 C 14.5 km/h
1300 25-06-2020 12:15:00 25.3 C 12.64 g/m*3 25.3 C 14.5 km/h
Sensor: Nr:Datum:Temp:Abs-Feuchte:Windchill:Wind:
Aussen-T/F 1301 25-06-2020 12:20:00 25.3 C 12.64 g/m*3 25.3 C 9.7 km/h
1302 25-06-2020 12:25:00 25.3 C 12.64 g/m*3 25.3 C 16.1 km/h
1303 25-06-2020 12:30:00 25.4 C 12.95 g/m*3 25.4 C 4.8 km/h
1304 25-06-2020 12:35:00 25.5 C 12.78 g/m*3 25.5 C 14.5 km/h
1305 25-06-2020 12:40:00 25.7 C 12.69 g/m*3 25.7 C 16.1 km/h
1306 25-06-2020 12:45:00 25.8 C 12.76 g/m*3 25.8 C 11.3 km/h
1307 25-06-2020 12:50:00 25.9 C 12.83 g/m*3 25.9 C 14.5 km/h
1308 25-06-2020 12:55:00 26 C 12.66 g/m*3 26 C 12.9 km/h
1309 25-06-2020 13:00:00 26.1 C 12.73 g/m*3 26.1 C 14.5 km/h
1310 25-06-2020 13:05:00 26.2 C 13.05 g/m*3 26.2 C 11.3 km/h
1311 25-06-2020 13:10:00 26.3 C 12.63 g/m*3 26.3 C 16.1 km/h
1312 25-06-2020 13:15:00 26.3 C 12.87 g/m*3 26.3 C 16.1 km/h
1313 25-06-2020 13:20:00 26.4 C 13.19 g/m*3 26.4 C 12.9 km/h
1314 25-06-2020 13:25:00 26.7 C 13.42 g/m*3 26.7 C 8.1 km/h
1315 25-06-2020 13:30:00 27.1 C 13.2 g/m*3 27.1 C 20.9 km/h
1316 25-06-2020 13:35:00 27.2 C 13.27 g/m*3 27.2 C 19.3 km/h
1317 25-06-2020 13:40:00 27.1 C 13.2 g/m*3 27.1 C 11.3 km/h
1318 25-06-2020 13:45:00 27.1 C 13.2 g/m*3 27.1 C 14.5 km/h
1319 25-06-2020 13:50:00 27.3 C 13.08 g/m*3 27.3 C 12.9 km/h
1320 25-06-2020 13:55:00 27.3 C 13.61 g/m*3 27.3 C 9.7 km/h
1321 25-06-2020 14:00:00 27.4 C 13.68 g/m*3 27.4 C 14.5 km/h
1322 25-06-2020 14:05:00 27.4 C 13.42 g/m*3 27.4 C 17.7 km/h
1323 25-06-2020 14:10:00 27.3 C 13.08 g/m*3 27.3 C 16.1 km/h
1324 25-06-2020 14:15:00 27.3 C 13.08 g/m*3 27.3 C 12.9 km/h
1325 25-06-2020 14:20:00 27.4 C 12.89 g/m*3 27.4 C 20.9 km/h
Sensor: Nr:Datum:Temp:Abs-Feuchte:Windchill:Wind:
Aussen-T/F 1326 25-06-2020 14:25:00 27.3 C 13.34 g/m*3 27.3 C 14.5 km/h
1327 25-06-2020 14:30:00 27 C 13.38 g/m*3 27 C 17.7 km/h
1328 25-06-2020 14:35:00 26.8 C 13.24 g/m*3 26.8 C 12.9 km/h
1329 25-06-2020 14:40:00 26.8 C 13.74 g/m*3 26.8 C 11.3 km/h
1330 25-06-2020 14:45:00 26.7 C 13.42 g/m*3 26.7 C 8.1 km/h
1331 25-06-2020 14:50:00 26.6 C 13.34 g/m*3 26.6 C 14.5 km/h
1332 25-06-2020 14:55:00 26.6 C 13.84 g/m*3 26.6 C 8.1 km/h
1333 25-06-2020 15:00:00 26.5 C 13.52 g/m*3 26.5 C 12.9 km/h
1334 25-06-2020 15:05:00 26.5 C 13.77 g/m*3 26.5 C 14.5 km/h
1335 25-06-2020 15:10:00 26.6 C 13.84 g/m*3 26.6 C 11.3 km/h
1336 25-06-2020 15:15:00 26.7 C 13.92 g/m*3 26.7 C 8.1 km/h
1337 25-06-2020 15:20:00 26.8 C 14 g/m*3 26.8 C 8.1 km/h
1338 25-06-2020 15:25:00 26.9 C 14.33 g/m*3 26.9 C 8.1 km/h
1339 25-06-2020 15:30:00 27.1 C 14.23 g/m*3 27.1 C 8.1 km/h
1340 25-06-2020 15:35:00 27 C 14.15 g/m*3 27 C 11.3 km/h
1341 25-06-2020 15:40:00 26.8 C 14 g/m*3 26.8 C 9.7 km/h
1342 25-06-2020 15:45:00 26.7 C 13.92 g/m*3 26.7 C 9.7 km/h
1343 25-06-2020 15:50:00 26.6 C 14.1 g/m*3 26.6 C 6.4 km/h
1344 25-06-2020 15:55:00 26.6 C 14.35 g/m*3 26.6 C 6.4 km/h
1345 25-06-2020 16:00:00 26.6 C 14.35 g/m*3 26.6 C 8.1 km/h
1346 25-06-2020 16:05:00 26.5 C 14.27 g/m*3 26.5 C 8.1 km/h
1347 25-06-2020 16:10:00 26.3 C 14.11 g/m*3 26.3 C 8.1 km/h
1348 25-06-2020 16:15:00 26.2 C 14.28 g/m*3 26.2 C 8.1 km/h
1349 25-06-2020 16:20:00 26.1 C 14.2 g/m*3 26.1 C 8.1 km/h
1350 25-06-2020 16:25:00 25.9 C 14.28 g/m*3 25.9 C 3.2 km/h
Sensor: Nr:Datum:Temp:Abs-Feuchte:Windchill:Wind:
Aussen-T/F 1351 25-06-2020 16:30:00 25.9 C 14.53 g/m*3 25.9 C 4.8 km/h
1352 25-06-2020 16:35:00 25.9 C 14.28 g/m*3 25.9 C 9.7 km/h
1353 25-06-2020 16:40:00 26 C 14.61 g/m*3 26 C 11.3 km/h
1354 25-06-2020 16:45:00 26.1 C 14.44 g/m*3 26.1 C 8.1 km/h
1355 25-06-2020 16:50:00 26.1 C 14.44 g/m*3 26.1 C 6.4 km/h
1356 25-06-2020 16:55:00 26.2 C 14.52 g/m*3 26.2 C 8.1 km/h
1357 25-06-2020 17:00:00 26.3 C 14.61 g/m*3 26.3 C 8.1 km/h
1358 25-06-2020 17:05:00 26.2 C 14.52 g/m*3 26.2 C 9.7 km/h
1359 25-06-2020 17:10:00 26.2 C 14.77 g/m*3 26.2 C 8.1 km/h
1360 25-06-2020 17:15:00 26.1 C 14.69 g/m*3 26.1 C 11.3 km/h
1361 25-06-2020 17:20:00 26.1 C 14.69 g/m*3 26.1 C 11.3 km/h
1362 25-06-2020 17:25:00 26.1 C 14.69 g/m*3 26.1 C 12.9 km/h
1363 25-06-2020 17:30:00 26.1 C 14.44 g/m*3 26.1 C 11.3 km/h
1364 25-06-2020 17:35:00 26.2 C 14.52 g/m*3 26.2 C 8.1 km/h
1365 25-06-2020 17:40:00 26.2 C 14.28 g/m*3 26.2 C 14.5 km/h
1366 25-06-2020 17:45:00 26.3 C 14.85 g/m*3 26.3 C 9.7 km/h
1367 25-06-2020 17:50:00 26.4 C 14.69 g/m*3 26.4 C 8.1 km/h
1368 25-06-2020 17:55:00 26.5 C 14.77 g/m*3 26.5 C 8.1 km/h
1369 25-06-2020 18:00:00 26.6 C 14.85 g/m*3 26.6 C 4.8 km/h
1370 25-06-2020 18:05:00 26.7 C 14.93 g/m*3 26.7 C 12.9 km/h
1371 25-06-2020 18:10:00 26.6 C 14.85 g/m*3 26.6 C 9.7 km/h
1372 25-06-2020 18:15:00 26.8 C 14.76 g/m*3 26.8 C 11.3 km/h
1373 25-06-2020 18:20:00 26.7 C 14.68 g/m*3 26.7 C 9.7 km/h
1374 25-06-2020 18:25:00 26.4 C 14.69 g/m*3 26.4 C 8.1 km/h
1375 25-06-2020 18:30:00 26.2 C 14.77 g/m*3 26.2 C 6.4 km/h
Sensor: Nr:Datum:Temp:Abs-Feuchte:Windchill:Wind:
Aussen-T/F 1376 25-06-2020 18:35:00 26.1 C 14.69 g/m*3 26.1 C 6.4 km/h
1377 25-06-2020 18:40:00 26.3 C 14.85 g/m*3 26.3 C 4.8 km/h
1378 25-06-2020 18:45:00 26.9 C 15.61 g/m*3 26.9 C 6.4 km/h
1379 25-06-2020 18:50:00 27.2 C 15.09 g/m*3 27.2 C 11.3 km/h
1380 25-06-2020 18:55:00 27.5 C 15.08 g/m*3 27.5 C 6.4 km/h
1381 25-06-2020 19:00:00 27.9 C 15.15 g/m*3 27.9 C 8.1 km/h
1382 25-06-2020 19:05:00 28.1 C 14.77 g/m*3 28.1 C 9.7 km/h
1383 25-06-2020 19:10:00 28.3 C 14.65 g/m*3 28.3 C 8.1 km/h
1384 25-06-2020 19:15:00 28.1 C 14.77 g/m*3 28.1 C 6.4 km/h
1385 25-06-2020 19:20:00 28.1 C 15.04 g/m*3 28.1 C 6.4 km/h
1386 25-06-2020 19:25:00 28.1 C 14.77 g/m*3 28.1 C 8.1 km/h
1387 25-06-2020 19:30:00 27.7 C 14.44 g/m*3 27.7 C 8.1 km/h
1388 25-06-2020 19:35:00 27.6 C 14.63 g/m*3 27.6 C 8.1 km/h
1389 25-06-2020 19:40:00 27.4 C 14.21 g/m*3 27.4 C 8.1 km/h
1390 25-06-2020 19:45:00 27.1 C 13.97 g/m*3 27.1 C 9.7 km/h
1391 25-06-2020 19:50:00 26.9 C 14.08 g/m*3 26.9 C 9.7 km/h
1392 25-06-2020 19:55:00 26.7 C 14.17 g/m*3 26.7 C 11.3 km/h
1393 25-06-2020 20:00:00 26.7 C 14.17 g/m*3 26.7 C 11.3 km/h
1394 25-06-2020 20:05:00 26.7 C 14.17 g/m*3 26.7 C 6.4 km/h
1395 25-06-2020 20:10:00 26.6 C 14.35 g/m*3 26.6 C 6.4 km/h
1396 25-06-2020 20:15:00 26.7 C 14.17 g/m*3 26.7 C 6.4 km/h
1397 25-06-2020 20:20:00 26.8 C 14.25 g/m*3 26.8 C 4.8 km/h
1398 25-06-2020 20:25:00 26.8 C 14.25 g/m*3 26.8 C 8.1 km/h
1399 25-06-2020 20:30:00 26.8 C 14.25 g/m*3 26.8 C 8.1 km/h
1400 25-06-2020 20:35:00 26.7 C 14.17 g/m*3 26.7 C 6.4 km/h
Sensor: Nr:Datum:Temp:Abs-Feuchte:Windchill:Wind:
Aussen-T/F 1401 25-06-2020 20:40:00 26.6 C 14.35 g/m*3 26.6 C 6.4 km/h
1402 25-06-2020 20:45:00 26.6 C 14.35 g/m*3 26.6 C 3.2 km/h
1403 25-06-2020 20:50:00 26.6 C 14.1 g/m*3 26.6 C 4.8 km/h
1404 25-06-2020 20:55:00 26.4 C 15.19 g/m*3 26.4 C 3.2 km/h
1405 25-06-2020 21:00:00 26.3 C 15.35 g/m*3 26.3 C 0 km/h
1406 25-06-2020 21:05:00 26.1 C 15.18 g/m*3 26.1 C 0 km/h
1407 25-06-2020 21:10:00 25.9 C 15.25 g/m*3 25.9 C 0 km/h
1408 25-06-2020 21:15:00 25.5 C 14.91 g/m*3 25.5 C 4.8 km/h
1409 25-06-2020 21:20:00 25.2 C 14.9 g/m*3 25.2 C 3.2 km/h
1410 25-06-2020 21:25:00 24.8 C 14.8 g/m*3 24.8 C 1.6 km/h
1411 25-06-2020 21:30:00 24.4 C 14.69 g/m*3 24.4 C 0 km/h
1412 25-06-2020 21:35:00 24.1 C 14.66 g/m*3 24.1 C 0 km/h
1413 25-06-2020 21:40:00 23.8 C 14.63 g/m*3 23.8 C 3.2 km/h
1414 25-06-2020 21:45:00 23.6 C 14.68 g/m*3 23.6 C 3.2 km/h
1415 25-06-2020 21:50:00 23.3 C 14.43 g/m*3 23.3 C 3.2 km/h
1416 25-06-2020 21:55:00 23 C 14.39 g/m*3 23 C 6.4 km/h
1417 25-06-2020 22:00:00 22.7 C 14.14 g/m*3 22.7 C 4.8 km/h
1418 25-06-2020 22:05:00 22.5 C 13.98 g/m*3 22.5 C 4.8 km/h
1419 25-06-2020 22:10:00 22.3 C 13.82 g/m*3 22.3 C 3.2 km/h
1420 25-06-2020 22:15:00 22 C 13.59 g/m*3 22 C 3.2 km/h
1421 25-06-2020 22:20:00 21.8 C 13.62 g/m*3 21.8 C 0 km/h
1422 25-06-2020 22:25:00 21.6 C 13.47 g/m*3 21.6 C 0 km/h
1423 25-06-2020 22:30:00 21.4 C 13.5 g/m*3 21.4 C 0 km/h
1424 25-06-2020 22:35:00 21.2 C 13.34 g/m*3 21.2 C 4.8 km/h
1425 25-06-2020 22:40:00 20.9 C 13.3 g/m*3 20.9 C 1.6 km/h
Sensor: Nr:Datum:Temp:Abs-Feuchte:Windchill:Wind:
Aussen-T/F 1426 25-06-2020 22:45:00 20.8 C 13.22 g/m*3 20.8 C 4.8 km/h
1427 25-06-2020 22:50:00 20.6 C 13.24 g/m*3 20.6 C 4.8 km/h
1428 25-06-2020 22:55:00 20.4 C 13.09 g/m*3 20.4 C 4.8 km/h
1429 25-06-2020 23:00:00 20.3 C 13.19 g/m*3 20.3 C 4.8 km/h
1430 25-06-2020 23:05:00 20.2 C 13.29 g/m*3 20.2 C 6.4 km/h
1431 25-06-2020 23:10:00 20 C 13.13 g/m*3 20 C 6.4 km/h
1432 25-06-2020 23:15:00 19.9 C 13.06 g/m*3 19.9 C 4.8 km/h
1433 25-06-2020 23:20:00 19.8 C 12.98 g/m*3 19.8 C 4.8 km/h
1434 25-06-2020 23:25:00 19.7 C 13.08 g/m*3 19.7 C 3.2 km/h
1435 25-06-2020 23:30:00 19.6 C 13 g/m*3 19.6 C 1.6 km/h
1436 25-06-2020 23:35:00 19.4 C 13.01 g/m*3 19.4 C 3.2 km/h
1437 25-06-2020 23:40:00 19.2 C 12.86 g/m*3 19.2 C 4.8 km/h
1438 25-06-2020 23:45:00 19.1 C 12.95 g/m*3 19.1 C 4.8 km/h
1439 25-06-2020 23:50:00 19 C 12.87 g/m*3 19 C 4.8 km/h
1440 25-06-2020 23:55:00 18.9 C 12.96 g/m*3 18.9 C 3.2 km/h
1441 26-06-2020 00:00:00 18.8 C 12.88 g/m*3 18.8 C 1.6 km/h
1442 26-06-2020 00:05:00 18.6 C 12.73 g/m*3 18.6 C 3.2 km/h
1443 26-06-2020 00:10:00 18.5 C 12.66 g/m*3 18.5 C 0 km/h
1444 26-06-2020 00:15:00 18.4 C 12.74 g/m*3 18.4 C 1.6 km/h
1445 26-06-2020 00:20:00 18.3 C 12.66 g/m*3 18.3 C 1.6 km/h
1446 26-06-2020 00:25:00 18.2 C 12.59 g/m*3 18.2 C 1.6 km/h
1447 26-06-2020 00:30:00 18 C 12.59 g/m*3 18 C 0 km/h
1448 26-06-2020 00:35:00 17.9 C 12.52 g/m*3 17.9 C 0 km/h
1449 26-06-2020 00:40:00 17.7 C 12.37 g/m*3 17.7 C 0 km/h
1450 26-06-2020 00:45:00 17.6 C 12.3 g/m*3 17.6 C 0 km/h
Sensor: Nr:Datum:Temp:Abs-Feuchte:Windchill:Wind:
Aussen-T/F 1451 26-06-2020 00:50:00 17.4 C 12.3 g/m*3 17.4 C 0 km/h
1452 26-06-2020 00:55:00 17.3 C 12.23 g/m*3 17.3 C 0 km/h
1453 26-06-2020 01:00:00 17.2 C 12.15 g/m*3 17.2 C 0 km/h
1454 26-06-2020 01:05:00 17.1 C 12.08 g/m*3 17.1 C 0 km/h
1455 26-06-2020 01:10:00 16.9 C 12.08 g/m*3 16.9 C 0 km/h
1456 26-06-2020 01:15:00 16.8 C 12.01 g/m*3 16.8 C 0 km/h
1457 26-06-2020 01:20:00 16.7 C 11.94 g/m*3 16.7 C 0 km/h
1458 26-06-2020 01:25:00 16.6 C 12.01 g/m*3 16.6 C 0 km/h
1459 26-06-2020 01:30:00 16.5 C 11.94 g/m*3 16.5 C 0 km/h
1460 26-06-2020 01:35:00 16.3 C 11.79 g/m*3 16.3 C 0 km/h
1461 26-06-2020 01:40:00 16.3 C 11.93 g/m*3 16.3 C 0 km/h
1462 26-06-2020 01:45:00 16.2 C 11.86 g/m*3 16.2 C 0 km/h
1463 26-06-2020 01:50:00 16.1 C 11.79 g/m*3 16.1 C 0 km/h
1464 26-06-2020 01:55:00 16.1 C 11.93 g/m*3 16.1 C 1.6 km/h
1465 26-06-2020 02:00:00 16 C 11.85 g/m*3 16 C 1.6 km/h
1466 26-06-2020 02:05:00 15.9 C 11.78 g/m*3 15.9 C 0 km/h
1467 26-06-2020 02:10:00 15.9 C 11.78 g/m*3 15.9 C 0 km/h
1468 26-06-2020 02:15:00 15.8 C 11.71 g/m*3 15.8 C 0 km/h
1469 26-06-2020 02:20:00 15.8 C 11.71 g/m*3 15.8 C 0 km/h
1470 26-06-2020 02:25:00 15.7 C 11.77 g/m*3 15.7 C 0 km/h
1471 26-06-2020 02:30:00 15.7 C 11.77 g/m*3 15.7 C 0 km/h
1472 26-06-2020 02:35:00 15.7 C 11.77 g/m*3 15.7 C 0 km/h
1473 26-06-2020 02:40:00 15.6 C 11.7 g/m*3 15.6 C 0 km/h
1474 26-06-2020 02:45:00 15.6 C 11.7 g/m*3 15.6 C 0 km/h
1475 26-06-2020 02:50:00 15.6 C 11.7 g/m*3 15.6 C 0 km/h
Sensor: Nr:Datum:Temp:Abs-Feuchte:Windchill:Wind:
Aussen-T/F 1476 26-06-2020 02:55:00 15.5 C 11.63 g/m*3 15.5 C 0 km/h
1477 26-06-2020 03:00:00 15.4 C 11.56 g/m*3 15.4 C 0 km/h
1478 26-06-2020 03:05:00 15.4 C 11.56 g/m*3 15.4 C 0 km/h
1479 26-06-2020 03:10:00 15.3 C 11.49 g/m*3 15.3 C 1.6 km/h
1480 26-06-2020 03:15:00 15.3 C 11.49 g/m*3 15.3 C 0 km/h
1481 26-06-2020 03:20:00 15.2 C 11.55 g/m*3 15.2 C 1.6 km/h
1482 26-06-2020 03:25:00 15.1 C 11.48 g/m*3 15.1 C 1.6 km/h
1483 26-06-2020 03:30:00 15.1 C 11.48 g/m*3 15.1 C 0 km/h
1484 26-06-2020 03:35:00 14.9 C 11.34 g/m*3 14.9 C 0 km/h
1485 26-06-2020 03:40:00 14.8 C 11.27 g/m*3 14.8 C 0 km/h
1486 26-06-2020 03:45:00 14.8 C 11.27 g/m*3 14.8 C 0 km/h
1487 26-06-2020 03:50:00 14.7 C 11.21 g/m*3 14.7 C 0 km/h
1488 26-06-2020 03:55:00 14.7 C 11.33 g/m*3 14.7 C 0 km/h
1489 26-06-2020 04:00:00 14.7 C 11.33 g/m*3 14.7 C 0 km/h
1490 26-06-2020 04:05:00 14.7 C 11.33 g/m*3 14.7 C 0 km/h
1491 26-06-2020 04:10:00 14.7 C 11.33 g/m*3 14.7 C 1.6 km/h
1492 26-06-2020 04:15:00 14.6 C 11.26 g/m*3 14.6 C 0 km/h
1493 26-06-2020 04:20:00 14.5 C 11.19 g/m*3 14.5 C 0 km/h
1494 26-06-2020 04:25:00 14.4 C 11.25 g/m*3 14.4 C 0 km/h
1495 26-06-2020 04:30:00 14.4 C 11.13 g/m*3 14.4 C 0 km/h
1496 26-06-2020 04:35:00 14.3 C 11.18 g/m*3 14.3 C 0 km/h
1497 26-06-2020 04:40:00 14.3 C 11.18 g/m*3 14.3 C 0 km/h
1498 26-06-2020 04:45:00 14.3 C 11.18 g/m*3 14.3 C 0 km/h
1499 26-06-2020 04:50:00 14.2 C 11.11 g/m*3 14.2 C 0 km/h
1500 26-06-2020 04:55:00 14.1 C 11.04 g/m*3 14.1 C 0 km/h
Sensor: Nr:Datum:Temp:Abs-Feuchte:Windchill:Wind:
Aussen-T/F 1501 26-06-2020 05:00:00 14.1 C 11.04 g/m*3 14.1 C 0 km/h
1502 26-06-2020 05:05:00 14.1 C 11.17 g/m*3 14.1 C 0 km/h
1503 26-06-2020 05:10:00 14.1 C 11.04 g/m*3 14.1 C 0 km/h
1504 26-06-2020 05:15:00 14 C 10.98 g/m*3 14 C 0 km/h
1505 26-06-2020 05:20:00 13.9 C 10.91 g/m*3 13.9 C 0 km/h
1506 26-06-2020 05:25:00 13.8 C 10.96 g/m*3 13.8 C 0 km/h
1507 26-06-2020 05:30:00 13.8 C 10.96 g/m*3 13.8 C 0 km/h
1508 26-06-2020 05:35:00 13.8 C 10.96 g/m*3 13.8 C 0 km/h
1509 26-06-2020 05:40:00 13.8 C 10.96 g/m*3 13.8 C 0 km/h
1510 26-06-2020 05:45:00 13.8 C 10.96 g/m*3 13.8 C 0 km/h
1511 26-06-2020 05:50:00 13.7 C 10.89 g/m*3 13.7 C 0 km/h
1512 26-06-2020 05:55:00 13.7 C 10.89 g/m*3 13.7 C 0 km/h
1513 26-06-2020 06:00:00 13.7 C 10.89 g/m*3 13.7 C 0 km/h
1514 26-06-2020 06:05:00 13.7 C 11.01 g/m*3 13.7 C 0 km/h
1515 26-06-2020 06:10:00 13.7 C 11.01 g/m*3 13.7 C 0 km/h
1516 26-06-2020 06:15:00 13.7 C 11.01 g/m*3 13.7 C 0 km/h
1517 26-06-2020 06:20:00 13.7 C 11.01 g/m*3 13.7 C 0 km/h
1518 26-06-2020 06:25:00 13.8 C 11.08 g/m*3 13.8 C 0 km/h
1519 26-06-2020 06:30:00 13.8 C 11.08 g/m*3 13.8 C 1.6 km/h
1520 26-06-2020 06:35:00 13.8 C 11.08 g/m*3 13.8 C 0 km/h
1521 26-06-2020 06:40:00 13.9 C 11.15 g/m*3 13.9 C 0 km/h
1522 26-06-2020 06:45:00 13.9 C 11.15 g/m*3 13.9 C 1.6 km/h
1523 26-06-2020 06:50:00 14 C 11.22 g/m*3 14 C 0 km/h
1524 26-06-2020 06:55:00 14.1 C 11.41 g/m*3 14.1 C 0 km/h
1525 26-06-2020 07:00:00 14.2 C 11.48 g/m*3 14.2 C 0 km/h
Sensor: Nr:Datum:Temp:Abs-Feuchte:Windchill:Wind:
Aussen-T/F 1526 26-06-2020 07:05:00 14.2 C 11.48 g/m*3 14.2 C 1.6 km/h
1527 26-06-2020 07:10:00 14.3 C 11.55 g/m*3 14.3 C 1.6 km/h
1528 26-06-2020 07:15:00 14.4 C 11.62 g/m*3 14.4 C 0 km/h
1529 26-06-2020 07:20:00 14.4 C 11.62 g/m*3 14.4 C 0 km/h
1530 26-06-2020 07:25:00 14.6 C 11.76 g/m*3 14.6 C 0 km/h
1531 26-06-2020 07:30:00 14.6 C 11.76 g/m*3 14.6 C 0 km/h
1532 26-06-2020 07:35:00 14.7 C 11.83 g/m*3 14.7 C 0 km/h
1533 26-06-2020 07:40:00 14.7 C 11.83 g/m*3 14.7 C 0 km/h
1534 26-06-2020 07:45:00 14.8 C 11.91 g/m*3 14.8 C 0 km/h
1535 26-06-2020 07:50:00 14.9 C 11.98 g/m*3 14.9 C 0 km/h
1536 26-06-2020 07:55:00 15 C 12.05 g/m*3 15 C 1.6 km/h
1537 26-06-2020 08:00:00 15.1 C 12.13 g/m*3 15.1 C 1.6 km/h
1538 26-06-2020 08:05:00 15.2 C 12.2 g/m*3 15.2 C 0 km/h
1539 26-06-2020 08:10:00 15.3 C 12.28 g/m*3 15.3 C 0 km/h
1540 26-06-2020 08:15:00 15.4 C 12.35 g/m*3 15.4 C 3.2 km/h
1541 26-06-2020 08:20:00 15.6 C 12.5 g/m*3 15.6 C 4.8 km/h
1542 26-06-2020 08:25:00 15.7 C 12.58 g/m*3 15.7 C 1.6 km/h
1543 26-06-2020 08:30:00 15.9 C 12.59 g/m*3 15.9 C 1.6 km/h
1544 26-06-2020 08:35:00 16 C 12.67 g/m*3 16 C 0 km/h
1545 26-06-2020 08:40:00 16.2 C 12.82 g/m*3 16.2 C 0 km/h
1546 26-06-2020 08:45:00 16.3 C 12.76 g/m*3 16.3 C 0 km/h
1547 26-06-2020 08:50:00 16.5 C 12.92 g/m*3 16.5 C 0 km/h
1548 26-06-2020 08:55:00 16.7 C 12.93 g/m*3 16.7 C 0 km/h
1549 26-06-2020 09:00:00 16.8 C 13.01 g/m*3 16.8 C 0 km/h
1550 26-06-2020 09:05:00 17 C 13.02 g/m*3 17 C 0 km/h
Sensor: Nr:Datum:Temp:Abs-Feuchte:Windchill:Wind:
Aussen-T/F 1551 26-06-2020 09:10:00 17.2 C 13.18 g/m*3 17.2 C 0 km/h
1552 26-06-2020 09:15:00 17.3 C 13.11 g/m*3 17.3 C 0 km/h
1553 26-06-2020 09:20:00 17.6 C 13.2 g/m*3 17.6 C 0 km/h
1554 26-06-2020 09:25:00 18 C 13.06 g/m*3 18 C 8.1 km/h
1555 26-06-2020 09:30:00 18.7 C 13.45 g/m*3 18.7 C 3.2 km/h
1556 26-06-2020 09:35:00 18.9 C 13.45 g/m*3 18.9 C 1.6 km/h
1557 26-06-2020 09:40:00 19.1 C 13.61 g/m*3 19.1 C 1.6 km/h
1558 26-06-2020 09:45:00 19.2 C 13.52 g/m*3 19.2 C 4.8 km/h
1559 26-06-2020 09:50:00 19.5 C 13.26 g/m*3 19.5 C 12.9 km/h
1560 26-06-2020 09:55:00 20.2 C 13.11 g/m*3 20.2 C 12.9 km/h
1561 26-06-2020 10:00:00 20.8 C 13.4 g/m*3 20.8 C 8.1 km/h
1562 26-06-2020 10:05:00 21.7 C 13.93 g/m*3 21.7 C 9.7 km/h
1563 26-06-2020 10:10:00 22.1 C 13.47 g/m*3 22.1 C 4.8 km/h
1564 26-06-2020 10:15:00 22.4 C 13.9 g/m*3 22.4 C 4.8 km/h
1565 26-06-2020 10:20:00 22.7 C 13.54 g/m*3 22.7 C 4.8 km/h
1566 26-06-2020 10:25:00 23.1 C 14.26 g/m*3 23.1 C 4.8 km/h
1567 26-06-2020 10:30:00 23.4 C 13.67 g/m*3 23.4 C 8.1 km/h
1568 26-06-2020 10:35:00 23.9 C 13.63 g/m*3 23.9 C 9.7 km/h
1569 26-06-2020 10:40:00 24.3 C 13.06 g/m*3 24.3 C 9.7 km/h
1570 26-06-2020 10:45:00 24.6 C 13.05 g/m*3 24.6 C 4.8 km/h
1571 26-06-2020 10:50:00 24.8 C 12.97 g/m*3 24.8 C 4.8 km/h
1572 26-06-2020 10:55:00 25.1 C 13.2 g/m*3 25.1 C 8.1 km/h
1573 26-06-2020 11:00:00 25.3 C 12.88 g/m*3 25.3 C 6.4 km/h
1574 26-06-2020 11:05:00 25.4 C 12.48 g/m*3 25.4 C 6.4 km/h
1575 26-06-2020 11:10:00 25.6 C 12.62 g/m*3 25.6 C 11.3 km/h
Sensor: Nr:Datum:Temp:Abs-Feuchte:Windchill:Wind:
Aussen-T/F 1576 26-06-2020 11:15:00 25.7 C 12.69 g/m*3 25.7 C 8.1 km/h
1577 26-06-2020 11:20:00 25.9 C 12.83 g/m*3 25.9 C 9.7 km/h
1578 26-06-2020 11:25:00 26.1 C 12.49 g/m*3 26.1 C 8.1 km/h
1579 26-06-2020 11:30:00 26.2 C 12.06 g/m*3 26.2 C 11.3 km/h
1580 26-06-2020 11:35:00 26.2 C 12.8 g/m*3 26.2 C 12.9 km/h
1581 26-06-2020 11:40:00 26.2 C 12.56 g/m*3 26.2 C 8.1 km/h
1582 26-06-2020 11:45:00 26.3 C 12.38 g/m*3 26.3 C 4.8 km/h
1583 26-06-2020 11:50:00 26.4 C 12.2 g/m*3 26.4 C 8.1 km/h
1584 26-06-2020 11:55:00 26.4 C 12.2 g/m*3 26.4 C 12.9 km/h
1585 26-06-2020 12:00:00 26.4 C 11.95 g/m*3 26.4 C 12.9 km/h
1586 26-06-2020 12:05:00 26.4 C 11.95 g/m*3 26.4 C 14.5 km/h
1587 26-06-2020 12:10:00 26.4 C 12.2 g/m*3 26.4 C 8.1 km/h
1588 26-06-2020 12:15:00 26.5 C 12.02 g/m*3 26.5 C 4.8 km/h
1589 26-06-2020 12:20:00 26.6 C 11.83 g/m*3 26.6 C 4.8 km/h
1590 26-06-2020 12:25:00 26.7 C 11.9 g/m*3 26.7 C 8.1 km/h
1591 26-06-2020 12:30:00 26.8 C 11.71 g/m*3 26.8 C 12.9 km/h
1592 26-06-2020 12:35:00 26.8 C 12.22 g/m*3 26.8 C 8.1 km/h
1593 26-06-2020 12:40:00 26.8 C 12.22 g/m*3 26.8 C 11.3 km/h
1594 26-06-2020 12:45:00 26.8 C 11.96 g/m*3 26.8 C 6.4 km/h
1595 26-06-2020 12:50:00 26.8 C 11.96 g/m*3 26.8 C 6.4 km/h
1596 26-06-2020 12:55:00 26.8 C 11.71 g/m*3 26.8 C 4.8 km/h
1597 26-06-2020 13:00:00 26.9 C 11.77 g/m*3 26.9 C 9.7 km/h
1598 26-06-2020 13:05:00 27 C 12.35 g/m*3 27 C 12.9 km/h
1599 26-06-2020 13:10:00 26.9 C 12.03 g/m*3 26.9 C 9.7 km/h
1600 26-06-2020 13:15:00 27 C 12.35 g/m*3 27 C 9.7 km/h
Sensor: Nr:Datum:Temp:Abs-Feuchte:Windchill:Wind:
Aussen-T/F 1601 26-06-2020 13:20:00 27.1 C 12.42 g/m*3 27.1 C 16.1 km/h
1602 26-06-2020 13:25:00 27.2 C 12.49 g/m*3 27.2 C 16.1 km/h
1603 26-06-2020 13:30:00 27.2 C 12.23 g/m*3 27.2 C 11.3 km/h
1604 26-06-2020 13:35:00 27.3 C 12.3 g/m*3 27.3 C 12.9 km/h
1605 26-06-2020 13:40:00 27.6 C 12.5 g/m*3 27.6 C 11.3 km/h
1606 26-06-2020 13:45:00 27.6 C 13.04 g/m*3 27.6 C 9.7 km/h
1607 26-06-2020 13:50:00 27.8 C 13.18 g/m*3 27.8 C 4.8 km/h
1608 26-06-2020 13:55:00 27.8 C 12.37 g/m*3 27.8 C 8.1 km/h
1609 26-06-2020 14:00:00 27.8 C 12.64 g/m*3 27.8 C 9.7 km/h
1610 26-06-2020 14:05:00 27.8 C 12.37 g/m*3 27.8 C 8.1 km/h
1611 26-06-2020 14:10:00 27.9 C 12.71 g/m*3 27.9 C 8.1 km/h
1612 26-06-2020 14:15:00 28 C 12.78 g/m*3 28 C 9.7 km/h
1613 26-06-2020 14:20:00 28.2 C 13.2 g/m*3 28.2 C 16.1 km/h
1614 26-06-2020 14:25:00 28.4 C 12.79 g/m*3 28.4 C 11.3 km/h
1615 26-06-2020 14:30:00 28.6 C 12.65 g/m*3 28.6 C 6.4 km/h
1616 26-06-2020 14:35:00 28.7 C 13.28 g/m*3 28.7 C 9.7 km/h
1617 26-06-2020 14:40:00 28.8 C 12.79 g/m*3 28.8 C 9.7 km/h
1618 26-06-2020 14:45:00 28.9 C 12.57 g/m*3 28.9 C 9.7 km/h
1619 26-06-2020 14:50:00 29.1 C 13.28 g/m*3 29.1 C 9.7 km/h
1620 26-06-2020 14:55:00 29.4 C 13.21 g/m*3 29.4 C 11.3 km/h
1621 26-06-2020 15:00:00 29.6 C 12.76 g/m*3 29.6 C 8.1 km/h
1622 26-06-2020 15:05:00 29.7 C 12.83 g/m*3 29.7 C 9.7 km/h
1623 26-06-2020 15:10:00 29.7 C 12.53 g/m*3 29.7 C 9.7 km/h
1624 26-06-2020 15:15:00 29.6 C 12.46 g/m*3 29.6 C 9.7 km/h
1625 26-06-2020 15:20:00 29.6 C 12.76 g/m*3 29.6 C 11.3 km/h
Sensor: Nr:Datum:Temp:Abs-Feuchte:Windchill:Wind:
Aussen-T/F 1626 26-06-2020 15:25:00 29.8 C 12.9 g/m*3 29.8 C 4.8 km/h
1627 26-06-2020 15:30:00 30.2 C 13.79 g/m*3 30.2 C 12.9 km/h
1628 26-06-2020 15:35:00 30.3 C 12.94 g/m*3 30.3 C 8.1 km/h
1629 26-06-2020 15:40:00 30.6 C 12.84 g/m*3 30.6 C 12.9 km/h
1630 26-06-2020 15:45:00 30.8 C 12.66 g/m*3 30.8 C 11.3 km/h
1631 26-06-2020 15:50:00 30.9 C 13.69 g/m*3 30.9 C 4.8 km/h
1632 26-06-2020 15:55:00 31.1 C 13.19 g/m*3 31.1 C 8.1 km/h
1633 26-06-2020 16:00:00 31.2 C 12.94 g/m*3 31.2 C 6.4 km/h
1634 26-06-2020 16:05:00 31.5 C 13.48 g/m*3 31.5 C 6.4 km/h
1635 26-06-2020 16:10:00 31.8 C 13.36 g/m*3 31.8 C 4.8 km/h
1636 26-06-2020 16:15:00 31.8 C 12.69 g/m*3 31.8 C 11.3 km/h
1637 26-06-2020 16:20:00 31.5 C 13.15 g/m*3 31.5 C 12.9 km/h
1638 26-06-2020 16:25:00 31.6 C 12.89 g/m*3 31.6 C 9.7 km/h
1639 26-06-2020 16:30:00 31.6 C 12.89 g/m*3 31.6 C 9.7 km/h
1640 26-06-2020 16:35:00 31.7 C 13.95 g/m*3 31.7 C 8.1 km/h
1641 26-06-2020 16:40:00 32.1 C 12.56 g/m*3 32.1 C 14.5 km/h
1642 26-06-2020 16:45:00 32 C 12.49 g/m*3 32 C 12.9 km/h
1643 26-06-2020 16:50:00 31.9 C 12.76 g/m*3 31.9 C 22.5 km/h
1644 26-06-2020 16:55:00 31.8 C 13.36 g/m*3 31.8 C 22.5 km/h
1645 26-06-2020 17:00:00 31.9 C 13.43 g/m*3 31.9 C 8.1 km/h
1646 26-06-2020 17:05:00 31.9 C 13.43 g/m*3 31.9 C 3.2 km/h
1647 26-06-2020 17:10:00 31.8 C 13.03 g/m*3 31.8 C 4.8 km/h
1648 26-06-2020 17:15:00 31.7 C 12.96 g/m*3 31.7 C 3.2 km/h
1649 26-06-2020 17:20:00 31.7 C 12.62 g/m*3 31.7 C 3.2 km/h
1650 26-06-2020 17:25:00 31.6 C 12.56 g/m*3 31.6 C 11.3 km/h
Sensor: Nr:Datum:Temp:Abs-Feuchte:Windchill:Wind:
Aussen-T/F 1651 26-06-2020 17:30:00 31.2 C 12.29 g/m*3 31.2 C 9.7 km/h
1652 26-06-2020 17:35:00 30.9 C 12.41 g/m*3 30.9 C 8.1 km/h
1653 26-06-2020 17:40:00 30.8 C 14.25 g/m*3 30.8 C 1.6 km/h
1654 26-06-2020 17:45:00 30.7 C 15.75 g/m*3 30.7 C 0 km/h
1655 26-06-2020 17:50:00 30.4 C 15.49 g/m*3 30.4 C 4.8 km/h
1656 26-06-2020 17:55:00 30.2 C 15.63 g/m*3 30.2 C 3.2 km/h
1657 26-06-2020 18:00:00 29.8 C 15.3 g/m*3 29.8 C 1.6 km/h
1658 26-06-2020 18:05:00 29.3 C 15.18 g/m*3 29.3 C 0 km/h
1659 26-06-2020 18:10:00 29 C 14.94 g/m*3 29 C 1.6 km/h
1660 26-06-2020 18:15:00 28.7 C 15.26 g/m*3 28.7 C 0 km/h
1661 26-06-2020 18:20:00 28.4 C 15.29 g/m*3 28.4 C 0 km/h
1662 26-06-2020 18:25:00 28.1 C 15.04 g/m*3 28.1 C 0 km/h
1663 26-06-2020 18:30:00 27.9 C 15.69 g/m*3 27.9 C 0 km/h
1664 26-06-2020 18:35:00 27.6 C 14.9 g/m*3 27.6 C 9.7 km/h
1665 26-06-2020 18:40:00 27.3 C 14.39 g/m*3 27.3 C 8.1 km/h
1666 26-06-2020 18:45:00 27.1 C 14.49 g/m*3 27.1 C 9.7 km/h
1667 26-06-2020 18:50:00 26.9 C 15.1 g/m*3 26.9 C 8.1 km/h
1668 26-06-2020 18:55:00 26.7 C 15.44 g/m*3 26.7 C 8.1 km/h
1669 26-06-2020 19:00:00 26.4 C 15.43 g/m*3 26.4 C 6.4 km/h
1670 26-06-2020 19:05:00 26.1 C 15.42 g/m*3 26.1 C 8.1 km/h
1671 26-06-2020 19:10:00 25.8 C 14.69 g/m*3 25.8 C 16.1 km/h
1672 26-06-2020 19:15:00 25.7 C 14.36 g/m*3 25.7 C 19.3 km/h
1673 26-06-2020 19:20:00 25.6 C 14.05 g/m*3 25.6 C 17.7 km/h
1674 26-06-2020 19:25:00 25.6 C 13.81 g/m*3 25.6 C 20.9 km/h
1675 26-06-2020 19:30:00 25.3 C 13.58 g/m*3 25.3 C 27.4 km/h
Sensor: Nr:Datum:Temp:Abs-Feuchte:Windchill:Wind:
Aussen-T/F 1676 26-06-2020 19:35:00 25.1 C 13.66 g/m*3 25.1 C 19.3 km/h
1677 26-06-2020 19:40:00 24.9 C 13.96 g/m*3 24.9 C 14.5 km/h
1678 26-06-2020 19:45:00 24.5 C 14.1 g/m*3 24.5 C 12.9 km/h
1679 26-06-2020 19:50:00 24.1 C 14 g/m*3 24.1 C 14.5 km/h
1680 26-06-2020 19:55:00 23.9 C 14.06 g/m*3 23.9 C 6.4 km/h
1681 26-06-2020 20:00:00 23.8 C 14.2 g/m*3 23.8 C 3.2 km/h
1682 26-06-2020 20:05:00 23.7 C 14.12 g/m*3 23.7 C 3.2 km/h
1683 26-06-2020 20:10:00 23.6 C 14.25 g/m*3 23.6 C 4.8 km/h
1684 26-06-2020 20:15:00 23.5 C 14.17 g/m*3 23.5 C 8.1 km/h
1685 26-06-2020 20:20:00 23.4 C 14.3 g/m*3 23.4 C 4.8 km/h
1686 26-06-2020 20:25:00 23.3 C 14.22 g/m*3 23.3 C 3.2 km/h
1687 26-06-2020 20:30:00 23.2 C 14.34 g/m*3 23.2 C 4.8 km/h
1688 26-06-2020 20:35:00 23.2 C 14.97 g/m*3 23.2 C 0 km/h
1689 26-06-2020 20:40:00 23.1 C 15.3 g/m*3 23.1 C 1.6 km/h
1690 26-06-2020 20:45:00 22.8 C 15.04 g/m*3 22.8 C 6.4 km/h
1691 26-06-2020 20:50:00 22.6 C 14.87 g/m*3 22.6 C 6.4 km/h
1692 26-06-2020 20:55:00 22.3 C 14.81 g/m*3 22.3 C 8.1 km/h
1693 26-06-2020 21:00:00 22.1 C 14.84 g/m*3 22.1 C 6.4 km/h
1694 26-06-2020 21:05:00 22 C 14.94 g/m*3 22 C 3.2 km/h
1695 26-06-2020 21:10:00 21.8 C 14.77 g/m*3 21.8 C 3.2 km/h
1696 26-06-2020 21:15:00 21.7 C 14.69 g/m*3 21.7 C 4.8 km/h
1697 26-06-2020 21:20:00 21.6 C 14.79 g/m*3 21.6 C 0 km/h
1698 26-06-2020 21:25:00 21.6 C 14.79 g/m*3 21.6 C 3.2 km/h
1699 26-06-2020 21:30:00 21.4 C 14.62 g/m*3 21.4 C 0 km/h
1700 26-06-2020 21:35:00 21.3 C 14.73 g/m*3 21.3 C 0 km/h
Sensor: Nr:Datum:Temp:Abs-Feuchte:Windchill:Wind:
Aussen-T/F 1701 26-06-2020 21:40:00 21.3 C 14.73 g/m*3 21.3 C 11.3 km/h
1702 26-06-2020 21:45:00 21.3 C 14.73 g/m*3 21.3 C 8.1 km/h
1703 26-06-2020 21:50:00 21.3 C 14.91 g/m*3 21.3 C 8.1 km/h
1704 26-06-2020 21:55:00 21.3 C 14.91 g/m*3 21.3 C 6.4 km/h
1705 26-06-2020 22:00:00 21.3 C 14.91 g/m*3 21.3 C 3.2 km/h
1706 26-06-2020 22:05:00 21.2 C 14.83 g/m*3 21.2 C 8.1 km/h
1707 26-06-2020 22:10:00 21.1 C 14.74 g/m*3 21.1 C 4.8 km/h
1708 26-06-2020 22:15:00 21.1 C 14.74 g/m*3 21.1 C 4.8 km/h
1709 26-06-2020 22:20:00 21.1 C 14.74 g/m*3 21.1 C 9.7 km/h
1710 26-06-2020 22:25:00 21.1 C 14.92 g/m*3 21.1 C 3.2 km/h
1711 26-06-2020 22:30:00 21 C 14.84 g/m*3 21 C 1.6 km/h
1712 26-06-2020 22:35:00 21 C 14.84 g/m*3 21 C 0 km/h
1713 26-06-2020 22:40:00 20.9 C 14.75 g/m*3 20.9 C 0 km/h
1714 26-06-2020 22:45:00 20.8 C 14.85 g/m*3 20.8 C 0 km/h
1715 26-06-2020 22:50:00 20.8 C 14.85 g/m*3 20.8 C 0 km/h
1716 26-06-2020 22:55:00 20.7 C 14.76 g/m*3 20.7 C 0 km/h
1717 26-06-2020 23:00:00 20.5 C 14.77 g/m*3 20.5 C 0 km/h
1718 26-06-2020 23:05:00 20.4 C 14.68 g/m*3 20.4 C 0 km/h
1719 26-06-2020 23:10:00 20.3 C 14.6 g/m*3 20.3 C 1.6 km/h
1720 26-06-2020 23:15:00 20.2 C 14.69 g/m*3 20.2 C 1.6 km/h
1721 26-06-2020 23:20:00 20.2 C 14.69 g/m*3 20.2 C 1.6 km/h
1722 26-06-2020 23:25:00 20.1 C 14.6 g/m*3 20.1 C 1.6 km/h
1723 26-06-2020 23:30:00 20.1 C 14.6 g/m*3 20.1 C 0 km/h
1724 26-06-2020 23:35:00 20.1 C 14.43 g/m*3 20.1 C 3.2 km/h
1725 26-06-2020 23:40:00 20.1 C 14.43 g/m*3 20.1 C 3.2 km/h
Sensor: Nr:Datum:Temp:Abs-Feuchte:Windchill:Wind:
Aussen-T/F 1726 26-06-2020 23:45:00 20.2 C 14.51 g/m*3 20.2 C 3.2 km/h
1727 26-06-2020 23:50:00 20.2 C 14.34 g/m*3 20.2 C 3.2 km/h
1728 26-06-2020 23:55:00 20.2 C 14.34 g/m*3 20.2 C 4.8 km/h
1729 27-06-2020 00:00:00 20.3 C 14.25 g/m*3 20.3 C 3.2 km/h
1730 27-06-2020 00:05:00 20.4 C 14.33 g/m*3 20.4 C 9.7 km/h
1731 27-06-2020 00:10:00 20.4 C 14.33 g/m*3 20.4 C 9.7 km/h
1732 27-06-2020 00:15:00 20.4 C 14.33 g/m*3 20.4 C 4.8 km/h
1733 27-06-2020 00:20:00 20.4 C 14.15 g/m*3 20.4 C 9.7 km/h
1734 27-06-2020 00:25:00 20.5 C 14.23 g/m*3 20.5 C 9.7 km/h
1735 27-06-2020 00:30:00 20.5 C 14.23 g/m*3 20.5 C 8.1 km/h
1736 27-06-2020 00:35:00 20.4 C 14.15 g/m*3 20.4 C 1.6 km/h
1737 27-06-2020 00:40:00 20.4 C 14.33 g/m*3 20.4 C 9.7 km/h
1738 27-06-2020 00:45:00 20.3 C 14.42 g/m*3 20.3 C 4.8 km/h
1739 27-06-2020 00:50:00 20.2 C 14.34 g/m*3 20.2 C 8.1 km/h
1740 27-06-2020 00:55:00 20.1 C 14.25 g/m*3 20.1 C 3.2 km/h
1741 27-06-2020 01:00:00 20 C 14.17 g/m*3 20 C 1.6 km/h
1742 27-06-2020 01:05:00 19.9 C 14.09 g/m*3 19.9 C 0 km/h
1743 27-06-2020 01:10:00 19.8 C 14.01 g/m*3 19.8 C 3.2 km/h
1744 27-06-2020 01:15:00 19.8 C 14.18 g/m*3 19.8 C 0 km/h
1745 27-06-2020 01:20:00 19.7 C 14.09 g/m*3 19.7 C 0 km/h
1746 27-06-2020 01:25:00 19.5 C 13.93 g/m*3 19.5 C 0 km/h
1747 27-06-2020 01:30:00 19.3 C 13.77 g/m*3 19.3 C 0 km/h
1748 27-06-2020 01:35:00 19.2 C 13.85 g/m*3 19.2 C 0 km/h
1749 27-06-2020 01:40:00 19 C 13.69 g/m*3 19 C 1.6 km/h
1750 27-06-2020 01:45:00 18.9 C 13.77 g/m*3 18.9 C 0 km/h
Sensor: Nr:Datum:Temp:Abs-Feuchte:Windchill:Wind:
Aussen-T/F 1751 27-06-2020 01:50:00 18.8 C 13.69 g/m*3 18.8 C 0 km/h
1752 27-06-2020 01:55:00 18.8 C 13.85 g/m*3 18.8 C 0 km/h
1753 27-06-2020 02:00:00 18.7 C 13.77 g/m*3 18.7 C 0 km/h
1754 27-06-2020 02:05:00 18.6 C 13.69 g/m*3 18.6 C 0 km/h
1755 27-06-2020 02:10:00 18.5 C 13.61 g/m*3 18.5 C 0 km/h
1756 27-06-2020 02:15:00 18.4 C 13.53 g/m*3 18.4 C 1.6 km/h
1757 27-06-2020 02:20:00 18.3 C 13.6 g/m*3 18.3 C 0 km/h
1758 27-06-2020 02:25:00 18.2 C 13.52 g/m*3 18.2 C 0 km/h
1759 27-06-2020 02:30:00 18.2 C 13.68 g/m*3 18.2 C 0 km/h
1760 27-06-2020 02:35:00 18.2 C 13.68 g/m*3 18.2 C 0 km/h
1761 27-06-2020 02:40:00 18.1 C 13.6 g/m*3 18.1 C 0 km/h
1762 27-06-2020 02:45:00 18.1 C 13.6 g/m*3 18.1 C 0 km/h
1763 27-06-2020 02:50:00 18.1 C 13.6 g/m*3 18.1 C 3.2 km/h
1764 27-06-2020 02:55:00 18.1 C 13.75 g/m*3 18.1 C 0 km/h
1765 27-06-2020 03:00:00 18.1 C 13.75 g/m*3 18.1 C 0 km/h
1766 27-06-2020 03:05:00 18.2 C 13.83 g/m*3 18.2 C 0 km/h
1767 27-06-2020 03:10:00 18.2 C 13.83 g/m*3 18.2 C 0 km/h
1768 27-06-2020 03:15:00 18.2 C 13.99 g/m*3 18.2 C 0 km/h
1769 27-06-2020 03:20:00 18.3 C 14.07 g/m*3 18.3 C 0 km/h
1770 27-06-2020 03:25:00 18.3 C 13.92 g/m*3 18.3 C 0 km/h
1771 27-06-2020 03:30:00 18.3 C 13.92 g/m*3 18.3 C 0 km/h
1772 27-06-2020 03:35:00 18.3 C 13.92 g/m*3 18.3 C 0 km/h
1773 27-06-2020 03:40:00 18.4 C 14 g/m*3 18.4 C 0 km/h
1774 27-06-2020 03:45:00 18.4 C 14 g/m*3 18.4 C 1.6 km/h
1775 27-06-2020 03:50:00 18.4 C 14.16 g/m*3 18.4 C 0 km/h
Sensor: Nr:Datum:Temp:Abs-Feuchte:Windchill:Wind:
Aussen-T/F 1776 27-06-2020 03:55:00 18.4 C 14.16 g/m*3 18.4 C 0 km/h
1777 27-06-2020 04:00:00 18.4 C 14 g/m*3 18.4 C 0 km/h
1778 27-06-2020 04:05:00 18.4 C 14 g/m*3 18.4 C 0 km/h
1779 27-06-2020 04:10:00 18.3 C 13.92 g/m*3 18.3 C 0 km/h
1780 27-06-2020 04:15:00 18.3 C 13.92 g/m*3 18.3 C 0 km/h
1781 27-06-2020 04:20:00 18.3 C 13.92 g/m*3 18.3 C 0 km/h
1782 27-06-2020 04:25:00 18.2 C 13.83 g/m*3 18.2 C 0 km/h
1783 27-06-2020 04:30:00 18.1 C 13.75 g/m*3 18.1 C 0 km/h
1784 27-06-2020 04:35:00 18.1 C 13.75 g/m*3 18.1 C 0 km/h
1785 27-06-2020 04:40:00 18 C 13.82 g/m*3 18 C 0 km/h
1786 27-06-2020 04:45:00 17.9 C 13.74 g/m*3 17.9 C 0 km/h
1787 27-06-2020 04:50:00 17.8 C 13.66 g/m*3 17.8 C 3.2 km/h
1788 27-06-2020 04:55:00 17.8 C 13.66 g/m*3 17.8 C 1.6 km/h
1789 27-06-2020 05:00:00 17.7 C 13.58 g/m*3 17.7 C 0 km/h
1790 27-06-2020 05:05:00 17.6 C 13.5 g/m*3 17.6 C 0 km/h
1791 27-06-2020 05:10:00 17.5 C 13.57 g/m*3 17.5 C 0 km/h
1792 27-06-2020 05:15:00 17.4 C 13.49 g/m*3 17.4 C 0 km/h
1793 27-06-2020 05:20:00 17.4 C 13.49 g/m*3 17.4 C 0 km/h
1794 27-06-2020 05:25:00 17.3 C 13.41 g/m*3 17.3 C 0 km/h
1795 27-06-2020 05:30:00 17.3 C 13.55 g/m*3 17.3 C 0 km/h
1796 27-06-2020 05:35:00 17.4 C 13.63 g/m*3 17.4 C 0 km/h
1797 27-06-2020 05:40:00 17.4 C 13.63 g/m*3 17.4 C 0 km/h
1798 27-06-2020 05:45:00 17.4 C 13.63 g/m*3 17.4 C 1.6 km/h
1799 27-06-2020 05:50:00 17.6 C 13.95 g/m*3 17.6 C 1.6 km/h
1800 27-06-2020 05:55:00 17.6 C 13.95 g/m*3 17.6 C 3.2 km/h
Sensor: Nr:Datum:Temp:Abs-Feuchte:Windchill:Wind:
Aussen-T/F 1801 27-06-2020 06:00:00 17.7 C 14.03 g/m*3 17.7 C 0 km/h
1802 27-06-2020 06:05:00 17.7 C 14.03 g/m*3 17.7 C 0 km/h
1803 27-06-2020 06:10:00 17.8 C 14.12 g/m*3 17.8 C 4.8 km/h
1804 27-06-2020 06:15:00 17.9 C 14.2 g/m*3 17.9 C 3.2 km/h
1805 27-06-2020 06:20:00 18.1 C 14.21 g/m*3 18.1 C 3.2 km/h
1806 27-06-2020 06:25:00 18.2 C 14.3 g/m*3 18.2 C 1.6 km/h
1807 27-06-2020 06:30:00 18.3 C 14.38 g/m*3 18.3 C 1.6 km/h
1808 27-06-2020 06:35:00 18.4 C 14.31 g/m*3 18.4 C 3.2 km/h
1809 27-06-2020 06:40:00 18.6 C 14.48 g/m*3 18.6 C 3.2 km/h
1810 27-06-2020 06:45:00 18.7 C 14.57 g/m*3 18.7 C 3.2 km/h
1811 27-06-2020 06:50:00 18.7 C 14.57 g/m*3 18.7 C 0 km/h
1812 27-06-2020 06:55:00 18.8 C 14.49 g/m*3 18.8 C 3.2 km/h
1813 27-06-2020 07:00:00 18.9 C 14.58 g/m*3 18.9 C 1.6 km/h
1814 27-06-2020 07:05:00 19 C 14.67 g/m*3 19 C 0 km/h
1815 27-06-2020 07:10:00 19.1 C 14.75 g/m*3 19.1 C 0 km/h
1816 27-06-2020 07:15:00 19.2 C 14.68 g/m*3 19.2 C 0 km/h
1817 27-06-2020 07:20:00 19.3 C 14.93 g/m*3 19.3 C 0 km/h
1818 27-06-2020 07:25:00 19.6 C 15.02 g/m*3 19.6 C 8.1 km/h
1819 27-06-2020 07:30:00 19.8 C 15.03 g/m*3 19.8 C 9.7 km/h
1820 27-06-2020 07:35:00 20 C 15.04 g/m*3 20 C 6.4 km/h
1821 27-06-2020 07:40:00 20.2 C 15.04 g/m*3 20.2 C 11.3 km/h
1822 27-06-2020 07:45:00 20.3 C 15.13 g/m*3 20.3 C 9.7 km/h
1823 27-06-2020 07:50:00 20.4 C 14.86 g/m*3 20.4 C 16.1 km/h
1824 27-06-2020 07:55:00 20.4 C 14.86 g/m*3 20.4 C 14.5 km/h
1825 27-06-2020 08:00:00 20.5 C 14.77 g/m*3 20.5 C 17.7 km/h
Sensor: Nr:Datum:Temp:Abs-Feuchte:Windchill:Wind:
Aussen-T/F 1826 27-06-2020 08:05:00 20.5 C 14.77 g/m*3 20.5 C 17.7 km/h
1827 27-06-2020 08:10:00 20.6 C 14.86 g/m*3 20.6 C 12.9 km/h
1828 27-06-2020 08:15:00 20.6 C 14.68 g/m*3 20.6 C 12.9 km/h
1829 27-06-2020 08:20:00 20.7 C 14.94 g/m*3 20.7 C 9.7 km/h
1830 27-06-2020 08:25:00 20.8 C 14.85 g/m*3 20.8 C 17.7 km/h
1831 27-06-2020 08:30:00 21.1 C 14.92 g/m*3 21.1 C 16.1 km/h
1832 27-06-2020 08:35:00 21.3 C 14.91 g/m*3 21.3 C 14.5 km/h
1833 27-06-2020 08:40:00 21.4 C 15 g/m*3 21.4 C 12.9 km/h
1834 27-06-2020 08:45:00 21.5 C 14.9 g/m*3 21.5 C 9.7 km/h
1835 27-06-2020 08:50:00 21.5 C 14.71 g/m*3 21.5 C 14.5 km/h
1836 27-06-2020 08:55:00 21.5 C 14.71 g/m*3 21.5 C 9.7 km/h
1837 27-06-2020 09:00:00 21.4 C 14.62 g/m*3 21.4 C 0 km/h
1838 27-06-2020 09:05:00 21.4 C 14.81 g/m*3 21.4 C 4.8 km/h
1839 27-06-2020 09:10:00 21.4 C 14.62 g/m*3 21.4 C 4.8 km/h
1840 27-06-2020 09:15:00 21.4 C 14.81 g/m*3 21.4 C 3.2 km/h
1841 27-06-2020 09:20:00 21.5 C 15.09 g/m*3 21.5 C 3.2 km/h
1842 27-06-2020 09:25:00 21.6 C 14.98 g/m*3 21.6 C 6.4 km/h
1843 27-06-2020 09:30:00 21.7 C 14.88 g/m*3 21.7 C 4.8 km/h
1844 27-06-2020 09:35:00 21.8 C 14.77 g/m*3 21.8 C 4.8 km/h
1845 27-06-2020 09:40:00 21.9 C 14.67 g/m*3 21.9 C 1.6 km/h
1846 27-06-2020 09:45:00 22 C 14.75 g/m*3 22 C 4.8 km/h
1847 27-06-2020 09:50:00 22.1 C 14.64 g/m*3 22.1 C 8.1 km/h
1848 27-06-2020 09:55:00 22.2 C 14.72 g/m*3 22.2 C 8.1 km/h
1849 27-06-2020 10:00:00 22.4 C 14.89 g/m*3 22.4 C 9.7 km/h
1850 27-06-2020 10:05:00 22.6 C 14.87 g/m*3 22.6 C 9.7 km/h
Sensor: Nr:Datum:Temp:Abs-Feuchte:Windchill:Wind:
Aussen-T/F 1851 27-06-2020 10:10:00 22.7 C 14.95 g/m*3 22.7 C 1.6 km/h
1852 27-06-2020 10:15:00 22.8 C 15.24 g/m*3 22.8 C 3.2 km/h
1853 27-06-2020 10:20:00 22.9 C 14.51 g/m*3 22.9 C 6.4 km/h
1854 27-06-2020 10:25:00 22.9 C 14.71 g/m*3 22.9 C 9.7 km/h
1855 27-06-2020 10:30:00 23 C 14.59 g/m*3 23 C 6.4 km/h
1856 27-06-2020 10:35:00 23.1 C 14.68 g/m*3 23.1 C 12.9 km/h
1857 27-06-2020 10:40:00 23.2 C 14.55 g/m*3 23.2 C 8.1 km/h
1858 27-06-2020 10:45:00 23.3 C 14.64 g/m*3 23.3 C 8.1 km/h
1859 27-06-2020 10:50:00 23.5 C 14.8 g/m*3 23.5 C 14.5 km/h
1860 27-06-2020 10:55:00 23.6 C 14.46 g/m*3 23.6 C 11.3 km/h
1861 27-06-2020 11:00:00 23.6 C 14.68 g/m*3 23.6 C 9.7 km/h
1862 27-06-2020 11:05:00 23.6 C 14.68 g/m*3 23.6 C 11.3 km/h
1863 27-06-2020 11:10:00 23.5 C 14.59 g/m*3 23.5 C 8.1 km/h
1864 27-06-2020 11:15:00 23.4 C 14.72 g/m*3 23.4 C 3.2 km/h
1865 27-06-2020 11:20:00 23.3 C 14.64 g/m*3 23.3 C 8.1 km/h
1866 27-06-2020 11:25:00 23.1 C 14.68 g/m*3 23.1 C 6.4 km/h
1867 27-06-2020 11:30:00 22.9 C 14.51 g/m*3 22.9 C 6.4 km/h
1868 27-06-2020 11:35:00 22.9 C 14.51 g/m*3 22.9 C 8.1 km/h
1869 27-06-2020 11:40:00 22.8 C 14.63 g/m*3 22.8 C 9.7 km/h
1870 27-06-2020 11:45:00 22.7 C 14.55 g/m*3 22.7 C 9.7 km/h
1871 27-06-2020 11:50:00 22.7 C 14.55 g/m*3 22.7 C 4.8 km/h
1872 27-06-2020 11:55:00 22.6 C 14.66 g/m*3 22.6 C 8.1 km/h
1873 27-06-2020 12:00:00 22.5 C 14.58 g/m*3 22.5 C 4.8 km/h
1874 27-06-2020 12:05:00 22.4 C 14.7 g/m*3 22.4 C 11.3 km/h
1875 27-06-2020 12:10:00 22.3 C 14.61 g/m*3 22.3 C 6.4 km/h
Sensor: Nr:Datum:Temp:Abs-Feuchte:Windchill:Wind:
Aussen-T/F 1876 27-06-2020 12:15:00 22.2 C 14.72 g/m*3 22.2 C 3.2 km/h
1877 27-06-2020 12:20:00 22.2 C 14.72 g/m*3 22.2 C 6.4 km/h
1878 27-06-2020 12:25:00 22.3 C 15.01 g/m*3 22.3 C 4.8 km/h
1879 27-06-2020 12:30:00 22.5 C 14.98 g/m*3 22.5 C 6.4 km/h
1880 27-06-2020 12:35:00 22.7 C 15.36 g/m*3 22.7 C 4.8 km/h
1881 27-06-2020 12:40:00 22.8 C 15.24 g/m*3 22.8 C 3.2 km/h
1882 27-06-2020 12:45:00 22.9 C 15.33 g/m*3 22.9 C 4.8 km/h
1883 27-06-2020 12:50:00 22.9 C 15.33 g/m*3 22.9 C 6.4 km/h
1884 27-06-2020 12:55:00 23 C 15.42 g/m*3 23 C 8.1 km/h
1885 27-06-2020 13:00:00 23 C 15.42 g/m*3 23 C 11.3 km/h
1886 27-06-2020 13:05:00 23 C 15.62 g/m*3 23 C 6.4 km/h
1887 27-06-2020 13:10:00 22.9 C 15.33 g/m*3 22.9 C 11.3 km/h
1888 27-06-2020 13:15:00 22.9 C 15.33 g/m*3 22.9 C 3.2 km/h
1889 27-06-2020 13:20:00 22.9 C 15.53 g/m*3 22.9 C 4.8 km/h
1890 27-06-2020 13:25:00 22.9 C 15.33 g/m*3 22.9 C 4.8 km/h
1891 27-06-2020 13:30:00 22.9 C 15.53 g/m*3 22.9 C 3.2 km/h
1892 27-06-2020 13:35:00 23 C 15.42 g/m*3 23 C 4.8 km/h
1893 27-06-2020 13:40:00 23.1 C 15.71 g/m*3 23.1 C 3.2 km/h
1894 27-06-2020 13:45:00 23.2 C 15.8 g/m*3 23.2 C 0 km/h
1895 27-06-2020 13:50:00 23.4 C 15.77 g/m*3 23.4 C 4.8 km/h
1896 27-06-2020 13:55:00 23.7 C 15.83 g/m*3 23.7 C 11.3 km/h
1897 27-06-2020 14:00:00 23.9 C 15.79 g/m*3 23.9 C 8.1 km/h
1898 27-06-2020 14:05:00 24.2 C 15.62 g/m*3 24.2 C 14.5 km/h
1899 27-06-2020 14:10:00 24.6 C 15.53 g/m*3 24.6 C 16.1 km/h
1900 27-06-2020 14:15:00 24.7 C 15.62 g/m*3 24.7 C 12.9 km/h
Sensor: Nr:Datum:Temp:Abs-Feuchte:Windchill:Wind:
Aussen-T/F 1901 27-06-2020 14:20:00 24.9 C 15.57 g/m*3 24.9 C 14.5 km/h
1902 27-06-2020 14:25:00 25 C 15.19 g/m*3 25 C 12.9 km/h
1903 27-06-2020 14:30:00 25.4 C 14.83 g/m*3 25.4 C 19.3 km/h
1904 27-06-2020 14:35:00 25.8 C 14.93 g/m*3 25.8 C 19.3 km/h
1905 27-06-2020 14:40:00 26.2 C 14.77 g/m*3 26.2 C 19.3 km/h
1906 27-06-2020 14:45:00 26.4 C 14.69 g/m*3 26.4 C 14.5 km/h
1907 27-06-2020 14:50:00 26.7 C 14.68 g/m*3 26.7 C 14.5 km/h
1908 27-06-2020 14:55:00 26.8 C 14.51 g/m*3 26.8 C 24.1 km/h
1909 27-06-2020 15:00:00 27.1 C 14.75 g/m*3 27.1 C 24.1 km/h
1910 27-06-2020 15:05:00 27.3 C 14.65 g/m*3 27.3 C 22.5 km/h
1911 27-06-2020 15:10:00 27.5 C 14.29 g/m*3 27.5 C 20.9 km/h
1912 27-06-2020 15:15:00 27.7 C 14.44 g/m*3 27.7 C 14.5 km/h
1913 27-06-2020 15:20:00 27.7 C 14.18 g/m*3 27.7 C 14.5 km/h
1914 27-06-2020 15:25:00 27.6 C 14.1 g/m*3 27.6 C 24.1 km/h
1915 27-06-2020 15:30:00 27.7 C 14.71 g/m*3 27.7 C 17.7 km/h
1916 27-06-2020 15:35:00 28.2 C 14.3 g/m*3 28.2 C 17.7 km/h
1917 27-06-2020 15:40:00 28.3 C 14.38 g/m*3 28.3 C 17.7 km/h
1918 27-06-2020 15:45:00 28.4 C 14.18 g/m*3 28.4 C 19.3 km/h
1919 27-06-2020 15:50:00 28.2 C 14.02 g/m*3 28.2 C 17.7 km/h
1920 27-06-2020 15:55:00 28.3 C 14.1 g/m*3 28.3 C 19.3 km/h
1921 27-06-2020 16:00:00 28.5 C 14.25 g/m*3 28.5 C 20.9 km/h
1922 27-06-2020 16:05:00 28.6 C 14.61 g/m*3 28.6 C 16.1 km/h
1923 27-06-2020 16:10:00 28.6 C 14.61 g/m*3 28.6 C 17.7 km/h
1924 27-06-2020 16:15:00 28.5 C 14.53 g/m*3 28.5 C 16.1 km/h
1925 27-06-2020 16:20:00 28.7 C 14.69 g/m*3 28.7 C 19.3 km/h
Sensor: Nr:Datum:Temp:Abs-Feuchte:Windchill:Wind:
Aussen-T/F 1926 27-06-2020 16:25:00 28.9 C 14.57 g/m*3 28.9 C 17.7 km/h
1927 27-06-2020 16:30:00 29.1 C 14.73 g/m*3 29.1 C 16.1 km/h
1928 27-06-2020 16:35:00 29.1 C 14.73 g/m*3 29.1 C 17.7 km/h
1929 27-06-2020 16:40:00 29.1 C 14.73 g/m*3 29.1 C 20.9 km/h
1930 27-06-2020 16:45:00 28.9 C 14.57 g/m*3 28.9 C 17.7 km/h
1931 27-06-2020 16:50:00 29.1 C 14.73 g/m*3 29.1 C 17.7 km/h
1932 27-06-2020 16:55:00 29.4 C 14.68 g/m*3 29.4 C 17.7 km/h
1933 27-06-2020 17:00:00 29.6 C 15.43 g/m*3 29.6 C 16.1 km/h
1934 27-06-2020 17:05:00 29.8 C 14.4 g/m*3 29.8 C 20.9 km/h
1935 27-06-2020 17:10:00 29.8 C 14.7 g/m*3 29.8 C 9.7 km/h
1936 27-06-2020 17:15:00 29.3 C 14.31 g/m*3 29.3 C 20.9 km/h
1937 27-06-2020 17:20:00 28.5 C 14.25 g/m*3 28.5 C 16.1 km/h
1938 27-06-2020 17:25:00 28.6 C 14.33 g/m*3 28.6 C 9.7 km/h
1939 27-06-2020 17:30:00 28.7 C 14.41 g/m*3 28.7 C 12.9 km/h
1940 27-06-2020 17:35:00 28.9 C 14.57 g/m*3 28.9 C 17.7 km/h
1941 27-06-2020 17:40:00 29.1 C 14.44 g/m*3 29.1 C 17.7 km/h
1942 27-06-2020 17:45:00 28.5 C 14.25 g/m*3 28.5 C 16.1 km/h
1943 27-06-2020 17:50:00 28.1 C 14.22 g/m*3 28.1 C 14.5 km/h
1944 27-06-2020 17:55:00 27.8 C 13.72 g/m*3 27.8 C 14.5 km/h
1945 27-06-2020 18:00:00 27.6 C 13.83 g/m*3 27.6 C 9.7 km/h
1946 27-06-2020 18:05:00 27.2 C 13.79 g/m*3 27.2 C 19.3 km/h
1947 27-06-2020 18:10:00 27.1 C 13.97 g/m*3 27.1 C 12.9 km/h
1948 27-06-2020 18:15:00 27.3 C 14.39 g/m*3 27.3 C 12.9 km/h
1949 27-06-2020 18:20:00 28 C 14.14 g/m*3 28 C 12.9 km/h
1950 27-06-2020 18:25:00 28.5 C 13.7 g/m*3 28.5 C 14.5 km/h
Sensor: Nr:Datum:Temp:Abs-Feuchte:Windchill:Wind:
Aussen-T/F 1951 27-06-2020 18:30:00 28.3 C 14.1 g/m*3 28.3 C 16.1 km/h
1952 27-06-2020 18:35:00 28.3 C 14.38 g/m*3 28.3 C 6.4 km/h
1953 27-06-2020 18:40:00 28.3 C 14.1 g/m*3 28.3 C 9.7 km/h
1954 27-06-2020 18:45:00 28.6 C 14.33 g/m*3 28.6 C 11.3 km/h
1955 27-06-2020 18:50:00 28.7 C 14.13 g/m*3 28.7 C 22.5 km/h
1956 27-06-2020 18:55:00 28.6 C 14.05 g/m*3 28.6 C 12.9 km/h
1957 27-06-2020 19:00:00 28.1 C 14.22 g/m*3 28.1 C 11.3 km/h
1958 27-06-2020 19:05:00 27.7 C 13.91 g/m*3 27.7 C 12.9 km/h
1959 27-06-2020 19:10:00 27.3 C 13.87 g/m*3 27.3 C 11.3 km/h
1960 27-06-2020 19:15:00 27 C 13.64 g/m*3 27 C 14.5 km/h
1961 27-06-2020 19:20:00 26.8 C 13.74 g/m*3 26.8 C 9.7 km/h
1962 27-06-2020 19:25:00 26.6 C 13.59 g/m*3 26.6 C 12.9 km/h
1963 27-06-2020 19:30:00 26.4 C 13.69 g/m*3 26.4 C 12.9 km/h
1964 27-06-2020 19:35:00 26.3 C 13.62 g/m*3 26.3 C 11.3 km/h
1965 27-06-2020 19:40:00 26.2 C 13.54 g/m*3 26.2 C 12.9 km/h
1966 27-06-2020 19:45:00 26.1 C 13.46 g/m*3 26.1 C 11.3 km/h
1967 27-06-2020 19:50:00 26.1 C 13.71 g/m*3 26.1 C 6.4 km/h
1968 27-06-2020 19:55:00 25.9 C 13.32 g/m*3 25.9 C 9.7 km/h
1969 27-06-2020 20:00:00 25.9 C 13.56 g/m*3 25.9 C 4.8 km/h
1970 27-06-2020 20:05:00 25.9 C 13.56 g/m*3 25.9 C 3.2 km/h
1971 27-06-2020 20:10:00 25.8 C 13.96 g/m*3 25.8 C 8.1 km/h
1972 27-06-2020 20:15:00 25.7 C 13.89 g/m*3 25.7 C 8.1 km/h
1973 27-06-2020 20:20:00 25.6 C 13.33 g/m*3 25.6 C 16.1 km/h
1974 27-06-2020 20:25:00 25.6 C 13.57 g/m*3 25.6 C 9.7 km/h
1975 27-06-2020 20:30:00 25.5 C 13.73 g/m*3 25.5 C 6.4 km/h
Sensor: Nr:Datum:Temp:Abs-Feuchte:Windchill:Wind:
Aussen-T/F 1976 27-06-2020 20:35:00 25.4 C 13.89 g/m*3 25.4 C 8.1 km/h
1977 27-06-2020 20:40:00 25.3 C 13.34 g/m*3 25.3 C 9.7 km/h
1978 27-06-2020 20:45:00 25.3 C 13.34 g/m*3 25.3 C 11.3 km/h
1979 27-06-2020 20:50:00 25.2 C 13.27 g/m*3 25.2 C 12.9 km/h
1980 27-06-2020 20:55:00 25.1 C 13.2 g/m*3 25.1 C 8.1 km/h
1981 27-06-2020 21:00:00 25.1 C 13.43 g/m*3 25.1 C 6.4 km/h
1982 27-06-2020 21:05:00 24.9 C 13.28 g/m*3 24.9 C 9.7 km/h
1983 27-06-2020 21:10:00 24.9 C 13.51 g/m*3 24.9 C 1.6 km/h
1984 27-06-2020 21:15:00 24.7 C 13.35 g/m*3 24.7 C 4.8 km/h
1985 27-06-2020 21:20:00 24.7 C 13.81 g/m*3 24.7 C 4.8 km/h
1986 27-06-2020 21:25:00 24.4 C 13.8 g/m*3 24.4 C 9.7 km/h
1987 27-06-2020 21:30:00 24.3 C 13.72 g/m*3 24.3 C 4.8 km/h
1988 27-06-2020 21:35:00 24.2 C 13.86 g/m*3 24.2 C 6.4 km/h
1989 27-06-2020 21:40:00 24.1 C 13.78 g/m*3 24.1 C 3.2 km/h
1990 27-06-2020 21:45:00 23.9 C 13.85 g/m*3 23.9 C 8.1 km/h
1991 27-06-2020 21:50:00 23.7 C 13.69 g/m*3 23.7 C 3.2 km/h
1992 27-06-2020 21:55:00 23.6 C 13.82 g/m*3 23.6 C 4.8 km/h
1993 27-06-2020 22:00:00 23.4 C 13.88 g/m*3 23.4 C 4.8 km/h
1994 27-06-2020 22:05:00 23.3 C 13.8 g/m*3 23.3 C 3.2 km/h
1995 27-06-2020 22:10:00 23.2 C 13.93 g/m*3 23.2 C 3.2 km/h
1996 27-06-2020 22:15:00 23.1 C 13.85 g/m*3 23.1 C 3.2 km/h
1997 27-06-2020 22:20:00 22.9 C 13.9 g/m*3 22.9 C 1.6 km/h
1998 27-06-2020 22:25:00 22.8 C 13.82 g/m*3 22.8 C 4.8 km/h
1999 27-06-2020 22:30:00 22.7 C 13.74 g/m*3 22.7 C 3.2 km/h
2000 27-06-2020 22:35:00 22.7 C 13.94 g/m*3 22.7 C 3.2 km/h
Sensor: Nr:Datum:Temp:Abs-Feuchte:Windchill:Wind:
Aussen-T/F 2001 27-06-2020 22:40:00 22.6 C 13.86 g/m*3 22.6 C 3.2 km/h
2002 27-06-2020 22:45:00 22.6 C 14.06 g/m*3 22.6 C 3.2 km/h
2003 27-06-2020 22:50:00 22.5 C 14.18 g/m*3 22.5 C 4.8 km/h
2004 27-06-2020 22:55:00 22.4 C 14.1 g/m*3 22.4 C 3.2 km/h
2005 27-06-2020 23:00:00 22.2 C 13.94 g/m*3 22.2 C 4.8 km/h
2006 27-06-2020 23:05:00 22.1 C 14.05 g/m*3 22.1 C 3.2 km/h
2007 27-06-2020 23:10:00 21.9 C 14.09 g/m*3 21.9 C 3.2 km/h
2008 27-06-2020 23:15:00 21.8 C 14.01 g/m*3 21.8 C 0 km/h
2009 27-06-2020 23:20:00 21.8 C 14.2 g/m*3 21.8 C 0 km/h
2010 27-06-2020 23:25:00 21.7 C 14.12 g/m*3 21.7 C 0 km/h
2011 27-06-2020 23:30:00 21.6 C 14.22 g/m*3 21.6 C 0 km/h
2012 27-06-2020 23:35:00 21.6 C 14.22 g/m*3 21.6 C 0 km/h
2013 27-06-2020 23:40:00 21.5 C 14.14 g/m*3 21.5 C 0 km/h
2014 27-06-2020 23:45:00 21.5 C 13.95 g/m*3 21.5 C 4.8 km/h
2015 27-06-2020 23:50:00 21.6 C 14.22 g/m*3 21.6 C 1.6 km/h
2016 27-06-2020 23:55:00 21.6 C 14.22 g/m*3 21.6 C 1.6 km/h
2017 28-06-2020 00:00:00 21.6 C 14.22 g/m*3 21.6 C 0 km/h
2018 28-06-2020 00:05:00 21.6 C 14.22 g/m*3 21.6 C 3.2 km/h
2019 28-06-2020 00:10:00 21.4 C 14.06 g/m*3 21.4 C 3.2 km/h
2020 28-06-2020 00:15:00 21.4 C 14.06 g/m*3 21.4 C 0 km/h
2021 28-06-2020 00:20:00 21.3 C 14.17 g/m*3 21.3 C 0 km/h
2022 28-06-2020 00:25:00 21.2 C 14.08 g/m*3 21.2 C 0 km/h
2023 28-06-2020 00:30:00 20.9 C 13.84 g/m*3 20.9 C 0 km/h
2024 28-06-2020 00:35:00 20.8 C 13.94 g/m*3 20.8 C 0 km/h
2025 28-06-2020 00:40:00 20.6 C 13.96 g/m*3 20.6 C 0 km/h
Sensor: Nr:Datum:Temp:Abs-Feuchte:Windchill:Wind:
Aussen-T/F 2026 28-06-2020 00:45:00 20.4 C 13.8 g/m*3 20.4 C 0 km/h
2027 28-06-2020 00:50:00 20.3 C 13.89 g/m*3 20.3 C 0 km/h
2028 28-06-2020 00:55:00 20.2 C 13.81 g/m*3 20.2 C 0 km/h
2029 28-06-2020 01:00:00 20.2 C 13.81 g/m*3 20.2 C 0 km/h
2030 28-06-2020 01:05:00 20.2 C 13.99 g/m*3 20.2 C 0 km/h
2031 28-06-2020 01:10:00 20.2 C 13.99 g/m*3 20.2 C 0 km/h
2032 28-06-2020 01:15:00 20.1 C 13.91 g/m*3 20.1 C 0 km/h
2033 28-06-2020 01:20:00 20.1 C 13.91 g/m*3 20.1 C 0 km/h
2034 28-06-2020 01:25:00 20.1 C 14.08 g/m*3 20.1 C 0 km/h
2035 28-06-2020 01:30:00 20 C 14 g/m*3 20 C 0 km/h
2036 28-06-2020 01:35:00 20 C 14 g/m*3 20 C 0 km/h
2037 28-06-2020 01:40:00 19.9 C 13.92 g/m*3 19.9 C 0 km/h
2038 28-06-2020 01:45:00 19.9 C 13.92 g/m*3 19.9 C 0 km/h
2039 28-06-2020 01:50:00 19.9 C 13.92 g/m*3 19.9 C 0 km/h
2040 28-06-2020 01:55:00 19.9 C 13.92 g/m*3 19.9 C 0 km/h
2041 28-06-2020 02:00:00 19.9 C 13.92 g/m*3 19.9 C 0 km/h
2042 28-06-2020 02:05:00 20 C 14 g/m*3 20 C 0 km/h
2043 28-06-2020 02:10:00 20.1 C 14.08 g/m*3 20.1 C 0 km/h
2044 28-06-2020 02:15:00 20.2 C 13.99 g/m*3 20.2 C 0 km/h
2045 28-06-2020 02:20:00 20.3 C 14.07 g/m*3 20.3 C 0 km/h
2046 28-06-2020 02:25:00 20.4 C 14.15 g/m*3 20.4 C 0 km/h
2047 28-06-2020 02:30:00 20.4 C 13.98 g/m*3 20.4 C 0 km/h
2048 28-06-2020 02:35:00 20.5 C 14.06 g/m*3 20.5 C 0 km/h
2049 28-06-2020 02:40:00 20.6 C 14.14 g/m*3 20.6 C 0 km/h
2050 28-06-2020 02:45:00 20.6 C 14.14 g/m*3 20.6 C 0 km/h
Sensor: Nr:Datum:Temp:Abs-Feuchte:Windchill:Wind:
Aussen-T/F 2051 28-06-2020 02:50:00 20.7 C 14.76 g/m*3 20.7 C 0 km/h
2052 28-06-2020 02:55:00 20.7 C 15.12 g/m*3 20.7 C 4.8 km/h
2053 28-06-2020 03:00:00 20.6 C 14.86 g/m*3 20.6 C 11.3 km/h
2054 28-06-2020 03:05:00 20.4 C 14.86 g/m*3 20.4 C 3.2 km/h
2055 28-06-2020 03:10:00 20.3 C 14.77 g/m*3 20.3 C 6.4 km/h
2056 28-06-2020 03:15:00 20.3 C 14.95 g/m*3 20.3 C 1.6 km/h
2057 28-06-2020 03:20:00 20.2 C 14.86 g/m*3 20.2 C 3.2 km/h
2058 28-06-2020 03:25:00 20.2 C 15.04 g/m*3 20.2 C 1.6 km/h
2059 28-06-2020 03:30:00 20.1 C 14.95 g/m*3 20.1 C 0 km/h
2060 28-06-2020 03:35:00 19.9 C 14.95 g/m*3 19.9 C 0 km/h
2061 28-06-2020 03:40:00 19.8 C 14.86 g/m*3 19.8 C 1.6 km/h
2062 28-06-2020 03:45:00 19.7 C 14.77 g/m*3 19.7 C 3.2 km/h
2063 28-06-2020 03:50:00 19.7 C 14.94 g/m*3 19.7 C 3.2 km/h
2064 28-06-2020 03:55:00 19.7 C 14.94 g/m*3 19.7 C 0 km/h
2065 28-06-2020 04:00:00 19.6 C 14.86 g/m*3 19.6 C 1.6 km/h
2066 28-06-2020 04:05:00 19.6 C 14.86 g/m*3 19.6 C 0 km/h
2067 28-06-2020 04:10:00 19.5 C 14.94 g/m*3 19.5 C 0 km/h
2068 28-06-2020 04:15:00 19.4 C 14.85 g/m*3 19.4 C 0 km/h
2069 28-06-2020 04:20:00 19.4 C 14.85 g/m*3 19.4 C 1.6 km/h
2070 28-06-2020 04:25:00 19.4 C 14.85 g/m*3 19.4 C 0 km/h
2071 28-06-2020 04:30:00 19.3 C 14.76 g/m*3 19.3 C 0 km/h
2072 28-06-2020 04:35:00 19.3 C 14.76 g/m*3 19.3 C 1.6 km/h
2073 28-06-2020 04:40:00 19.3 C 14.76 g/m*3 19.3 C 0 km/h
2074 28-06-2020 04:45:00 19.3 C 14.93 g/m*3 19.3 C 0 km/h
2075 28-06-2020 04:50:00 19.2 C 14.84 g/m*3 19.2 C 1.6 km/h
Sensor: Nr:Datum:Temp:Abs-Feuchte:Windchill:Wind:
Aussen-T/F 2076 28-06-2020 04:55:00 19.2 C 14.84 g/m*3 19.2 C 1.6 km/h
2077 28-06-2020 05:00:00 19.2 C 14.84 g/m*3 19.2 C 0 km/h
2078 28-06-2020 05:05:00 19.1 C 14.75 g/m*3 19.1 C 0 km/h
2079 28-06-2020 05:10:00 19.1 C 14.75 g/m*3 19.1 C 0 km/h
2080 28-06-2020 05:15:00 19.1 C 14.92 g/m*3 19.1 C 0 km/h
2081 28-06-2020 05:20:00 19.1 C 14.92 g/m*3 19.1 C 0 km/h
2082 28-06-2020 05:25:00 19.1 C 14.75 g/m*3 19.1 C 1.6 km/h
2083 28-06-2020 05:30:00 19.1 C 14.75 g/m*3 19.1 C 4.8 km/h
2084 28-06-2020 05:35:00 19.2 C 14.68 g/m*3 19.2 C 0 km/h
2085 28-06-2020 05:40:00 19.1 C 14.59 g/m*3 19.1 C 1.6 km/h
2086 28-06-2020 05:45:00 19.1 C 14.43 g/m*3 19.1 C 3.2 km/h
2087 28-06-2020 05:50:00 19.1 C 14.43 g/m*3 19.1 C 1.6 km/h
2088 28-06-2020 05:55:00 19.1 C 14.26 g/m*3 19.1 C 0 km/h
2089 28-06-2020 06:00:00 19.1 C 14.26 g/m*3 19.1 C 3.2 km/h
2090 28-06-2020 06:05:00 19.1 C 14.26 g/m*3 19.1 C 1.6 km/h
2091 28-06-2020 06:10:00 19 C 14.01 g/m*3 19 C 8.1 km/h
2092 28-06-2020 06:15:00 19 C 14.18 g/m*3 19 C 4.8 km/h
2093 28-06-2020 06:20:00 19 C 14.01 g/m*3 19 C 4.8 km/h
2094 28-06-2020 06:25:00 19.1 C 14.1 g/m*3 19.1 C 1.6 km/h
2095 28-06-2020 06:30:00 19.1 C 14.26 g/m*3 19.1 C 1.6 km/h
2096 28-06-2020 06:35:00 19.1 C 14.1 g/m*3 19.1 C 3.2 km/h
2097 28-06-2020 06:40:00 19.2 C 14.18 g/m*3 19.2 C 1.6 km/h
2098 28-06-2020 06:45:00 19.3 C 14.1 g/m*3 19.3 C 3.2 km/h
2099 28-06-2020 06:50:00 19.3 C 14.1 g/m*3 19.3 C 1.6 km/h
2100 28-06-2020 06:55:00 19.4 C 14.18 g/m*3 19.4 C 3.2 km/h
Sensor: Nr:Datum:Temp:Abs-Feuchte:Windchill:Wind:
Aussen-T/F 2101 28-06-2020 07:00:00 19.5 C 14.1 g/m*3 19.5 C 0 km/h
2102 28-06-2020 07:05:00 19.6 C 14.18 g/m*3 19.6 C 0 km/h
2103 28-06-2020 07:10:00 19.7 C 14.09 g/m*3 19.7 C 8.1 km/h
2104 28-06-2020 07:15:00 19.7 C 14.09 g/m*3 19.7 C 6.4 km/h
2105 28-06-2020 07:20:00 19.8 C 14.01 g/m*3 19.8 C 4.8 km/h
2106 28-06-2020 07:25:00 19.8 C 14.01 g/m*3 19.8 C 6.4 km/h
2107 28-06-2020 07:30:00 19.9 C 13.57 g/m*3 19.9 C 8.1 km/h
2108 28-06-2020 07:35:00 20.1 C 13.56 g/m*3 20.1 C 12.9 km/h
2109 28-06-2020 07:40:00 20.2 C 13.64 g/m*3 20.2 C 12.9 km/h
2110 28-06-2020 07:45:00 20.3 C 13.54 g/m*3 20.3 C 12.9 km/h
2111 28-06-2020 07:50:00 20.3 C 13.54 g/m*3 20.3 C 9.7 km/h
2112 28-06-2020 07:55:00 20.4 C 13.62 g/m*3 20.4 C 6.4 km/h
2113 28-06-2020 08:00:00 20.5 C 13.52 g/m*3 20.5 C 12.9 km/h
2114 28-06-2020 08:05:00 20.6 C 13.6 g/m*3 20.6 C 14.5 km/h
2115 28-06-2020 08:10:00 20.6 C 13.78 g/m*3 20.6 C 8.1 km/h
2116 28-06-2020 08:15:00 20.7 C 13.5 g/m*3 20.7 C 14.5 km/h
2117 28-06-2020 08:20:00 20.7 C 13.5 g/m*3 20.7 C 16.1 km/h
2118 28-06-2020 08:25:00 20.7 C 13.5 g/m*3 20.7 C 12.9 km/h
2119 28-06-2020 08:30:00 20.6 C 13.42 g/m*3 20.6 C 11.3 km/h
2120 28-06-2020 08:35:00 20.5 C 13.52 g/m*3 20.5 C 17.7 km/h
2121 28-06-2020 08:40:00 20.6 C 13.6 g/m*3 20.6 C 14.5 km/h
2122 28-06-2020 08:45:00 20.8 C 13.58 g/m*3 20.8 C 11.3 km/h
2123 28-06-2020 08:50:00 20.8 C 13.4 g/m*3 20.8 C 12.9 km/h
2124 28-06-2020 08:55:00 20.8 C 13.22 g/m*3 20.8 C 11.3 km/h
2125 28-06-2020 09:00:00 20.7 C 13.14 g/m*3 20.7 C 17.7 km/h
Sensor: Nr:Datum:Temp:Abs-Feuchte:Windchill:Wind:
Aussen-T/F 2126 28-06-2020 09:05:00 20.6 C 13.24 g/m*3 20.6 C 12.9 km/h
2127 28-06-2020 09:10:00 20.5 C 12.63 g/m*3 20.5 C 16.1 km/h
2128 28-06-2020 09:15:00 20.4 C 12.56 g/m*3 20.4 C 8.1 km/h
2129 28-06-2020 09:20:00 20.3 C 12.14 g/m*3 20.3 C 14.5 km/h
2130 28-06-2020 09:25:00 20.3 C 12.14 g/m*3 20.3 C 12.9 km/h
2131 28-06-2020 09:30:00 20.3 C 11.96 g/m*3 20.3 C 19.3 km/h
2132 28-06-2020 09:35:00 20.2 C 11.89 g/m*3 20.2 C 19.3 km/h
2133 28-06-2020 09:40:00 20 C 11.58 g/m*3 20 C 11.3 km/h
2134 28-06-2020 09:45:00 19.8 C 11.61 g/m*3 19.8 C 9.7 km/h
2135 28-06-2020 09:50:00 19.8 C 11.44 g/m*3 19.8 C 8.1 km/h
2136 28-06-2020 09:55:00 19.8 C 11.61 g/m*3 19.8 C 11.3 km/h
2137 28-06-2020 10:00:00 19.8 C 11.44 g/m*3 19.8 C 16.1 km/h
2138 28-06-2020 10:05:00 19.8 C 11.27 g/m*3 19.8 C 14.5 km/h
2139 28-06-2020 10:10:00 19.8 C 11.44 g/m*3 19.8 C 12.9 km/h
2140 28-06-2020 10:15:00 19.8 C 11.44 g/m*3 19.8 C 16.1 km/h
2141 28-06-2020 10:20:00 19.9 C 11.68 g/m*3 19.9 C 17.7 km/h
2142 28-06-2020 10:25:00 20.1 C 11.65 g/m*3 20.1 C 16.1 km/h
2143 28-06-2020 10:30:00 20.1 C 11.65 g/m*3 20.1 C 11.3 km/h
2144 28-06-2020 10:35:00 20.1 C 11.47 g/m*3 20.1 C 16.1 km/h
2145 28-06-2020 10:40:00 19.9 C 11.68 g/m*3 19.9 C 11.3 km/h
2146 28-06-2020 10:45:00 19.8 C 11.44 g/m*3 19.8 C 12.9 km/h
2147 28-06-2020 10:50:00 19.8 C 11.61 g/m*3 19.8 C 12.9 km/h
2148 28-06-2020 10:55:00 19.9 C 11.68 g/m*3 19.9 C 9.7 km/h
2149 28-06-2020 11:00:00 20.1 C 11.82 g/m*3 20.1 C 4.8 km/h
2150 28-06-2020 11:05:00 20.3 C 11.96 g/m*3 20.3 C 8.1 km/h
Sensor: Nr:Datum:Temp:Abs-Feuchte:Windchill:Wind:
Aussen-T/F 2151 28-06-2020 11:10:00 20.3 C 11.78 g/m*3 20.3 C 9.7 km/h
2152 28-06-2020 11:15:00 20.4 C 11.85 g/m*3 20.4 C 9.7 km/h
2153 28-06-2020 11:20:00 20.4 C 12.03 g/m*3 20.4 C 6.4 km/h
2154 28-06-2020 11:25:00 20.5 C 12.28 g/m*3 20.5 C 4.8 km/h
2155 28-06-2020 11:30:00 20.6 C 11.81 g/m*3 20.6 C 11.3 km/h
2156 28-06-2020 11:35:00 20.6 C 11.81 g/m*3 20.6 C 6.4 km/h
2157 28-06-2020 11:40:00 20.6 C 11.99 g/m*3 20.6 C 14.5 km/h
2158 28-06-2020 11:45:00 20.4 C 11.5 g/m*3 20.4 C 9.7 km/h
2159 28-06-2020 11:50:00 20.4 C 11.5 g/m*3 20.4 C 8.1 km/h
2160 28-06-2020 11:55:00 20.5 C 11.39 g/m*3 20.5 C 9.7 km/h
2161 28-06-2020 12:00:00 20.7 C 11.34 g/m*3 20.7 C 9.7 km/h
2162 28-06-2020 12:05:00 20.8 C 11.41 g/m*3 20.8 C 11.3 km/h
2163 28-06-2020 12:10:00 20.8 C 11.41 g/m*3 20.8 C 8.1 km/h
2164 28-06-2020 12:15:00 20.8 C 11.23 g/m*3 20.8 C 8.1 km/h
2165 28-06-2020 12:20:00 20.7 C 10.98 g/m*3 20.7 C 11.3 km/h
2166 28-06-2020 12:25:00 20.5 C 11.03 g/m*3 20.5 C 9.7 km/h
2167 28-06-2020 12:30:00 20.4 C 10.97 g/m*3 20.4 C 6.4 km/h
2168 28-06-2020 12:35:00 20.4 C 11.14 g/m*3 20.4 C 8.1 km/h
2169 28-06-2020 12:40:00 20.4 C 11.32 g/m*3 20.4 C 9.7 km/h
2170 28-06-2020 12:45:00 20.4 C 11.14 g/m*3 20.4 C 9.7 km/h
2171 28-06-2020 12:50:00 20.4 C 11.14 g/m*3 20.4 C 8.1 km/h
2172 28-06-2020 12:55:00 20.5 C 11.21 g/m*3 20.5 C 9.7 km/h
2173 28-06-2020 13:00:00 20.8 C 11.23 g/m*3 20.8 C 9.7 km/h
2174 28-06-2020 13:05:00 21.3 C 11 g/m*3 21.3 C 11.3 km/h
2175 28-06-2020 13:10:00 21.7 C 10.87 g/m*3 21.7 C 16.1 km/h
Sensor: Nr:Datum:Temp:Abs-Feuchte:Windchill:Wind:
Aussen-T/F 2176 28-06-2020 13:15:00 21.8 C 10.74 g/m*3 21.8 C 11.3 km/h
2177 28-06-2020 13:20:00 21.9 C 11.19 g/m*3 21.9 C 16.1 km/h
2178 28-06-2020 13:25:00 22.1 C 10.93 g/m*3 22.1 C 17.7 km/h
2179 28-06-2020 13:30:00 22 C 11.06 g/m*3 22 C 12.9 km/h
2180 28-06-2020 13:35:00 22 C 10.67 g/m*3 22 C 11.3 km/h
2181 28-06-2020 13:40:00 22.1 C 11.13 g/m*3 22.1 C 12.9 km/h
2182 28-06-2020 13:45:00 22.1 C 10.93 g/m*3 22.1 C 11.3 km/h
2183 28-06-2020 13:50:00 22.1 C 10.93 g/m*3 22.1 C 14.5 km/h
2184 28-06-2020 13:55:00 22.1 C 10.93 g/m*3 22.1 C 9.7 km/h
2185 28-06-2020 14:00:00 22.1 C 11.52 g/m*3 22.1 C 9.7 km/h
2186 28-06-2020 14:05:00 21.6 C 11.57 g/m*3 21.6 C 11.3 km/h
2187 28-06-2020 14:10:00 21 C 11.36 g/m*3 21 C 11.3 km/h
2188 28-06-2020 14:15:00 20.7 C 11.52 g/m*3 20.7 C 9.7 km/h
2189 28-06-2020 14:20:00 20.4 C 11.32 g/m*3 20.4 C 9.7 km/h
2190 28-06-2020 14:25:00 20.1 C 11.3 g/m*3 20.1 C 11.3 km/h
2191 28-06-2020 14:30:00 19.8 C 11.44 g/m*3 19.8 C 16.1 km/h
2192 28-06-2020 14:35:00 19.6 C 11.48 g/m*3 19.6 C 4.8 km/h
2193 28-06-2020 14:40:00 19.4 C 11.35 g/m*3 19.4 C 9.7 km/h
2194 28-06-2020 14:45:00 19.4 C 11.51 g/m*3 19.4 C 4.8 km/h
2195 28-06-2020 14:50:00 19.4 C 11.51 g/m*3 19.4 C 3.2 km/h
2196 28-06-2020 14:55:00 19.4 C 11.51 g/m*3 19.4 C 3.2 km/h
2197 28-06-2020 15:00:00 19.4 C 11.51 g/m*3 19.4 C 4.8 km/h
2198 28-06-2020 15:05:00 19.3 C 11.61 g/m*3 19.3 C 8.1 km/h
2199 28-06-2020 15:10:00 19.3 C 11.61 g/m*3 19.3 C 4.8 km/h
2200 28-06-2020 15:15:00 19.2 C 11.54 g/m*3 19.2 C 3.2 km/h
Sensor: Nr:Datum:Temp:Abs-Feuchte:Windchill:Wind:
Aussen-T/F 2201 28-06-2020 15:20:00 19.2 C 11.54 g/m*3 19.2 C 6.4 km/h
2202 28-06-2020 15:25:00 19.3 C 11.61 g/m*3 19.3 C 4.8 km/h
2203 28-06-2020 15:30:00 19.4 C 11.35 g/m*3 19.4 C 11.3 km/h
2204 28-06-2020 15:35:00 19.4 C 11.35 g/m*3 19.4 C 11.3 km/h
2205 28-06-2020 15:40:00 19.6 C 11.65 g/m*3 19.6 C 4.8 km/h
2206 28-06-2020 15:45:00 19.7 C 11.55 g/m*3 19.7 C 4.8 km/h
2207 28-06-2020 15:50:00 19.8 C 11.27 g/m*3 19.8 C 6.4 km/h
2208 28-06-2020 15:55:00 19.9 C 11.51 g/m*3 19.9 C 8.1 km/h
2209 28-06-2020 16:00:00 20 C 11.58 g/m*3 20 C 6.4 km/h
2210 28-06-2020 16:05:00 20.2 C 11.54 g/m*3 20.2 C 11.3 km/h
2211 28-06-2020 16:10:00 20.3 C 11.61 g/m*3 20.3 C 9.7 km/h
2212 28-06-2020 16:15:00 20.5 C 11.39 g/m*3 20.5 C 6.4 km/h
2213 28-06-2020 16:20:00 20.6 C 11.28 g/m*3 20.6 C 14.5 km/h
2214 28-06-2020 16:25:00 20.6 C 10.92 g/m*3 20.6 C 16.1 km/h
2215 28-06-2020 16:30:00 20.6 C 10.92 g/m*3 20.6 C 14.5 km/h
2216 28-06-2020 16:35:00 20.5 C 10.85 g/m*3 20.5 C 16.1 km/h
2217 28-06-2020 16:40:00 20.5 C 11.03 g/m*3 20.5 C 12.9 km/h
2218 28-06-2020 16:45:00 20.6 C 11.1 g/m*3 20.6 C 12.9 km/h
2219 28-06-2020 16:50:00 20.6 C 11.1 g/m*3 20.6 C 12.9 km/h
2220 28-06-2020 16:55:00 20.5 C 11.21 g/m*3 20.5 C 9.7 km/h
2221 28-06-2020 17:00:00 20.6 C 11.28 g/m*3 20.6 C 8.1 km/h
2222 28-06-2020 17:05:00 20.7 C 11.52 g/m*3 20.7 C 3.2 km/h
2223 28-06-2020 17:10:00 20.8 C 11.23 g/m*3 20.8 C 8.1 km/h
2224 28-06-2020 17:15:00 20.8 C 11.41 g/m*3 20.8 C 12.9 km/h
2225 28-06-2020 17:20:00 20.8 C 11.23 g/m*3 20.8 C 4.8 km/h
Sensor: Nr:Datum:Temp:Abs-Feuchte:Windchill:Wind:
Aussen-T/F 2226 28-06-2020 17:25:00 20.8 C 11.23 g/m*3 20.8 C 4.8 km/h
2227 28-06-2020 17:30:00 20.7 C 10.98 g/m*3 20.7 C 14.5 km/h
2228 28-06-2020 17:35:00 20.6 C 11.1 g/m*3 20.6 C 11.3 km/h
2229 28-06-2020 17:40:00 20.6 C 11.1 g/m*3 20.6 C 9.7 km/h
2230 28-06-2020 17:45:00 20.7 C 11.34 g/m*3 20.7 C 6.4 km/h
2231 28-06-2020 17:50:00 20.7 C 10.98 g/m*3 20.7 C 9.7 km/h
2232 28-06-2020 17:55:00 20.8 C 11.23 g/m*3 20.8 C 6.4 km/h
2233 28-06-2020 18:00:00 20.8 C 11.05 g/m*3 20.8 C 11.3 km/h
2234 28-06-2020 18:05:00 20.7 C 10.98 g/m*3 20.7 C 6.4 km/h
2235 28-06-2020 18:10:00 20.7 C 11.16 g/m*3 20.7 C 6.4 km/h
2236 28-06-2020 18:15:00 20.7 C 11.16 g/m*3 20.7 C 6.4 km/h
2237 28-06-2020 18:20:00 20.7 C 10.98 g/m*3 20.7 C 11.3 km/h
2238 28-06-2020 18:25:00 20.8 C 11.05 g/m*3 20.8 C 8.1 km/h
2239 28-06-2020 18:30:00 20.8 C 11.05 g/m*3 20.8 C 9.7 km/h
2240 28-06-2020 18:35:00 20.9 C 11.11 g/m*3 20.9 C 8.1 km/h
2241 28-06-2020 18:40:00 21.1 C 11.42 g/m*3 21.1 C 8.1 km/h
2242 28-06-2020 18:45:00 21.1 C 11.06 g/m*3 21.1 C 8.1 km/h
2243 28-06-2020 18:50:00 21.2 C 11.3 g/m*3 21.2 C 8.1 km/h
2244 28-06-2020 18:55:00 21.2 C 11.3 g/m*3 21.2 C 11.3 km/h
2245 28-06-2020 19:00:00 21.1 C 11.06 g/m*3 21.1 C 8.1 km/h
2246 28-06-2020 19:05:00 20.9 C 11.11 g/m*3 20.9 C 6.4 km/h
2247 28-06-2020 19:10:00 20.7 C 10.98 g/m*3 20.7 C 4.8 km/h
2248 28-06-2020 19:15:00 20.6 C 11.1 g/m*3 20.6 C 9.7 km/h
2249 28-06-2020 19:20:00 20.5 C 11.21 g/m*3 20.5 C 4.8 km/h
2250 28-06-2020 19:25:00 20.4 C 10.97 g/m*3 20.4 C 6.4 km/h
Sensor: Nr:Datum:Temp:Abs-Feuchte:Windchill:Wind:
Aussen-T/F 2251 28-06-2020 19:30:00 20.3 C 11.26 g/m*3 20.3 C 1.6 km/h
2252 28-06-2020 19:35:00 20.3 C 11.08 g/m*3 20.3 C 4.8 km/h
2253 28-06-2020 19:40:00 20.2 C 11.02 g/m*3 20.2 C 8.1 km/h
2254 28-06-2020 19:45:00 20.2 C 11.19 g/m*3 20.2 C 6.4 km/h
2255 28-06-2020 19:50:00 20.2 C 11.37 g/m*3 20.2 C 4.8 km/h
2256 28-06-2020 19:55:00 20.1 C 11.13 g/m*3 20.1 C 4.8 km/h
2257 28-06-2020 20:00:00 20.1 C 11.13 g/m*3 20.1 C 6.4 km/h
2258 28-06-2020 20:05:00 20 C 11.06 g/m*3 20 C 6.4 km/h
2259 28-06-2020 20:10:00 19.9 C 11 g/m*3 19.9 C 6.4 km/h
2260 28-06-2020 20:15:00 19.9 C 11.34 g/m*3 19.9 C 8.1 km/h
2261 28-06-2020 20:20:00 19.9 C 11 g/m*3 19.9 C 6.4 km/h
2262 28-06-2020 20:25:00 20 C 11.06 g/m*3 20 C 1.6 km/h
2263 28-06-2020 20:30:00 20.3 C 11.26 g/m*3 20.3 C 8.1 km/h
2264 28-06-2020 20:35:00 20.4 C 11.5 g/m*3 20.4 C 4.8 km/h
2265 28-06-2020 20:40:00 20.4 C 11.14 g/m*3 20.4 C 11.3 km/h
2266 28-06-2020 20:45:00 20.4 C 11.14 g/m*3 20.4 C 11.3 km/h
2267 28-06-2020 20:50:00 20.4 C 11.14 g/m*3 20.4 C 4.8 km/h
2268 28-06-2020 20:55:00 20.4 C 11.32 g/m*3 20.4 C 8.1 km/h
2269 28-06-2020 21:00:00 20.3 C 11.26 g/m*3 20.3 C 3.2 km/h
2270 28-06-2020 21:05:00 20.2 C 11.19 g/m*3 20.2 C 6.4 km/h
2271 28-06-2020 21:10:00 20.1 C 11.13 g/m*3 20.1 C 8.1 km/h
2272 28-06-2020 21:15:00 19.8 C 11.1 g/m*3 19.8 C 8.1 km/h
2273 28-06-2020 21:20:00 19.7 C 11.21 g/m*3 19.7 C 9.7 km/h
2274 28-06-2020 21:25:00 19.6 C 11.31 g/m*3 19.6 C 3.2 km/h
2275 28-06-2020 21:30:00 19.4 C 11.35 g/m*3 19.4 C 4.8 km/h
Sensor: Nr:Datum:Temp:Abs-Feuchte:Windchill:Wind:
Aussen-T/F 2276 28-06-2020 21:35:00 19.2 C 11.21 g/m*3 19.2 C 3.2 km/h
2277 28-06-2020 21:40:00 19.1 C 11.31 g/m*3 19.1 C 3.2 km/h
2278 28-06-2020 21:45:00 18.8 C 11.11 g/m*3 18.8 C 3.2 km/h
2279 28-06-2020 21:50:00 18.6 C 11.14 g/m*3 18.6 C 3.2 km/h
2280 28-06-2020 21:55:00 18.4 C 11.17 g/m*3 18.4 C 4.8 km/h
2281 28-06-2020 22:00:00 18.2 C 11.19 g/m*3 18.2 C 3.2 km/h
2282 28-06-2020 22:05:00 17.9 C 10.99 g/m*3 17.9 C 4.8 km/h
2283 28-06-2020 22:10:00 17.7 C 11.01 g/m*3 17.7 C 0 km/h
2284 28-06-2020 22:15:00 17.4 C 10.82 g/m*3 17.4 C 4.8 km/h
2285 28-06-2020 22:20:00 17.3 C 10.9 g/m*3 17.3 C 1.6 km/h
2286 28-06-2020 22:25:00 17.1 C 10.92 g/m*3 17.1 C 1.6 km/h
2287 28-06-2020 22:30:00 16.8 C 10.87 g/m*3 16.8 C 0 km/h
2288 28-06-2020 22:35:00 16.7 C 10.8 g/m*3 16.7 C 0 km/h
2289 28-06-2020 22:40:00 16.4 C 10.75 g/m*3 16.4 C 6.4 km/h
2290 28-06-2020 22:45:00 16.2 C 10.76 g/m*3 16.2 C 4.8 km/h
2291 28-06-2020 22:50:00 16.1 C 10.83 g/m*3 16.1 C 6.4 km/h
2292 28-06-2020 22:55:00 15.9 C 10.83 g/m*3 15.9 C 4.8 km/h
2293 28-06-2020 23:00:00 15.8 C 10.77 g/m*3 15.8 C 4.8 km/h
2294 28-06-2020 23:05:00 15.7 C 10.7 g/m*3 15.7 C 6.4 km/h
2295 28-06-2020 23:10:00 15.7 C 10.84 g/m*3 15.7 C 3.2 km/h
2296 28-06-2020 23:15:00 15.6 C 10.77 g/m*3 15.6 C 3.2 km/h
2297 28-06-2020 23:20:00 15.5 C 10.71 g/m*3 15.5 C 3.2 km/h
2298 28-06-2020 23:25:00 15.4 C 10.77 g/m*3 15.4 C 4.8 km/h
2299 28-06-2020 23:30:00 15.3 C 10.71 g/m*3 15.3 C 4.8 km/h
2300 28-06-2020 23:35:00 15.3 C 10.71 g/m*3 15.3 C 4.8 km/h
Sensor: Nr:Datum:Temp:Abs-Feuchte:Windchill:Wind:
Aussen-T/F 2301 28-06-2020 23:40:00 15.3 C 10.84 g/m*3 15.3 C 3.2 km/h
2302 28-06-2020 23:45:00 15.2 C 10.77 g/m*3 15.2 C 3.2 km/h
2303 28-06-2020 23:50:00 15.2 C 10.77 g/m*3 15.2 C 4.8 km/h
2304 28-06-2020 23:55:00 15.1 C 10.71 g/m*3 15.1 C 4.8 km/h
2305 29-06-2020 00:00:00 15.1 C 10.84 g/m*3 15.1 C 3.2 km/h
2306 29-06-2020 00:05:00 15.1 C 10.84 g/m*3 15.1 C 3.2 km/h
2307 29-06-2020 00:10:00 15 C 10.77 g/m*3 15 C 3.2 km/h
2308 29-06-2020 00:15:00 15 C 10.77 g/m*3 15 C 6.4 km/h
2309 29-06-2020 00:20:00 15.1 C 10.84 g/m*3 15.1 C 3.2 km/h
2310 29-06-2020 00:25:00 15.1 C 10.84 g/m*3 15.1 C 3.2 km/h
2311 29-06-2020 00:30:00 15.1 C 10.84 g/m*3 15.1 C 3.2 km/h
2312 29-06-2020 00:35:00 15.1 C 10.84 g/m*3 15.1 C 6.4 km/h
2313 29-06-2020 00:40:00 15.1 C 10.84 g/m*3 15.1 C 3.2 km/h
2314 29-06-2020 00:45:00 15.1 C 10.84 g/m*3 15.1 C 3.2 km/h
2315 29-06-2020 00:50:00 15 C 10.77 g/m*3 15 C 4.8 km/h
2316 29-06-2020 00:55:00 15 C 10.9 g/m*3 15 C 3.2 km/h
2317 29-06-2020 01:00:00 15 C 10.9 g/m*3 15 C 4.8 km/h
2318 29-06-2020 01:05:00 15 C 10.9 g/m*3 15 C 3.2 km/h
2319 29-06-2020 01:10:00 15 C 10.9 g/m*3 15 C 3.2 km/h
2320 29-06-2020 01:15:00 14.9 C 10.83 g/m*3 14.9 C 0 km/h
2321 29-06-2020 01:20:00 14.9 C 10.83 g/m*3 14.9 C 0 km/h
2322 29-06-2020 01:25:00 14.8 C 10.77 g/m*3 14.8 C 0 km/h
2323 29-06-2020 01:30:00 14.8 C 10.77 g/m*3 14.8 C 0 km/h
2324 29-06-2020 01:35:00 14.7 C 10.7 g/m*3 14.7 C 0 km/h
2325 29-06-2020 01:40:00 14.5 C 10.7 g/m*3 14.5 C 0 km/h
Sensor: Nr:Datum:Temp:Abs-Feuchte:Windchill:Wind:
Aussen-T/F 2326 29-06-2020 01:45:00 14.4 C 10.63 g/m*3 14.4 C 0 km/h
2327 29-06-2020 01:50:00 14.2 C 10.5 g/m*3 14.2 C 0 km/h
2328 29-06-2020 01:55:00 14.2 C 10.62 g/m*3 14.2 C 1.6 km/h
2329 29-06-2020 02:00:00 14.1 C 10.56 g/m*3 14.1 C 1.6 km/h
2330 29-06-2020 02:05:00 13.9 C 10.55 g/m*3 13.9 C 4.8 km/h
2331 29-06-2020 02:10:00 13.9 C 10.55 g/m*3 13.9 C 3.2 km/h
2332 29-06-2020 02:15:00 13.9 C 10.55 g/m*3 13.9 C 1.6 km/h
2333 29-06-2020 02:20:00 13.8 C 10.6 g/m*3 13.8 C 1.6 km/h
2334 29-06-2020 02:25:00 13.8 C 10.6 g/m*3 13.8 C 4.8 km/h
2335 29-06-2020 02:30:00 13.8 C 10.6 g/m*3 13.8 C 1.6 km/h
2336 29-06-2020 02:35:00 13.8 C 10.6 g/m*3 13.8 C 0 km/h
2337 29-06-2020 02:40:00 13.8 C 10.72 g/m*3 13.8 C 0 km/h
2338 29-06-2020 02:45:00 13.8 C 10.72 g/m*3 13.8 C 0 km/h
2339 29-06-2020 02:50:00 13.8 C 10.72 g/m*3 13.8 C 0 km/h
2340 29-06-2020 02:55:00 13.8 C 10.72 g/m*3 13.8 C 0 km/h
2341 29-06-2020 03:00:00 13.8 C 10.72 g/m*3 13.8 C 0 km/h
2342 29-06-2020 03:05:00 13.8 C 10.72 g/m*3 13.8 C 0 km/h
2343 29-06-2020 03:10:00 13.9 C 10.79 g/m*3 13.9 C 3.2 km/h
2344 29-06-2020 03:15:00 13.9 C 10.79 g/m*3 13.9 C 4.8 km/h
2345 29-06-2020 03:20:00 13.9 C 10.91 g/m*3 13.9 C 4.8 km/h
2346 29-06-2020 03:25:00 14.1 C 11.04 g/m*3 14.1 C 1.6 km/h
2347 29-06-2020 03:30:00 14.1 C 11.04 g/m*3 14.1 C 1.6 km/h
2348 29-06-2020 03:35:00 14.1 C 10.92 g/m*3 14.1 C 0 km/h
2349 29-06-2020 03:40:00 14.1 C 10.92 g/m*3 14.1 C 0 km/h
2350 29-06-2020 03:45:00 14.1 C 10.92 g/m*3 14.1 C 0 km/h
Sensor: Nr:Datum:Temp:Abs-Feuchte:Windchill:Wind:
Aussen-T/F 2351 29-06-2020 03:50:00 13.9 C 10.79 g/m*3 13.9 C 0 km/h
2352 29-06-2020 03:55:00 13.9 C 10.79 g/m*3 13.9 C 1.6 km/h
2353 29-06-2020 04:00:00 13.8 C 10.72 g/m*3 13.8 C 0 km/h
2354 29-06-2020 04:05:00 13.8 C 10.84 g/m*3 13.8 C 3.2 km/h
2355 29-06-2020 04:10:00 13.9 C 10.91 g/m*3 13.9 C 0 km/h
2356 29-06-2020 04:15:00 14 C 10.98 g/m*3 14 C 0 km/h
2357 29-06-2020 04:20:00 14.1 C 11.04 g/m*3 14.1 C 0 km/h
2358 29-06-2020 04:25:00 14.1 C 11.17 g/m*3 14.1 C 0 km/h
2359 29-06-2020 04:30:00 14.2 C 11.11 g/m*3 14.2 C 0 km/h
2360 29-06-2020 04:35:00 14.2 C 11.11 g/m*3 14.2 C 1.6 km/h
2361 29-06-2020 04:40:00 14.2 C 11.11 g/m*3 14.2 C 1.6 km/h
2362 29-06-2020 04:45:00 14.3 C 11.18 g/m*3 14.3 C 0 km/h
2363 29-06-2020 04:50:00 14.3 C 11.18 g/m*3 14.3 C 0 km/h
2364 29-06-2020 04:55:00 14.3 C 11.18 g/m*3 14.3 C 3.2 km/h
2365 29-06-2020 05:00:00 14.4 C 11.25 g/m*3 14.4 C 3.2 km/h
2366 29-06-2020 05:05:00 14.5 C 11.32 g/m*3 14.5 C 4.8 km/h
2367 29-06-2020 05:10:00 14.6 C 11.39 g/m*3 14.6 C 3.2 km/h
2368 29-06-2020 05:15:00 14.7 C 11.33 g/m*3 14.7 C 4.8 km/h
2369 29-06-2020 05:20:00 14.8 C 11.27 g/m*3 14.8 C 1.6 km/h
2370 29-06-2020 05:25:00 14.9 C 11.34 g/m*3 14.9 C 4.8 km/h
2371 29-06-2020 05:30:00 15.1 C 11.35 g/m*3 15.1 C 1.6 km/h
2372 29-06-2020 05:35:00 15.1 C 11.35 g/m*3 15.1 C 3.2 km/h
2373 29-06-2020 05:40:00 15.2 C 11.42 g/m*3 15.2 C 1.6 km/h
2374 29-06-2020 05:45:00 15.2 C 11.42 g/m*3 15.2 C 4.8 km/h
2375 29-06-2020 05:50:00 15.2 C 11.29 g/m*3 15.2 C 1.6 km/h
Sensor: Nr:Datum:Temp:Abs-Feuchte:Windchill:Wind:
Aussen-T/F 2376 29-06-2020 05:55:00 15.2 C 11.29 g/m*3 15.2 C 3.2 km/h
2377 29-06-2020 06:00:00 15.2 C 11.29 g/m*3 15.2 C 3.2 km/h
2378 29-06-2020 06:05:00 15.3 C 11.36 g/m*3 15.3 C 4.8 km/h
2379 29-06-2020 06:10:00 15.3 C 11.36 g/m*3 15.3 C 1.6 km/h
2380 29-06-2020 06:15:00 15.2 C 11.29 g/m*3 15.2 C 4.8 km/h
2381 29-06-2020 06:20:00 15.3 C 11.36 g/m*3 15.3 C 4.8 km/h
2382 29-06-2020 06:25:00 15.3 C 11.36 g/m*3 15.3 C 1.6 km/h
2383 29-06-2020 06:30:00 15.4 C 11.43 g/m*3 15.4 C 3.2 km/h
2384 29-06-2020 06:35:00 15.4 C 11.43 g/m*3 15.4 C 4.8 km/h
2385 29-06-2020 06:40:00 15.5 C 11.5 g/m*3 15.5 C 3.2 km/h
2386 29-06-2020 06:45:00 15.6 C 11.44 g/m*3 15.6 C 6.4 km/h
2387 29-06-2020 06:50:00 15.7 C 11.51 g/m*3 15.7 C 8.1 km/h
2388 29-06-2020 06:55:00 15.8 C 11.58 g/m*3 15.8 C 3.2 km/h
2389 29-06-2020 07:00:00 15.8 C 11.58 g/m*3 15.8 C 0 km/h
2390 29-06-2020 07:05:00 15.9 C 11.65 g/m*3 15.9 C 0 km/h
2391 29-06-2020 07:10:00 16 C 11.72 g/m*3 16 C 1.6 km/h
2392 29-06-2020 07:15:00 16.1 C 11.65 g/m*3 16.1 C 3.2 km/h
2393 29-06-2020 07:20:00 16.2 C 11.72 g/m*3 16.2 C 1.6 km/h
2394 29-06-2020 07:25:00 16.3 C 11.65 g/m*3 16.3 C 0 km/h
2395 29-06-2020 07:30:00 16.4 C 11.72 g/m*3 16.4 C 1.6 km/h
2396 29-06-2020 07:35:00 16.5 C 11.8 g/m*3 16.5 C 1.6 km/h
2397 29-06-2020 07:40:00 16.6 C 11.87 g/m*3 16.6 C 1.6 km/h
2398 29-06-2020 07:45:00 16.8 C 11.87 g/m*3 16.8 C 3.2 km/h
2399 29-06-2020 07:50:00 16.9 C 11.94 g/m*3 16.9 C 1.6 km/h
2400 29-06-2020 07:55:00 17.1 C 11.94 g/m*3 17.1 C 4.8 km/h
Sensor: Nr:Datum:Temp:Abs-Feuchte:Windchill:Wind:
Aussen-T/F 2401 29-06-2020 08:00:00 17.2 C 12.01 g/m*3 17.2 C 6.4 km/h
2402 29-06-2020 08:05:00 17.2 C 11.86 g/m*3 17.2 C 8.1 km/h
2403 29-06-2020 08:10:00 17.2 C 11.86 g/m*3 17.2 C 4.8 km/h
2404 29-06-2020 08:15:00 17.2 C 11.86 g/m*3 17.2 C 4.8 km/h
2405 29-06-2020 08:20:00 17.2 C 11.86 g/m*3 17.2 C 4.8 km/h
2406 29-06-2020 08:25:00 17.1 C 11.94 g/m*3 17.1 C 6.4 km/h
2407 29-06-2020 08:30:00 17.1 C 11.94 g/m*3 17.1 C 8.1 km/h
2408 29-06-2020 08:35:00 17 C 11.87 g/m*3 17 C 12.9 km/h
2409 29-06-2020 08:40:00 16.5 C 9.83 g/m*3 16.5 C 22.5 km/h
2410 29-06-2020 08:45:00 15.9 C 9.62 g/m*3 15.9 C 12.9 km/h
2411 29-06-2020 08:50:00 14.8 C 9.75 g/m*3 14.8 C 20.9 km/h
2412 29-06-2020 08:55:00 13.8 C 9.77 g/m*3 13.8 C 12.9 km/h
2413 29-06-2020 09:00:00 13.3 C 9.82 g/m*3 13.3 C 8.1 km/h
2414 29-06-2020 09:05:00 13.1 C 10.04 g/m*3 13.1 C 6.4 km/h
2415 29-06-2020 09:10:00 12.8 C 9.97 g/m*3 12.8 C 12.9 km/h
2416 29-06-2020 09:15:00 12.6 C 9.85 g/m*3 12.6 C 11.3 km/h
2417 29-06-2020 09:20:00 12.4 C 9.94 g/m*3 12.4 C 6.4 km/h
2418 29-06-2020 09:25:00 12.4 C 10.05 g/m*3 12.4 C 9.7 km/h
2419 29-06-2020 09:30:00 12.4 C 10.05 g/m*3 12.4 C 4.8 km/h
2420 29-06-2020 09:35:00 12.3 C 9.99 g/m*3 12.3 C 6.4 km/h
2421 29-06-2020 09:40:00 12.3 C 9.99 g/m*3 12.3 C 9.7 km/h
2422 29-06-2020 09:45:00 12.2 C 10.04 g/m*3 12.2 C 4.8 km/h
2423 29-06-2020 09:50:00 12.2 C 10.04 g/m*3 12.2 C 4.8 km/h
2424 29-06-2020 09:55:00 12.2 C 10.04 g/m*3 12.2 C 3.2 km/h
2425 29-06-2020 10:00:00 12.2 C 10.04 g/m*3 12.2 C 6.4 km/h
Sensor: Nr:Datum:Temp:Abs-Feuchte:Windchill:Wind:
Aussen-T/F 2426 29-06-2020 10:05:00 12.3 C 10.21 g/m*3 12.3 C 4.8 km/h
2427 29-06-2020 10:10:00 12.4 C 10.27 g/m*3 12.4 C 0 km/h
2428 29-06-2020 10:15:00 12.6 C 10.4 g/m*3 12.6 C 0 km/h
2429 29-06-2020 10:20:00 12.9 C 10.71 g/m*3 12.9 C 1.6 km/h
2430 29-06-2020 10:25:00 13.2 C 10.91 g/m*3 13.2 C 3.2 km/h
2431 29-06-2020 10:30:00 13.4 C 10.93 g/m*3 13.4 C 0 km/h
2432 29-06-2020 10:35:00 13.7 C 11.25 g/m*3 13.7 C 0 km/h
2433 29-06-2020 10:40:00 13.8 C 11.08 g/m*3 13.8 C 1.6 km/h
2434 29-06-2020 10:45:00 14 C 11.22 g/m*3 14 C 3.2 km/h
2435 29-06-2020 10:50:00 14.2 C 11.23 g/m*3 14.2 C 6.4 km/h
2436 29-06-2020 10:55:00 14.4 C 11.25 g/m*3 14.4 C 6.4 km/h
2437 29-06-2020 11:00:00 14.6 C 11.26 g/m*3 14.6 C 6.4 km/h
2438 29-06-2020 11:05:00 14.8 C 11.4 g/m*3 14.8 C 4.8 km/h
2439 29-06-2020 11:10:00 15 C 11.41 g/m*3 15 C 4.8 km/h
2440 29-06-2020 11:15:00 15.2 C 11.42 g/m*3 15.2 C 4.8 km/h
2441 29-06-2020 11:20:00 15.5 C 11.5 g/m*3 15.5 C 8.1 km/h
2442 29-06-2020 11:25:00 15.7 C 11.51 g/m*3 15.7 C 6.4 km/h
2443 29-06-2020 11:30:00 15.8 C 11.58 g/m*3 15.8 C 4.8 km/h
2444 29-06-2020 11:35:00 16.1 C 11.79 g/m*3 16.1 C 8.1 km/h
2445 29-06-2020 11:40:00 16.3 C 11.79 g/m*3 16.3 C 6.4 km/h
2446 29-06-2020 11:45:00 16.6 C 11.87 g/m*3 16.6 C 9.7 km/h
2447 29-06-2020 11:50:00 16.7 C 11.8 g/m*3 16.7 C 8.1 km/h
2448 29-06-2020 11:55:00 16.9 C 11.94 g/m*3 16.9 C 4.8 km/h
2449 29-06-2020 12:00:00 17.2 C 12.15 g/m*3 17.2 C 8.1 km/h
2450 29-06-2020 12:05:00 17.3 C 11.93 g/m*3 17.3 C 4.8 km/h
Sensor: Nr:Datum:Temp:Abs-Feuchte:Windchill:Wind:
Aussen-T/F 2451 29-06-2020 12:10:00 17.2 C 11.57 g/m*3 17.2 C 8.1 km/h
2452 29-06-2020 12:15:00 17.2 C 11.72 g/m*3 17.2 C 8.1 km/h
2453 29-06-2020 12:20:00 17.2 C 11.86 g/m*3 17.2 C 8.1 km/h
2454 29-06-2020 12:25:00 17.4 C 11.86 g/m*3 17.4 C 8.1 km/h
2455 29-06-2020 12:30:00 17.7 C 11.62 g/m*3 17.7 C 8.1 km/h
2456 29-06-2020 12:35:00 17.8 C 11.84 g/m*3 17.8 C 8.1 km/h
2457 29-06-2020 12:40:00 17.9 C 11.91 g/m*3 17.9 C 9.7 km/h
2458 29-06-2020 12:45:00 18.1 C 11.9 g/m*3 18.1 C 12.9 km/h
2459 29-06-2020 12:50:00 18.3 C 11.88 g/m*3 18.3 C 11.3 km/h
2460 29-06-2020 12:55:00 18.6 C 12.1 g/m*3 18.6 C 6.4 km/h
2461 29-06-2020 13:00:00 18.9 C 12.15 g/m*3 18.9 C 11.3 km/h
2462 29-06-2020 13:05:00 19.2 C 11.87 g/m*3 19.2 C 16.1 km/h
2463 29-06-2020 13:10:00 19.4 C 12.01 g/m*3 19.4 C 12.9 km/h
2464 29-06-2020 13:15:00 19.7 C 12.06 g/m*3 19.7 C 12.9 km/h
2465 29-06-2020 13:20:00 19.9 C 11.68 g/m*3 19.9 C 11.3 km/h
2466 29-06-2020 13:25:00 20.1 C 11.99 g/m*3 20.1 C 9.7 km/h
2467 29-06-2020 13:30:00 20.2 C 11.89 g/m*3 20.2 C 12.9 km/h
2468 29-06-2020 13:35:00 20.3 C 12.14 g/m*3 20.3 C 11.3 km/h
2469 29-06-2020 13:40:00 20.4 C 12.03 g/m*3 20.4 C 16.1 km/h
2470 29-06-2020 13:45:00 20.5 C 12.28 g/m*3 20.5 C 22.5 km/h
2471 29-06-2020 13:50:00 20.7 C 12.06 g/m*3 20.7 C 11.3 km/h
2472 29-06-2020 13:55:00 20.8 C 12.13 g/m*3 20.8 C 12.9 km/h
2473 29-06-2020 14:00:00 20.9 C 12.02 g/m*3 20.9 C 11.3 km/h
2474 29-06-2020 14:05:00 21.1 C 12.16 g/m*3 21.1 C 17.7 km/h
2475 29-06-2020 14:10:00 21 C 11.54 g/m*3 21 C 16.1 km/h
Sensor: Nr:Datum:Temp:Abs-Feuchte:Windchill:Wind:
Aussen-T/F 2476 29-06-2020 14:15:00 20.9 C 11.47 g/m*3 20.9 C 14.5 km/h
2477 29-06-2020 14:20:00 21.1 C 11.06 g/m*3 21.1 C 12.9 km/h
2478 29-06-2020 14:25:00 21.2 C 11.3 g/m*3 21.2 C 17.7 km/h
2479 29-06-2020 14:30:00 21.4 C 10.87 g/m*3 21.4 C 17.7 km/h
2480 29-06-2020 14:35:00 21.7 C 11.83 g/m*3 21.7 C 19.3 km/h
2481 29-06-2020 14:40:00 21.8 C 11.9 g/m*3 21.8 C 20.9 km/h
2482 29-06-2020 14:45:00 21.8 C 11.51 g/m*3 21.8 C 16.1 km/h
2483 29-06-2020 14:50:00 22.1 C 11.71 g/m*3 22.1 C 11.3 km/h
2484 29-06-2020 14:55:00 22.3 C 11.26 g/m*3 22.3 C 16.1 km/h
2485 29-06-2020 15:00:00 22.2 C 10.8 g/m*3 22.2 C 14.5 km/h
2486 29-06-2020 15:05:00 22.2 C 10.21 g/m*3 22.2 C 17.7 km/h
2487 29-06-2020 15:10:00 22.4 C 10.33 g/m*3 22.4 C 19.3 km/h
2488 29-06-2020 15:15:00 22.8 C 9.55 g/m*3 22.8 C 19.3 km/h
2489 29-06-2020 15:20:00 22.8 C 9.75 g/m*3 22.8 C 19.3 km/h
2490 29-06-2020 15:25:00 22.6 C 9.64 g/m*3 22.6 C 20.9 km/h
2491 29-06-2020 15:30:00 22.3 C 9.48 g/m*3 22.3 C 17.7 km/h
2492 29-06-2020 15:35:00 22.7 C 9.9 g/m*3 22.7 C 17.7 km/h
2493 29-06-2020 15:40:00 23.1 C 9.72 g/m*3 23.1 C 20.9 km/h
2494 29-06-2020 15:45:00 23.4 C 9.46 g/m*3 23.4 C 17.7 km/h
2495 29-06-2020 15:50:00 23.4 C 9.25 g/m*3 23.4 C 19.3 km/h
2496 29-06-2020 15:55:00 23 C 9.25 g/m*3 23 C 16.1 km/h
2497 29-06-2020 16:00:00 23.3 C 9.41 g/m*3 23.3 C 22.5 km/h
2498 29-06-2020 16:05:00 23.7 C 10.05 g/m*3 23.7 C 16.1 km/h
2499 29-06-2020 16:10:00 23.9 C 9.52 g/m*3 23.9 C 12.9 km/h
2500 29-06-2020 16:15:00 23.7 C 9.41 g/m*3 23.7 C 11.3 km/h
Sensor: Nr:Datum:Temp:Abs-Feuchte:Windchill:Wind:
Aussen-T/F 2501 29-06-2020 16:20:00 23.6 C 9.57 g/m*3 23.6 C 16.1 km/h
2502 29-06-2020 16:25:00 23.2 C 9.98 g/m*3 23.2 C 19.3 km/h
2503 29-06-2020 16:30:00 23.6 C 9.78 g/m*3 23.6 C 20.9 km/h
2504 29-06-2020 16:35:00 24.1 C 9.41 g/m*3 24.1 C 19.3 km/h
2505 29-06-2020 16:40:00 24.2 C 9.46 g/m*3 24.2 C 17.7 km/h
2506 29-06-2020 16:45:00 24.2 C 9.46 g/m*3 24.2 C 12.9 km/h
2507 29-06-2020 16:50:00 24.4 C 9.79 g/m*3 24.4 C 19.3 km/h
2508 29-06-2020 16:55:00 24.2 C 9.46 g/m*3 24.2 C 16.1 km/h
2509 29-06-2020 17:00:00 23.8 C 10.33 g/m*3 23.8 C 11.3 km/h
2510 29-06-2020 17:05:00 24 C 10.23 g/m*3 24 C 12.9 km/h
2511 29-06-2020 17:10:00 23.8 C 10.11 g/m*3 23.8 C 11.3 km/h
2512 29-06-2020 17:15:00 23.7 C 9.63 g/m*3 23.7 C 12.9 km/h
2513 29-06-2020 17:20:00 23.9 C 9.74 g/m*3 23.9 C 17.7 km/h
2514 29-06-2020 17:25:00 24.2 C 9.9 g/m*3 24.2 C 19.3 km/h
2515 29-06-2020 17:30:00 24.3 C 9.74 g/m*3 24.3 C 19.3 km/h
2516 29-06-2020 17:35:00 24.5 C 9.62 g/m*3 24.5 C 17.7 km/h
2517 29-06-2020 17:40:00 24.3 C 9.52 g/m*3 24.3 C 17.7 km/h
2518 29-06-2020 17:45:00 23.8 C 9.46 g/m*3 23.8 C 14.5 km/h
2519 29-06-2020 17:50:00 23.8 C 9.25 g/m*3 23.8 C 12.9 km/h
2520 29-06-2020 17:55:00 24.2 C 9.46 g/m*3 24.2 C 11.3 km/h
2521 29-06-2020 18:00:00 23.7 C 8.98 g/m*3 23.7 C 8.1 km/h
2522 29-06-2020 18:05:00 23.3 C 9.62 g/m*3 23.3 C 8.1 km/h
2523 29-06-2020 18:10:00 23.7 C 9.41 g/m*3 23.7 C 17.7 km/h
2524 29-06-2020 18:15:00 23.6 C 9.15 g/m*3 23.6 C 16.1 km/h
2525 29-06-2020 18:20:00 23.2 C 9.15 g/m*3 23.2 C 14.5 km/h
Sensor: Nr:Datum:Temp:Abs-Feuchte:Windchill:Wind:
Aussen-T/F 2526 29-06-2020 18:25:00 23.2 C 9.36 g/m*3 23.2 C 14.5 km/h
2527 29-06-2020 18:30:00 22.9 C 9.4 g/m*3 22.9 C 11.3 km/h
2528 29-06-2020 18:35:00 23.1 C 9.1 g/m*3 23.1 C 12.9 km/h
2529 29-06-2020 18:40:00 23.4 C 9.46 g/m*3 23.4 C 16.1 km/h
2530 29-06-2020 18:45:00 23.8 C 8.82 g/m*3 23.8 C 14.5 km/h
2531 29-06-2020 18:50:00 23.6 C 9.15 g/m*3 23.6 C 14.5 km/h
2532 29-06-2020 18:55:00 22.9 C 9.2 g/m*3 22.9 C 14.5 km/h
2533 29-06-2020 19:00:00 22.7 C 9.29 g/m*3 22.7 C 12.9 km/h
2534 29-06-2020 19:05:00 23 C 9.45 g/m*3 23 C 16.1 km/h
2535 29-06-2020 19:10:00 22.8 C 9.35 g/m*3 22.8 C 6.4 km/h
2536 29-06-2020 19:15:00 22.7 C 9.09 g/m*3 22.7 C 9.7 km/h
2537 29-06-2020 19:20:00 22.6 C 9.44 g/m*3 22.6 C 11.3 km/h
2538 29-06-2020 19:25:00 22.4 C 8.74 g/m*3 22.4 C 17.7 km/h
2539 29-06-2020 19:30:00 22.1 C 8.78 g/m*3 22.1 C 11.3 km/h
2540 29-06-2020 19:35:00 21.7 C 8.58 g/m*3 21.7 C 17.7 km/h
2541 29-06-2020 19:40:00 21.4 C 8.62 g/m*3 21.4 C 8.1 km/h
2542 29-06-2020 19:45:00 21.3 C 9.13 g/m*3 21.3 C 14.5 km/h
2543 29-06-2020 19:50:00 21.5 C 8.86 g/m*3 21.5 C 16.1 km/h
2544 29-06-2020 19:55:00 21.6 C 8.53 g/m*3 21.6 C 16.1 km/h
2545 29-06-2020 20:00:00 21.3 C 8.39 g/m*3 21.3 C 9.7 km/h
2546 29-06-2020 20:05:00 20.9 C 8.74 g/m*3 20.9 C 8.1 km/h
2547 29-06-2020 20:10:00 20.7 C 8.82 g/m*3 20.7 C 9.7 km/h
2548 29-06-2020 20:15:00 20.4 C 9.02 g/m*3 20.4 C 6.4 km/h
2549 29-06-2020 20:20:00 20.3 C 8.79 g/m*3 20.3 C 4.8 km/h
2550 29-06-2020 20:25:00 20.4 C 8.67 g/m*3 20.4 C 9.7 km/h
Sensor: Nr:Datum:Temp:Abs-Feuchte:Windchill:Wind:
Aussen-T/F 2551 29-06-2020 20:30:00 20.7 C 8.64 g/m*3 20.7 C 12.9 km/h
2552 29-06-2020 20:35:00 20.8 C 8.51 g/m*3 20.8 C 11.3 km/h
2553 29-06-2020 20:40:00 20.9 C 8.74 g/m*3 20.9 C 9.7 km/h
2554 29-06-2020 20:45:00 21 C 8.61 g/m*3 21 C 14.5 km/h
2555 29-06-2020 20:50:00 20.9 C 9.29 g/m*3 20.9 C 8.1 km/h
2556 29-06-2020 20:55:00 20.8 C 9.23 g/m*3 20.8 C 6.4 km/h
2557 29-06-2020 21:00:00 20.4 C 8.85 g/m*3 20.4 C 11.3 km/h
2558 29-06-2020 21:05:00 20.3 C 8.97 g/m*3 20.3 C 8.1 km/h
2559 29-06-2020 21:10:00 20.2 C 9.27 g/m*3 20.2 C 4.8 km/h
2560 29-06-2020 21:15:00 19.9 C 9.11 g/m*3 19.9 C 6.4 km/h
2561 29-06-2020 21:20:00 19.7 C 8.83 g/m*3 19.7 C 4.8 km/h
2562 29-06-2020 21:25:00 19.6 C 9.12 g/m*3 19.6 C 3.2 km/h
2563 29-06-2020 21:30:00 19.3 C 9.12 g/m*3 19.3 C 3.2 km/h
2564 29-06-2020 21:35:00 19.1 C 9.18 g/m*3 19.1 C 8.1 km/h
2565 29-06-2020 21:40:00 18.9 C 8.75 g/m*3 18.9 C 6.4 km/h
2566 29-06-2020 21:45:00 18.8 C 9.34 g/m*3 18.8 C 4.8 km/h
2567 29-06-2020 21:50:00 18.6 C 9.23 g/m*3 18.6 C 3.2 km/h
2568 29-06-2020 21:55:00 18.4 C 9.12 g/m*3 18.4 C 4.8 km/h
2569 29-06-2020 22:00:00 18.3 C 9.38 g/m*3 18.3 C 4.8 km/h
2570 29-06-2020 22:05:00 18.1 C 8.96 g/m*3 18.1 C 4.8 km/h
2571 29-06-2020 22:10:00 17.9 C 9.62 g/m*3 17.9 C 4.8 km/h
2572 29-06-2020 22:15:00 17.7 C 9.51 g/m*3 17.7 C 3.2 km/h
2573 29-06-2020 22:20:00 17.5 C 9.24 g/m*3 17.5 C 3.2 km/h
2574 29-06-2020 22:25:00 17.3 C 9.28 g/m*3 17.3 C 1.6 km/h
2575 29-06-2020 22:30:00 17.2 C 9.23 g/m*3 17.2 C 3.2 km/h
Sensor: Nr:Datum:Temp:Abs-Feuchte:Windchill:Wind:
Aussen-T/F 2576 29-06-2020 22:35:00 16.9 C 9.06 g/m*3 16.9 C 4.8 km/h
2577 29-06-2020 22:40:00 16.8 C 8.86 g/m*3 16.8 C 6.4 km/h
2578 29-06-2020 22:45:00 16.7 C 8.95 g/m*3 16.7 C 3.2 km/h
2579 29-06-2020 22:50:00 16.6 C 8.76 g/m*3 16.6 C 8.1 km/h
2580 29-06-2020 22:55:00 16.4 C 8.79 g/m*3 16.4 C 4.8 km/h
2581 29-06-2020 23:00:00 16.3 C 8.74 g/m*3 16.3 C 4.8 km/h
2582 29-06-2020 23:05:00 16.3 C 9.02 g/m*3 16.3 C 3.2 km/h
2583 29-06-2020 23:10:00 16.1 C 8.91 g/m*3 16.1 C 4.8 km/h
2584 29-06-2020 23:15:00 16 C 8.86 g/m*3 16 C 6.4 km/h
2585 29-06-2020 23:20:00 15.8 C 8.88 g/m*3 15.8 C 4.8 km/h
2586 29-06-2020 23:25:00 15.7 C 9.1 g/m*3 15.7 C 4.8 km/h
2587 29-06-2020 23:30:00 15.6 C 9.04 g/m*3 15.6 C 6.4 km/h
2588 29-06-2020 23:35:00 15.4 C 9.07 g/m*3 15.4 C 4.8 km/h
2589 29-06-2020 23:40:00 15.2 C 9.09 g/m*3 15.2 C 4.8 km/h
2590 29-06-2020 23:45:00 15.1 C 9.16 g/m*3 15.1 C 4.8 km/h
2591 29-06-2020 23:50:00 14.9 C 9.05 g/m*3 14.9 C 4.8 km/h
2592 29-06-2020 23:55:00 14.7 C 9.07 g/m*3 14.7 C 4.8 km/h
2593 30-06-2020 00:00:00 14.4 C 9.02 g/m*3 14.4 C 4.8 km/h
2594 30-06-2020 00:05:00 14.3 C 8.97 g/m*3 14.3 C 4.8 km/h
2595 30-06-2020 00:10:00 14.1 C 8.98 g/m*3 14.1 C 4.8 km/h
2596 30-06-2020 00:15:00 13.9 C 8.99 g/m*3 13.9 C 4.8 km/h
2597 30-06-2020 00:20:00 13.8 C 8.94 g/m*3 13.8 C 3.2 km/h
2598 30-06-2020 00:25:00 13.7 C 9 g/m*3 13.7 C 3.2 km/h
2599 30-06-2020 00:30:00 13.6 C 9.06 g/m*3 13.6 C 0 km/h
2600 30-06-2020 00:35:00 13.4 C 8.95 g/m*3 13.4 C 0 km/h
Sensor: Nr:Datum:Temp:Abs-Feuchte:Windchill:Wind:
Aussen-T/F 2601 30-06-2020 00:40:00 13.4 C 9.07 g/m*3 13.4 C 0 km/h
2602 30-06-2020 00:45:00 13.4 C 9.18 g/m*3 13.4 C 0 km/h
2603 30-06-2020 00:50:00 13.4 C 9.18 g/m*3 13.4 C 0 km/h
2604 30-06-2020 00:55:00 13.4 C 9.18 g/m*3 13.4 C 0 km/h
2605 30-06-2020 01:00:00 13.4 C 9.18 g/m*3 13.4 C 0 km/h
2606 30-06-2020 01:05:00 13.4 C 9.18 g/m*3 13.4 C 0 km/h
2607 30-06-2020 01:10:00 13.4 C 9.18 g/m*3 13.4 C 0 km/h
2608 30-06-2020 01:15:00 13.3 C 9.13 g/m*3 13.3 C 0 km/h
2609 30-06-2020 01:20:00 13.2 C 8.96 g/m*3 13.2 C 0 km/h
2610 30-06-2020 01:25:00 13.2 C 9.07 g/m*3 13.2 C 0 km/h
2611 30-06-2020 01:30:00 13.1 C 8.9 g/m*3 13.1 C 0 km/h
2612 30-06-2020 01:35:00 12.9 C 8.9 g/m*3 12.9 C 0 km/h
2613 30-06-2020 01:40:00 12.8 C 8.74 g/m*3 12.8 C 0 km/h
2614 30-06-2020 01:45:00 12.7 C 8.79 g/m*3 12.7 C 0 km/h
2615 30-06-2020 01:50:00 12.6 C 8.85 g/m*3 12.6 C 0 km/h
2616 30-06-2020 01:55:00 12.5 C 8.8 g/m*3 12.5 C 0 km/h
2617 30-06-2020 02:00:00 12.4 C 8.74 g/m*3 12.4 C 0 km/h
2618 30-06-2020 02:05:00 12.3 C 8.69 g/m*3 12.3 C 0 km/h
2619 30-06-2020 02:10:00 12.2 C 8.74 g/m*3 12.2 C 0 km/h
2620 30-06-2020 02:15:00 12.2 C 8.85 g/m*3 12.2 C 0 km/h
2621 30-06-2020 02:20:00 12.1 C 8.79 g/m*3 12.1 C 0 km/h
2622 30-06-2020 02:25:00 12.1 C 8.9 g/m*3 12.1 C 0 km/h
2623 30-06-2020 02:30:00 12 C 8.85 g/m*3 12 C 0 km/h
2624 30-06-2020 02:35:00 11.9 C 8.9 g/m*3 11.9 C 0 km/h
2625 30-06-2020 02:40:00 11.8 C 8.84 g/m*3 11.8 C 0 km/h
Sensor: Nr:Datum:Temp:Abs-Feuchte:Windchill:Wind:
Aussen-T/F 2626 30-06-2020 02:45:00 11.7 C 8.79 g/m*3 11.7 C 0 km/h
2627 30-06-2020 02:50:00 11.6 C 8.73 g/m*3 11.6 C 0 km/h
2628 30-06-2020 02:55:00 11.4 C 8.72 g/m*3 11.4 C 0 km/h
2629 30-06-2020 03:00:00 11.3 C 8.67 g/m*3 11.3 C 0 km/h
2630 30-06-2020 03:05:00 11.3 C 8.67 g/m*3 11.3 C 0 km/h
2631 30-06-2020 03:10:00 11.2 C 8.72 g/m*3 11.2 C 0 km/h
2632 30-06-2020 03:15:00 11.2 C 8.72 g/m*3 11.2 C 0 km/h
2633 30-06-2020 03:20:00 11.1 C 8.66 g/m*3 11.1 C 0 km/h
2634 30-06-2020 03:25:00 11.1 C 8.76 g/m*3 11.1 C 0 km/h
2635 30-06-2020 03:30:00 11 C 8.71 g/m*3 11 C 0 km/h
2636 30-06-2020 03:35:00 11 C 8.71 g/m*3 11 C 0 km/h
2637 30-06-2020 03:40:00 11 C 8.81 g/m*3 11 C 0 km/h
2638 30-06-2020 03:45:00 10.9 C 8.75 g/m*3 10.9 C 0 km/h
2639 30-06-2020 03:50:00 10.9 C 8.75 g/m*3 10.9 C 0 km/h
2640 30-06-2020 03:55:00 10.9 C 8.75 g/m*3 10.9 C 0 km/h
2641 30-06-2020 04:00:00 10.8 C 8.7 g/m*3 10.8 C 0 km/h
2642 30-06-2020 04:05:00 10.8 C 8.7 g/m*3 10.8 C 0 km/h
2643 30-06-2020 04:10:00 10.8 C 8.7 g/m*3 10.8 C 0 km/h
2644 30-06-2020 04:15:00 10.8 C 8.7 g/m*3 10.8 C 0 km/h
2645 30-06-2020 04:20:00 10.7 C 8.64 g/m*3 10.7 C 0 km/h
2646 30-06-2020 04:25:00 10.7 C 8.74 g/m*3 10.7 C 0 km/h
2647 30-06-2020 04:30:00 10.6 C 8.69 g/m*3 10.6 C 0 km/h
2648 30-06-2020 04:35:00 10.6 C 8.69 g/m*3 10.6 C 0 km/h
2649 30-06-2020 04:40:00 10.5 C 8.63 g/m*3 10.5 C 0 km/h
2650 30-06-2020 04:45:00 10.4 C 8.58 g/m*3 10.4 C 0 km/h
Sensor: Nr:Datum:Temp:Abs-Feuchte:Windchill:Wind:
Aussen-T/F 2651 30-06-2020 04:50:00 10.4 C 8.58 g/m*3 10.4 C 0 km/h
2652 30-06-2020 04:55:00 10.3 C 8.52 g/m*3 10.3 C 0 km/h
2653 30-06-2020 05:00:00 10.3 C 8.52 g/m*3 10.3 C 0 km/h
2654 30-06-2020 05:05:00 10.3 C 8.62 g/m*3 10.3 C 0 km/h
2655 30-06-2020 05:10:00 10.2 C 8.56 g/m*3 10.2 C 0 km/h
2656 30-06-2020 05:15:00 10.1 C 8.51 g/m*3 10.1 C 0 km/h
2657 30-06-2020 05:20:00 10.1 C 8.51 g/m*3 10.1 C 0 km/h
2658 30-06-2020 05:25:00 10 C 8.46 g/m*3 10 C 0 km/h
2659 30-06-2020 05:30:00 9.9 C 8.4 g/m*3 9.9 C 0 km/h
2660 30-06-2020 05:35:00 9.9 C 8.5 g/m*3 9.9 C 0 km/h
2661 30-06-2020 05:40:00 9.8 C 8.35 g/m*3 9.8 C 0 km/h
2662 30-06-2020 05:45:00 9.8 C 8.44 g/m*3 9.8 C 0 km/h
2663 30-06-2020 05:50:00 9.8 C 8.44 g/m*3 9.8 C 0 km/h
2664 30-06-2020 05:55:00 9.7 C 8.39 g/m*3 9.7 C 0 km/h
2665 30-06-2020 06:00:00 9.7 C 8.39 g/m*3 9.7 C 0 km/h
2666 30-06-2020 06:05:00 9.7 C 8.39 g/m*3 9.7 C 0 km/h
2667 30-06-2020 06:10:00 9.7 C 8.39 g/m*3 9.7 C 0 km/h
2668 30-06-2020 06:15:00 9.7 C 8.48 g/m*3 9.7 C 0 km/h
2669 30-06-2020 06:20:00 9.7 C 8.48 g/m*3 9.7 C 0 km/h
2670 30-06-2020 06:25:00 9.8 C 8.54 g/m*3 9.8 C 0 km/h
2671 30-06-2020 06:30:00 9.8 C 8.54 g/m*3 9.8 C 0 km/h
2672 30-06-2020 06:35:00 9.8 C 8.54 g/m*3 9.8 C 0 km/h
2673 30-06-2020 06:40:00 9.9 C 8.68 g/m*3 9.9 C 0 km/h
2674 30-06-2020 06:45:00 10 C 8.74 g/m*3 10 C 0 km/h
2675 30-06-2020 06:50:00 10.1 C 8.79 g/m*3 10.1 C 0 km/h
Sensor: Nr:Datum:Temp:Abs-Feuchte:Windchill:Wind:
Aussen-T/F 2676 30-06-2020 06:55:00 10.1 C 8.79 g/m*3 10.1 C 0 km/h
2677 30-06-2020 07:00:00 10.2 C 8.85 g/m*3 10.2 C 0 km/h
2678 30-06-2020 07:05:00 10.3 C 8.91 g/m*3 10.3 C 0 km/h
2679 30-06-2020 07:10:00 10.4 C 8.96 g/m*3 10.4 C 0 km/h
2680 30-06-2020 07:15:00 10.6 C 9.08 g/m*3 10.6 C 1.6 km/h
2681 30-06-2020 07:20:00 10.7 C 9.04 g/m*3 10.7 C 0 km/h
2682 30-06-2020 07:25:00 10.9 C 9.15 g/m*3 10.9 C 0 km/h
2683 30-06-2020 07:30:00 11.1 C 9.27 g/m*3 11.1 C 0 km/h
2684 30-06-2020 07:35:00 11.3 C 9.28 g/m*3 11.3 C 0 km/h
2685 30-06-2020 07:40:00 11.6 C 9.46 g/m*3 11.6 C 0 km/h
2686 30-06-2020 07:45:00 11.8 C 9.47 g/m*3 11.8 C 0 km/h
2687 30-06-2020 07:50:00 11.9 C 9.53 g/m*3 11.9 C 0 km/h
2688 30-06-2020 07:55:00 12.2 C 9.6 g/m*3 12.2 C 0 km/h
2689 30-06-2020 08:00:00 12.4 C 9.72 g/m*3 12.4 C 0 km/h
2690 30-06-2020 08:05:00 12.7 C 9.91 g/m*3 12.7 C 0 km/h
2691 30-06-2020 08:10:00 12.9 C 9.92 g/m*3 12.9 C 0 km/h
2692 30-06-2020 08:15:00 13.1 C 9.93 g/m*3 13.1 C 0 km/h
2693 30-06-2020 08:20:00 13.4 C 10.11 g/m*3 13.4 C 0 km/h
2694 30-06-2020 08:25:00 13.6 C 10 g/m*3 13.6 C 1.6 km/h
2695 30-06-2020 08:30:00 13.8 C 10.01 g/m*3 13.8 C 0 km/h
2696 30-06-2020 08:35:00 14.1 C 10.07 g/m*3 14.1 C 0 km/h
2697 30-06-2020 08:40:00 14.3 C 10.07 g/m*3 14.3 C 0 km/h
2698 30-06-2020 08:45:00 14.4 C 9.89 g/m*3 14.4 C 0 km/h
2699 30-06-2020 08:50:00 14.6 C 9.89 g/m*3 14.6 C 0 km/h
2700 30-06-2020 08:55:00 14.8 C 10.01 g/m*3 14.8 C 0 km/h
Sensor: Nr:Datum:Temp:Abs-Feuchte:Windchill:Wind:
Aussen-T/F 2701 30-06-2020 09:00:00 14.9 C 9.94 g/m*3 14.9 C 0 km/h
2702 30-06-2020 09:05:00 15.1 C 10.19 g/m*3 15.1 C 0 km/h
2703 30-06-2020 09:10:00 15.3 C 10.06 g/m*3 15.3 C 0 km/h
2704 30-06-2020 09:15:00 15.5 C 10.05 g/m*3 15.5 C 0 km/h
2705 30-06-2020 09:20:00 15.7 C 9.9 g/m*3 15.7 C 0 km/h
2706 30-06-2020 09:25:00 15.9 C 10.02 g/m*3 15.9 C 0 km/h
2707 30-06-2020 09:30:00 16.1 C 10.01 g/m*3 16.1 C 0 km/h
2708 30-06-2020 09:35:00 16.3 C 10.27 g/m*3 16.3 C 0 km/h
2709 30-06-2020 09:40:00 16.5 C 10.25 g/m*3 16.5 C 0 km/h
2710 30-06-2020 09:45:00 16.7 C 10.23 g/m*3 16.7 C 0 km/h
2711 30-06-2020 09:50:00 16.8 C 10.01 g/m*3 16.8 C 0 km/h
2712 30-06-2020 09:55:00 17 C 9.98 g/m*3 17 C 0 km/h
2713 30-06-2020 10:00:00 17.1 C 9.75 g/m*3 17.1 C 9.7 km/h
2714 30-06-2020 10:05:00 17.2 C 9.81 g/m*3 17.2 C 9.7 km/h
2715 30-06-2020 10:10:00 17.2 C 9.96 g/m*3 17.2 C 6.4 km/h
2716 30-06-2020 10:15:00 17.3 C 10.16 g/m*3 17.3 C 4.8 km/h
2717 30-06-2020 10:20:00 17.3 C 9.87 g/m*3 17.3 C 8.1 km/h
2718 30-06-2020 10:25:00 17.3 C 9.87 g/m*3 17.3 C 8.1 km/h
2719 30-06-2020 10:30:00 17.3 C 10.02 g/m*3 17.3 C 6.4 km/h
2720 30-06-2020 10:35:00 17.4 C 10.08 g/m*3 17.4 C 4.8 km/h
2721 30-06-2020 10:40:00 17.5 C 9.99 g/m*3 17.5 C 6.4 km/h
2722 30-06-2020 10:45:00 17.4 C 10.08 g/m*3 17.4 C 11.3 km/h
2723 30-06-2020 10:50:00 17.4 C 9.93 g/m*3 17.4 C 9.7 km/h
2724 30-06-2020 10:55:00 17.5 C 9.84 g/m*3 17.5 C 4.8 km/h
2725 30-06-2020 11:00:00 17.5 C 9.84 g/m*3 17.5 C 9.7 km/h
Sensor: Nr:Datum:Temp:Abs-Feuchte:Windchill:Wind:
Aussen-T/F 2726 30-06-2020 11:05:00 17.5 C 9.69 g/m*3 17.5 C 4.8 km/h
2727 30-06-2020 11:10:00 17.5 C 9.99 g/m*3 17.5 C 6.4 km/h
2728 30-06-2020 11:15:00 17.6 C 9.9 g/m*3 17.6 C 6.4 km/h
2729 30-06-2020 11:20:00 17.7 C 9.96 g/m*3 17.7 C 14.5 km/h
2730 30-06-2020 11:25:00 17.8 C 10.02 g/m*3 17.8 C 8.1 km/h
2731 30-06-2020 11:30:00 17.9 C 9.92 g/m*3 17.9 C 9.7 km/h
2732 30-06-2020 11:35:00 17.9 C 10.08 g/m*3 17.9 C 4.8 km/h
2733 30-06-2020 11:40:00 18 C 10.14 g/m*3 18 C 4.8 km/h
2734 30-06-2020 11:45:00 18 C 9.98 g/m*3 18 C 11.3 km/h
2735 30-06-2020 11:50:00 18.1 C 10.2 g/m*3 18.1 C 4.8 km/h
2736 30-06-2020 11:55:00 18.1 C 10.04 g/m*3 18.1 C 8.1 km/h
2737 30-06-2020 12:00:00 18.1 C 10.2 g/m*3 18.1 C 9.7 km/h
2738 30-06-2020 12:05:00 18.1 C 10.2 g/m*3 18.1 C 8.1 km/h
2739 30-06-2020 12:10:00 18.1 C 10.2 g/m*3 18.1 C 9.7 km/h
2740 30-06-2020 12:15:00 18.1 C 10.2 g/m*3 18.1 C 6.4 km/h
2741 30-06-2020 12:20:00 18.1 C 10.2 g/m*3 18.1 C 12.9 km/h
2742 30-06-2020 12:25:00 18.1 C 10.04 g/m*3 18.1 C 12.9 km/h
2743 30-06-2020 12:30:00 18.1 C 10.04 g/m*3 18.1 C 11.3 km/h
2744 30-06-2020 12:35:00 18.1 C 10.2 g/m*3 18.1 C 4.8 km/h
2745 30-06-2020 12:40:00 18.2 C 10.41 g/m*3 18.2 C 6.4 km/h
2746 30-06-2020 12:45:00 18.4 C 10.22 g/m*3 18.4 C 9.7 km/h
2747 30-06-2020 12:50:00 18.7 C 10.25 g/m*3 18.7 C 16.1 km/h
2748 30-06-2020 12:55:00 18.8 C 10.31 g/m*3 18.8 C 12.9 km/h
2749 30-06-2020 13:00:00 18.9 C 10.21 g/m*3 18.9 C 14.5 km/h
2750 30-06-2020 13:05:00 19.1 C 10.33 g/m*3 19.1 C 8.1 km/h
Sensor: Nr:Datum:Temp:Abs-Feuchte:Windchill:Wind:
Aussen-T/F 2751 30-06-2020 13:10:00 19.3 C 10.45 g/m*3 19.3 C 11.3 km/h
2752 30-06-2020 13:15:00 19.4 C 10.51 g/m*3 19.4 C 9.7 km/h
2753 30-06-2020 13:20:00 19.5 C 10.41 g/m*3 19.5 C 11.3 km/h
2754 30-06-2020 13:25:00 19.6 C 10.47 g/m*3 19.6 C 11.3 km/h
2755 30-06-2020 13:30:00 19.8 C 10.59 g/m*3 19.8 C 16.1 km/h
2756 30-06-2020 13:35:00 19.9 C 10.48 g/m*3 19.9 C 12.9 km/h
2757 30-06-2020 13:40:00 20.1 C 10.6 g/m*3 20.1 C 9.7 km/h
2758 30-06-2020 13:45:00 20.2 C 10.32 g/m*3 20.2 C 17.7 km/h
2759 30-06-2020 13:50:00 20.2 C 10.49 g/m*3 20.2 C 11.3 km/h
2760 30-06-2020 13:55:00 20.3 C 10.55 g/m*3 20.3 C 14.5 km/h
2761 30-06-2020 14:00:00 20.4 C 10.26 g/m*3 20.4 C 20.9 km/h
2762 30-06-2020 14:05:00 20.5 C 10.5 g/m*3 20.5 C 12.9 km/h
2763 30-06-2020 14:10:00 20.5 C 10.5 g/m*3 20.5 C 14.5 km/h
2764 30-06-2020 14:15:00 20.5 C 10.32 g/m*3 20.5 C 19.3 km/h
2765 30-06-2020 14:20:00 20.8 C 10.5 g/m*3 20.8 C 14.5 km/h
2766 30-06-2020 14:25:00 21.1 C 10.32 g/m*3 21.1 C 16.1 km/h
2767 30-06-2020 14:30:00 21.2 C 10.75 g/m*3 21.2 C 14.5 km/h
2768 30-06-2020 14:35:00 21.2 C 10.56 g/m*3 21.2 C 12.9 km/h
2769 30-06-2020 14:40:00 21.1 C 10.5 g/m*3 21.1 C 11.3 km/h
2770 30-06-2020 14:45:00 21 C 10.08 g/m*3 21 C 20.9 km/h
2771 30-06-2020 14:50:00 21.2 C 10.56 g/m*3 21.2 C 17.7 km/h
2772 30-06-2020 14:55:00 21.3 C 10.25 g/m*3 21.3 C 20.9 km/h
2773 30-06-2020 15:00:00 21.2 C 10.19 g/m*3 21.2 C 19.3 km/h
2774 30-06-2020 15:05:00 21.3 C 10.81 g/m*3 21.3 C 19.3 km/h
2775 30-06-2020 15:10:00 21.4 C 10.5 g/m*3 21.4 C 24.1 km/h
Sensor: Nr:Datum:Temp:Abs-Feuchte:Windchill:Wind:
Aussen-T/F 2776 30-06-2020 15:15:00 21.3 C 10.44 g/m*3 21.3 C 17.7 km/h
2777 30-06-2020 15:20:00 21.4 C 10.5 g/m*3 21.4 C 12.9 km/h
2778 30-06-2020 15:25:00 21.8 C 10.74 g/m*3 21.8 C 17.7 km/h
2779 30-06-2020 15:30:00 22 C 10.48 g/m*3 22 C 14.5 km/h
2780 30-06-2020 15:35:00 21.8 C 10.55 g/m*3 21.8 C 11.3 km/h
2781 30-06-2020 15:40:00 21.7 C 10.68 g/m*3 21.7 C 12.9 km/h
2782 30-06-2020 15:45:00 21.7 C 10.49 g/m*3 21.7 C 17.7 km/h
2783 30-06-2020 15:50:00 21.4 C 10.5 g/m*3 21.4 C 17.7 km/h
2784 30-06-2020 15:55:00 21.3 C 10.62 g/m*3 21.3 C 9.7 km/h
2785 30-06-2020 16:00:00 21.6 C 10.81 g/m*3 21.6 C 11.3 km/h
2786 30-06-2020 16:05:00 21.8 C 10.94 g/m*3 21.8 C 11.3 km/h
2787 30-06-2020 16:10:00 21.7 C 10.87 g/m*3 21.7 C 12.9 km/h
2788 30-06-2020 16:15:00 21.9 C 11.19 g/m*3 21.9 C 14.5 km/h
2789 30-06-2020 16:20:00 22.2 C 10.8 g/m*3 22.2 C 24.1 km/h
2790 30-06-2020 16:25:00 22.4 C 11.12 g/m*3 22.4 C 14.5 km/h
2791 30-06-2020 16:30:00 22.8 C 10.77 g/m*3 22.8 C 19.3 km/h
2792 30-06-2020 16:35:00 22.6 C 10.65 g/m*3 22.6 C 17.7 km/h
2793 30-06-2020 16:40:00 22.4 C 10.92 g/m*3 22.4 C 14.5 km/h
2794 30-06-2020 16:45:00 22.2 C 10.6 g/m*3 22.2 C 17.7 km/h
2795 30-06-2020 16:50:00 22.1 C 10.93 g/m*3 22.1 C 16.1 km/h
2796 30-06-2020 16:55:00 22.2 C 10.99 g/m*3 22.2 C 9.7 km/h
2797 30-06-2020 17:00:00 22.5 C 10.79 g/m*3 22.5 C 19.3 km/h
2798 30-06-2020 17:05:00 22.5 C 11.19 g/m*3 22.5 C 14.5 km/h
2799 30-06-2020 17:10:00 22.8 C 10.57 g/m*3 22.8 C 16.1 km/h
2800 30-06-2020 17:15:00 23 C 10.69 g/m*3 23 C 14.5 km/h
Sensor: Nr:Datum:Temp:Abs-Feuchte:Windchill:Wind:
Aussen-T/F 2801 30-06-2020 17:20:00 23.4 C 10.72 g/m*3 23.4 C 17.7 km/h
2802 30-06-2020 17:25:00 23.3 C 10.87 g/m*3 23.3 C 16.1 km/h
2803 30-06-2020 17:30:00 23.4 C 10.72 g/m*3 23.4 C 17.7 km/h
2804 30-06-2020 17:35:00 23.3 C 10.87 g/m*3 23.3 C 11.3 km/h
2805 30-06-2020 17:40:00 23.6 C 11.06 g/m*3 23.6 C 16.1 km/h
2806 30-06-2020 17:45:00 23.9 C 10.82 g/m*3 23.9 C 17.7 km/h
2807 30-06-2020 17:50:00 23.7 C 10.69 g/m*3 23.7 C 12.9 km/h
2808 30-06-2020 17:55:00 23.1 C 10.75 g/m*3 23.1 C 6.4 km/h
2809 30-06-2020 18:00:00 22.7 C 10.71 g/m*3 22.7 C 11.3 km/h
2810 30-06-2020 18:05:00 22.9 C 10.83 g/m*3 22.9 C 8.1 km/h
2811 30-06-2020 18:10:00 23.4 C 10.93 g/m*3 23.4 C 22.5 km/h
2812 30-06-2020 18:15:00 23.6 C 10.85 g/m*3 23.6 C 17.7 km/h
2813 30-06-2020 18:20:00 23.5 C 10.79 g/m*3 23.5 C 17.7 km/h
2814 30-06-2020 18:25:00 23 C 10.69 g/m*3 23 C 12.9 km/h
2815 30-06-2020 18:30:00 22.7 C 10.71 g/m*3 22.7 C 16.1 km/h
2816 30-06-2020 18:35:00 22.8 C 10.57 g/m*3 22.8 C 16.1 km/h
2817 30-06-2020 18:40:00 22.5 C 10.59 g/m*3 22.5 C 12.9 km/h
2818 30-06-2020 18:45:00 22.1 C 10.74 g/m*3 22.1 C 19.3 km/h
2819 30-06-2020 18:50:00 21.9 C 10.81 g/m*3 21.9 C 8.1 km/h
2820 30-06-2020 18:55:00 21.7 C 11.06 g/m*3 21.7 C 20.9 km/h
2821 30-06-2020 19:00:00 21.7 C 10.87 g/m*3 21.7 C 9.7 km/h
2822 30-06-2020 19:05:00 21.8 C 10.94 g/m*3 21.8 C 16.1 km/h
2823 30-06-2020 19:10:00 21.6 C 10.81 g/m*3 21.6 C 14.5 km/h
2824 30-06-2020 19:15:00 21.4 C 11.06 g/m*3 21.4 C 8.1 km/h
2825 30-06-2020 19:20:00 21.3 C 11 g/m*3 21.3 C 9.7 km/h
Sensor: Nr:Datum:Temp:Abs-Feuchte:Windchill:Wind:
Aussen-T/F 2826 30-06-2020 19:25:00 21.3 C 11 g/m*3 21.3 C 9.7 km/h
2827 30-06-2020 19:30:00 21.2 C 10.93 g/m*3 21.2 C 12.9 km/h
2828 30-06-2020 19:35:00 21.2 C 11.12 g/m*3 21.2 C 16.1 km/h
2829 30-06-2020 19:40:00 21.1 C 11.06 g/m*3 21.1 C 16.1 km/h
2830 30-06-2020 19:45:00 21.1 C 11.06 g/m*3 21.1 C 9.7 km/h
2831 30-06-2020 19:50:00 21.1 C 11.06 g/m*3 21.1 C 14.5 km/h
2832 30-06-2020 19:55:00 21.1 C 11.24 g/m*3 21.1 C 12.9 km/h
2833 30-06-2020 20:00:00 21.3 C 11.37 g/m*3 21.3 C 19.3 km/h
2834 30-06-2020 20:05:00 21.4 C 11.44 g/m*3 21.4 C 6.4 km/h
2835 30-06-2020 20:10:00 21.4 C 11.62 g/m*3 21.4 C 11.3 km/h
2836 30-06-2020 20:15:00 21.2 C 11.3 g/m*3 21.2 C 11.3 km/h
2837 30-06-2020 20:20:00 21 C 11.36 g/m*3 21 C 8.1 km/h
2838 30-06-2020 20:25:00 20.9 C 11.29 g/m*3 20.9 C 8.1 km/h
2839 30-06-2020 20:30:00 20.8 C 11.23 g/m*3 20.8 C 14.5 km/h
2840 30-06-2020 20:35:00 20.8 C 11.23 g/m*3 20.8 C 12.9 km/h
2841 30-06-2020 20:40:00 20.7 C 11.34 g/m*3 20.7 C 16.1 km/h
2842 30-06-2020 20:45:00 20.7 C 11.34 g/m*3 20.7 C 9.7 km/h
2843 30-06-2020 20:50:00 20.6 C 11.28 g/m*3 20.6 C 12.9 km/h
2844 30-06-2020 20:55:00 20.5 C 11.21 g/m*3 20.5 C 9.7 km/h
2845 30-06-2020 21:00:00 20.4 C 11.32 g/m*3 20.4 C 14.5 km/h
2846 30-06-2020 21:05:00 20.4 C 11.5 g/m*3 20.4 C 9.7 km/h
2847 30-06-2020 21:10:00 20.4 C 11.68 g/m*3 20.4 C 3.2 km/h
2848 30-06-2020 21:15:00 20.3 C 11.61 g/m*3 20.3 C 8.1 km/h
2849 30-06-2020 21:20:00 20.1 C 11.3 g/m*3 20.1 C 16.1 km/h
2850 30-06-2020 21:25:00 20.1 C 11.65 g/m*3 20.1 C 8.1 km/h
Sensor: Nr:Datum:Temp:Abs-Feuchte:Windchill:Wind:
Aussen-T/F 2851 30-06-2020 21:30:00 20 C 11.41 g/m*3 20 C 6.4 km/h
2852 30-06-2020 21:35:00 19.9 C 11.68 g/m*3 19.9 C 3.2 km/h
2853 30-06-2020 21:40:00 19.9 C 11.68 g/m*3 19.9 C 3.2 km/h
2854 30-06-2020 21:45:00 19.8 C 11.61 g/m*3 19.8 C 1.6 km/h
2855 30-06-2020 21:50:00 19.7 C 11.55 g/m*3 19.7 C 0 km/h
2856 30-06-2020 21:55:00 19.7 C 11.72 g/m*3 19.7 C 0 km/h
2857 30-06-2020 22:00:00 19.6 C 11.82 g/m*3 19.6 C 8.1 km/h
2858 30-06-2020 22:05:00 19.4 C 11.68 g/m*3 19.4 C 6.4 km/h
2859 30-06-2020 22:10:00 19.3 C 11.78 g/m*3 19.3 C 3.2 km/h
2860 30-06-2020 22:15:00 19.2 C 11.71 g/m*3 19.2 C 0 km/h
2861 30-06-2020 22:20:00 19.1 C 11.64 g/m*3 19.1 C 6.4 km/h
2862 30-06-2020 22:25:00 19 C 11.73 g/m*3 19 C 4.8 km/h
2863 30-06-2020 22:30:00 18.9 C 11.83 g/m*3 18.9 C 3.2 km/h
2864 30-06-2020 22:35:00 18.8 C 11.76 g/m*3 18.8 C 4.8 km/h
2865 30-06-2020 22:40:00 18.8 C 11.76 g/m*3 18.8 C 3.2 km/h
2866 30-06-2020 22:45:00 18.8 C 11.6 g/m*3 18.8 C 3.2 km/h
2867 30-06-2020 22:50:00 18.8 C 11.76 g/m*3 18.8 C 8.1 km/h
2868 30-06-2020 22:55:00 18.8 C 11.6 g/m*3 18.8 C 8.1 km/h
2869 30-06-2020 23:00:00 18.9 C 11.66 g/m*3 18.9 C 8.1 km/h
2870 30-06-2020 23:05:00 19 C 11.73 g/m*3 19 C 1.6 km/h
2871 30-06-2020 23:10:00 19.1 C 11.64 g/m*3 19.1 C 8.1 km/h
2872 30-06-2020 23:15:00 19.2 C 11.71 g/m*3 19.2 C 3.2 km/h
2873 30-06-2020 23:20:00 19.2 C 11.87 g/m*3 19.2 C 4.8 km/h
2874 30-06-2020 23:25:00 19.2 C 11.71 g/m*3 19.2 C 11.3 km/h
2875 30-06-2020 23:30:00 19.3 C 11.78 g/m*3 19.3 C 8.1 km/h
Sensor: Nr:Datum:Temp:Abs-Feuchte:Windchill:Wind:
Aussen-T/F 2876 30-06-2020 23:35:00 19.3 C 11.78 g/m*3 19.3 C 6.4 km/h
2877 30-06-2020 23:40:00 19.3 C 11.78 g/m*3 19.3 C 4.8 km/h
2878 30-06-2020 23:45:00 19.3 C 11.78 g/m*3 19.3 C 12.9 km/h
2879 30-06-2020 23:50:00 19.3 C 11.78 g/m*3 19.3 C 6.4 km/h
2880 30-06-2020 23:55:00 19.4 C 11.68 g/m*3 19.4 C 11.3 km/h
2881 01-07-2020 00:00:00 19.4 C 11.68 g/m*3 19.4 C 11.3 km/h
2882 01-07-2020 00:05:00 19.4 C 11.68 g/m*3 19.4 C 14.5 km/h
2883 01-07-2020 00:10:00 19.4 C 11.68 g/m*3 19.4 C 11.3 km/h
2884 01-07-2020 00:15:00 19.4 C 11.68 g/m*3 19.4 C 12.9 km/h
2885 01-07-2020 00:20:00 19.4 C 11.68 g/m*3 19.4 C 8.1 km/h
2886 01-07-2020 00:25:00 19.5 C 11.75 g/m*3 19.5 C 6.4 km/h
2887 01-07-2020 00:30:00 19.4 C 11.68 g/m*3 19.4 C 11.3 km/h
2888 01-07-2020 00:35:00 19.4 C 11.85 g/m*3 19.4 C 8.1 km/h
2889 01-07-2020 00:40:00 19.4 C 11.85 g/m*3 19.4 C 6.4 km/h
2890 01-07-2020 00:45:00 19.4 C 11.85 g/m*3 19.4 C 11.3 km/h
2891 01-07-2020 00:50:00 19.4 C 11.85 g/m*3 19.4 C 8.1 km/h
2892 01-07-2020 00:55:00 19.4 C 11.85 g/m*3 19.4 C 4.8 km/h
2893 01-07-2020 01:00:00 19.4 C 11.85 g/m*3 19.4 C 4.8 km/h
2894 01-07-2020 01:05:00 19.3 C 11.94 g/m*3 19.3 C 6.4 km/h
2895 01-07-2020 01:10:00 19.3 C 11.94 g/m*3 19.3 C 9.7 km/h
2896 01-07-2020 01:15:00 19.3 C 11.94 g/m*3 19.3 C 4.8 km/h
2897 01-07-2020 01:20:00 19.2 C 11.87 g/m*3 19.2 C 1.6 km/h
2898 01-07-2020 01:25:00 19.1 C 11.8 g/m*3 19.1 C 3.2 km/h
2899 01-07-2020 01:30:00 19.1 C 11.97 g/m*3 19.1 C 8.1 km/h
2900 01-07-2020 01:35:00 18.9 C 11.83 g/m*3 18.9 C 6.4 km/h
Sensor: Nr:Datum:Temp:Abs-Feuchte:Windchill:Wind:
Aussen-T/F 2901 01-07-2020 01:40:00 18.8 C 11.76 g/m*3 18.8 C 6.4 km/h
2902 01-07-2020 01:45:00 18.7 C 11.85 g/m*3 18.7 C 3.2 km/h
2903 01-07-2020 01:50:00 18.7 C 11.85 g/m*3 18.7 C 8.1 km/h
2904 01-07-2020 01:55:00 18.5 C 11.71 g/m*3 18.5 C 6.4 km/h
2905 01-07-2020 02:00:00 18.4 C 11.8 g/m*3 18.4 C 8.1 km/h
2906 01-07-2020 02:05:00 18.3 C 11.73 g/m*3 18.3 C 4.8 km/h
2907 01-07-2020 02:10:00 18.2 C 11.81 g/m*3 18.2 C 1.6 km/h
2908 01-07-2020 02:15:00 18.2 C 11.81 g/m*3 18.2 C 6.4 km/h
2909 01-07-2020 02:20:00 18.1 C 11.74 g/m*3 18.1 C 4.8 km/h
2910 01-07-2020 02:25:00 18 C 11.83 g/m*3 18 C 4.8 km/h
2911 01-07-2020 02:30:00 18 C 11.67 g/m*3 18 C 11.3 km/h
2912 01-07-2020 02:35:00 18.1 C 11.74 g/m*3 18.1 C 6.4 km/h
2913 01-07-2020 02:40:00 18.1 C 11.74 g/m*3 18.1 C 14.5 km/h
2914 01-07-2020 02:45:00 18.2 C 11.81 g/m*3 18.2 C 6.4 km/h
2915 01-07-2020 02:50:00 18.2 C 11.81 g/m*3 18.2 C 9.7 km/h
2916 01-07-2020 02:55:00 18.3 C 11.88 g/m*3 18.3 C 6.4 km/h
2917 01-07-2020 03:00:00 18.2 C 11.81 g/m*3 18.2 C 3.2 km/h
2918 01-07-2020 03:05:00 18.2 C 11.81 g/m*3 18.2 C 4.8 km/h
2919 01-07-2020 03:10:00 18.2 C 11.97 g/m*3 18.2 C 3.2 km/h
2920 01-07-2020 03:15:00 18.1 C 11.9 g/m*3 18.1 C 1.6 km/h
2921 01-07-2020 03:20:00 17.9 C 11.76 g/m*3 17.9 C 4.8 km/h
2922 01-07-2020 03:25:00 17.8 C 11.84 g/m*3 17.8 C 3.2 km/h
2923 01-07-2020 03:30:00 17.7 C 11.77 g/m*3 17.7 C 3.2 km/h
2924 01-07-2020 03:35:00 17.6 C 11.85 g/m*3 17.6 C 1.6 km/h
2925 01-07-2020 03:40:00 17.5 C 11.93 g/m*3 17.5 C 4.8 km/h
Sensor: Nr:Datum:Temp:Abs-Feuchte:Windchill:Wind:
Aussen-T/F 2926 01-07-2020 03:45:00 17.4 C 11.86 g/m*3 17.4 C 4.8 km/h
2927 01-07-2020 03:50:00 17.4 C 11.86 g/m*3 17.4 C 1.6 km/h
2928 01-07-2020 03:55:00 17.4 C 11.86 g/m*3 17.4 C 3.2 km/h
2929 01-07-2020 04:00:00 17.4 C 11.86 g/m*3 17.4 C 0 km/h
2930 01-07-2020 04:05:00 17.4 C 11.86 g/m*3 17.4 C 0 km/h
2931 01-07-2020 04:10:00 17.3 C 11.79 g/m*3 17.3 C 4.8 km/h
2932 01-07-2020 04:15:00 17.3 C 11.79 g/m*3 17.3 C 4.8 km/h
2933 01-07-2020 04:20:00 17.3 C 11.79 g/m*3 17.3 C 6.4 km/h
2934 01-07-2020 04:25:00 17.2 C 11.86 g/m*3 17.2 C 4.8 km/h
2935 01-07-2020 04:30:00 17.2 C 11.72 g/m*3 17.2 C 1.6 km/h
2936 01-07-2020 04:35:00 17.1 C 11.79 g/m*3 17.1 C 0 km/h
2937 01-07-2020 04:40:00 17.1 C 11.79 g/m*3 17.1 C 1.6 km/h
2938 01-07-2020 04:45:00 16.9 C 11.79 g/m*3 16.9 C 0 km/h
2939 01-07-2020 04:50:00 16.9 C 11.79 g/m*3 16.9 C 0 km/h
2940 01-07-2020 04:55:00 16.8 C 11.72 g/m*3 16.8 C 0 km/h
2941 01-07-2020 05:00:00 16.8 C 11.72 g/m*3 16.8 C 0 km/h
2942 01-07-2020 05:05:00 16.8 C 11.72 g/m*3 16.8 C 4.8 km/h
2943 01-07-2020 05:10:00 16.8 C 11.72 g/m*3 16.8 C 0 km/h
2944 01-07-2020 05:15:00 16.8 C 11.87 g/m*3 16.8 C 0 km/h
2945 01-07-2020 05:20:00 16.8 C 11.87 g/m*3 16.8 C 0 km/h
2946 01-07-2020 05:25:00 16.7 C 11.8 g/m*3 16.7 C 0 km/h
2947 01-07-2020 05:30:00 16.6 C 11.72 g/m*3 16.6 C 0 km/h
2948 01-07-2020 05:35:00 16.5 C 11.65 g/m*3 16.5 C 0 km/h
2949 01-07-2020 05:40:00 16.3 C 11.65 g/m*3 16.3 C 0 km/h
2950 01-07-2020 05:45:00 16.2 C 11.58 g/m*3 16.2 C 1.6 km/h
Sensor: Nr:Datum:Temp:Abs-Feuchte:Windchill:Wind:
Aussen-T/F 2951 01-07-2020 05:50:00 16.1 C 11.65 g/m*3 16.1 C 0 km/h
2952 01-07-2020 05:55:00 16.1 C 11.65 g/m*3 16.1 C 0 km/h
2953 01-07-2020 06:00:00 16 C 11.72 g/m*3 16 C 0 km/h
2954 01-07-2020 06:05:00 15.9 C 11.65 g/m*3 15.9 C 1.6 km/h
2955 01-07-2020 06:10:00 15.8 C 11.58 g/m*3 15.8 C 1.6 km/h
2956 01-07-2020 06:15:00 15.8 C 11.71 g/m*3 15.8 C 3.2 km/h
2957 01-07-2020 06:20:00 15.7 C 11.64 g/m*3 15.7 C 0 km/h
2958 01-07-2020 06:25:00 15.7 C 11.64 g/m*3 15.7 C 0 km/h
2959 01-07-2020 06:30:00 15.7 C 11.64 g/m*3 15.7 C 1.6 km/h
2960 01-07-2020 06:35:00 15.6 C 11.7 g/m*3 15.6 C 0 km/h
2961 01-07-2020 06:40:00 15.6 C 11.7 g/m*3 15.6 C 1.6 km/h
2962 01-07-2020 06:45:00 15.6 C 11.7 g/m*3 15.6 C 3.2 km/h
2963 01-07-2020 06:50:00 15.6 C 11.7 g/m*3 15.6 C 3.2 km/h
2964 01-07-2020 06:55:00 15.6 C 11.84 g/m*3 15.6 C 0 km/h
2965 01-07-2020 07:00:00 15.7 C 11.91 g/m*3 15.7 C 0 km/h
2966 01-07-2020 07:05:00 15.7 C 12.04 g/m*3 15.7 C 0 km/h
2967 01-07-2020 07:10:00 15.9 C 12.19 g/m*3 15.9 C 1.6 km/h
2968 01-07-2020 07:15:00 16.1 C 12.2 g/m*3 16.1 C 3.2 km/h
2969 01-07-2020 07:20:00 16.3 C 12.35 g/m*3 16.3 C 1.6 km/h
2970 01-07-2020 07:25:00 16.5 C 12.5 g/m*3 16.5 C 0 km/h
2971 01-07-2020 07:30:00 16.7 C 12.65 g/m*3 16.7 C 4.8 km/h
2972 01-07-2020 07:35:00 17.1 C 12.66 g/m*3 17.1 C 4.8 km/h
2973 01-07-2020 07:40:00 17.2 C 12.59 g/m*3 17.2 C 4.8 km/h
2974 01-07-2020 07:45:00 17.4 C 12.6 g/m*3 17.4 C 4.8 km/h
2975 01-07-2020 07:50:00 17.6 C 12.6 g/m*3 17.6 C 11.3 km/h
Sensor: Nr:Datum:Temp:Abs-Feuchte:Windchill:Wind:
Aussen-T/F 2976 01-07-2020 07:55:00 17.9 C 12.52 g/m*3 17.9 C 14.5 km/h
2977 01-07-2020 08:00:00 18.2 C 12.59 g/m*3 18.2 C 9.7 km/h
2978 01-07-2020 08:05:00 18.4 C 12.58 g/m*3 18.4 C 11.3 km/h
2979 01-07-2020 08:10:00 18.6 C 12.73 g/m*3 18.6 C 4.8 km/h
2980 01-07-2020 08:15:00 18.7 C 12.65 g/m*3 18.7 C 8.1 km/h
2981 01-07-2020 08:20:00 18.8 C 12.72 g/m*3 18.8 C 11.3 km/h
2982 01-07-2020 08:25:00 19 C 12.87 g/m*3 19 C 11.3 km/h
2983 01-07-2020 08:30:00 19.2 C 12.86 g/m*3 19.2 C 11.3 km/h
2984 01-07-2020 08:35:00 19.3 C 12.94 g/m*3 19.3 C 11.3 km/h
2985 01-07-2020 08:40:00 19.5 C 12.92 g/m*3 19.5 C 9.7 km/h
2986 01-07-2020 08:45:00 19.7 C 13.08 g/m*3 19.7 C 11.3 km/h
2987 01-07-2020 08:50:00 19.8 C 13.15 g/m*3 19.8 C 9.7 km/h
2988 01-07-2020 08:55:00 19.9 C 13.06 g/m*3 19.9 C 8.1 km/h
2989 01-07-2020 09:00:00 20.1 C 13.21 g/m*3 20.1 C 8.1 km/h
2990 01-07-2020 09:05:00 20.3 C 13.19 g/m*3 20.3 C 9.7 km/h
2991 01-07-2020 09:10:00 20.3 C 13.19 g/m*3 20.3 C 6.4 km/h
2992 01-07-2020 09:15:00 20.6 C 13.6 g/m*3 20.6 C 6.4 km/h
2993 01-07-2020 09:20:00 20.8 C 13.58 g/m*3 20.8 C 6.4 km/h
2994 01-07-2020 09:25:00 21.1 C 13.63 g/m*3 21.1 C 6.4 km/h
2995 01-07-2020 09:30:00 21.2 C 13.71 g/m*3 21.2 C 14.5 km/h
2996 01-07-2020 09:35:00 21.2 C 13.53 g/m*3 21.2 C 14.5 km/h
2997 01-07-2020 09:40:00 21.2 C 13.71 g/m*3 21.2 C 9.7 km/h
2998 01-07-2020 09:45:00 21.3 C 13.79 g/m*3 21.3 C 8.1 km/h
2999 01-07-2020 09:50:00 21.3 C 13.61 g/m*3 21.3 C 11.3 km/h
3000 01-07-2020 09:55:00 21.3 C 13.61 g/m*3 21.3 C 9.7 km/h
Sensor: Nr:Datum:Temp:Abs-Feuchte:Windchill:Wind:
Aussen-T/F 3001 01-07-2020 10:00:00 21.4 C 13.87 g/m*3 21.4 C 8.1 km/h
3002 01-07-2020 10:05:00 21.4 C 13.69 g/m*3 21.4 C 12.9 km/h
3003 01-07-2020 10:10:00 21.5 C 13.95 g/m*3 21.5 C 8.1 km/h
3004 01-07-2020 10:15:00 21.6 C 14.03 g/m*3 21.6 C 9.7 km/h
3005 01-07-2020 10:20:00 21.7 C 13.73 g/m*3 21.7 C 17.7 km/h
3006 01-07-2020 10:25:00 21.6 C 13.85 g/m*3 21.6 C 17.7 km/h
3007 01-07-2020 10:30:00 21.6 C 13.85 g/m*3 21.6 C 12.9 km/h
3008 01-07-2020 10:35:00 21.6 C 13.85 g/m*3 21.6 C 8.1 km/h
3009 01-07-2020 10:40:00 21.6 C 13.85 g/m*3 21.6 C 11.3 km/h
3010 01-07-2020 10:45:00 21.6 C 13.85 g/m*3 21.6 C 22.5 km/h
3011 01-07-2020 10:50:00 21.5 C 13.77 g/m*3 21.5 C 22.5 km/h
3012 01-07-2020 10:55:00 21.5 C 13.77 g/m*3 21.5 C 9.7 km/h
3013 01-07-2020 11:00:00 21.6 C 13.85 g/m*3 21.6 C 11.3 km/h
3014 01-07-2020 11:05:00 21.7 C 13.93 g/m*3 21.7 C 9.7 km/h
3015 01-07-2020 11:10:00 21.7 C 13.54 g/m*3 21.7 C 14.5 km/h
3016 01-07-2020 11:15:00 21.7 C 13.54 g/m*3 21.7 C 11.3 km/h
3017 01-07-2020 11:20:00 21.8 C 13.62 g/m*3 21.8 C 12.9 km/h
3018 01-07-2020 11:25:00 21.9 C 13.89 g/m*3 21.9 C 11.3 km/h
3019 01-07-2020 11:30:00 22.1 C 14.05 g/m*3 22.1 C 12.9 km/h
3020 01-07-2020 11:35:00 22.3 C 14.22 g/m*3 22.3 C 8.1 km/h
3021 01-07-2020 11:40:00 22.4 C 13.9 g/m*3 22.4 C 12.9 km/h
3022 01-07-2020 11:45:00 22.6 C 14.06 g/m*3 22.6 C 11.3 km/h
3023 01-07-2020 11:50:00 22.7 C 13.94 g/m*3 22.7 C 12.9 km/h
3024 01-07-2020 11:55:00 23 C 14.18 g/m*3 23 C 14.5 km/h
3025 01-07-2020 12:00:00 23.2 C 13.93 g/m*3 23.2 C 12.9 km/h
Sensor: Nr:Datum:Temp:Abs-Feuchte:Windchill:Wind:
Aussen-T/F 3026 01-07-2020 12:05:00 23.3 C 14.01 g/m*3 23.3 C 11.3 km/h
3027 01-07-2020 12:10:00 23.4 C 13.88 g/m*3 23.4 C 14.5 km/h
3028 01-07-2020 12:15:00 23.6 C 13.82 g/m*3 23.6 C 22.5 km/h
3029 01-07-2020 12:20:00 23.4 C 13.88 g/m*3 23.4 C 14.5 km/h
3030 01-07-2020 12:25:00 23.6 C 13.82 g/m*3 23.6 C 20.9 km/h
3031 01-07-2020 12:30:00 23.6 C 14.04 g/m*3 23.6 C 19.3 km/h
3032 01-07-2020 12:35:00 23.7 C 13.9 g/m*3 23.7 C 20.9 km/h
3033 01-07-2020 12:40:00 23.7 C 13.69 g/m*3 23.7 C 20.9 km/h
3034 01-07-2020 12:45:00 23.8 C 13.98 g/m*3 23.8 C 14.5 km/h
3035 01-07-2020 12:50:00 23.8 C 13.77 g/m*3 23.8 C 17.7 km/h
3036 01-07-2020 12:55:00 23.7 C 13.69 g/m*3 23.7 C 22.5 km/h
3037 01-07-2020 13:00:00 23.9 C 14.06 g/m*3 23.9 C 17.7 km/h
3038 01-07-2020 13:05:00 24.1 C 14.22 g/m*3 24.1 C 19.3 km/h
3039 01-07-2020 13:10:00 24.2 C 14.08 g/m*3 24.2 C 22.5 km/h
3040 01-07-2020 13:15:00 24.2 C 13.86 g/m*3 24.2 C 19.3 km/h
3041 01-07-2020 13:20:00 24.2 C 14.08 g/m*3 24.2 C 19.3 km/h
3042 01-07-2020 13:25:00 24.1 C 14 g/m*3 24.1 C 20.9 km/h
3043 01-07-2020 13:30:00 24.1 C 14 g/m*3 24.1 C 19.3 km/h
3044 01-07-2020 13:35:00 24 C 13.92 g/m*3 24 C 20.9 km/h
3045 01-07-2020 13:40:00 24.1 C 14 g/m*3 24.1 C 14.5 km/h
3046 01-07-2020 13:45:00 24.1 C 14 g/m*3 24.1 C 16.1 km/h
3047 01-07-2020 13:50:00 24 C 13.92 g/m*3 24 C 24.1 km/h
3048 01-07-2020 13:55:00 24.1 C 14 g/m*3 24.1 C 14.5 km/h
3049 01-07-2020 14:00:00 24.3 C 13.94 g/m*3 24.3 C 12.9 km/h
3050 01-07-2020 14:05:00 24.6 C 13.95 g/m*3 24.6 C 17.7 km/h
Sensor: Nr:Datum:Temp:Abs-Feuchte:Windchill:Wind:
Aussen-T/F 3051 01-07-2020 14:10:00 24.6 C 13.95 g/m*3 24.6 C 20.9 km/h
3052 01-07-2020 14:15:00 24.3 C 13.72 g/m*3 24.3 C 20.9 km/h
3053 01-07-2020 14:20:00 24.4 C 14.02 g/m*3 24.4 C 17.7 km/h
3054 01-07-2020 14:25:00 24.7 C 13.81 g/m*3 24.7 C 17.7 km/h
3055 01-07-2020 14:30:00 25.1 C 14.12 g/m*3 25.1 C 22.5 km/h
3056 01-07-2020 14:35:00 25.2 C 14.2 g/m*3 25.2 C 24.1 km/h
3057 01-07-2020 14:40:00 25.1 C 14.12 g/m*3 25.1 C 19.3 km/h
3058 01-07-2020 14:45:00 24.7 C 14.26 g/m*3 24.7 C 16.1 km/h
3059 01-07-2020 14:50:00 24.8 C 14.34 g/m*3 24.8 C 20.9 km/h
3060 01-07-2020 14:55:00 24.6 C 14.4 g/m*3 24.6 C 27.4 km/h
3061 01-07-2020 15:00:00 24.5 C 13.88 g/m*3 24.5 C 22.5 km/h
3062 01-07-2020 15:05:00 24.4 C 14.02 g/m*3 24.4 C 25.7 km/h
3063 01-07-2020 15:10:00 24.4 C 14.02 g/m*3 24.4 C 14.5 km/h
3064 01-07-2020 15:15:00 24.4 C 14.02 g/m*3 24.4 C 22.5 km/h
3065 01-07-2020 15:20:00 24.4 C 14.02 g/m*3 24.4 C 17.7 km/h
3066 01-07-2020 15:25:00 24.6 C 14.18 g/m*3 24.6 C 14.5 km/h
3067 01-07-2020 15:30:00 24.8 C 14.34 g/m*3 24.8 C 20.9 km/h
3068 01-07-2020 15:35:00 24.8 C 14.11 g/m*3 24.8 C 19.3 km/h
3069 01-07-2020 15:40:00 24.9 C 14.42 g/m*3 24.9 C 14.5 km/h
3070 01-07-2020 15:45:00 25.1 C 14.35 g/m*3 25.1 C 16.1 km/h
3071 01-07-2020 15:50:00 25.2 C 14.43 g/m*3 25.2 C 17.7 km/h
3072 01-07-2020 15:55:00 25.2 C 13.97 g/m*3 25.2 C 14.5 km/h
3073 01-07-2020 16:00:00 25.2 C 14.2 g/m*3 25.2 C 22.5 km/h
3074 01-07-2020 16:05:00 25.3 C 14.51 g/m*3 25.3 C 16.1 km/h
3075 01-07-2020 16:10:00 25.3 C 14.51 g/m*3 25.3 C 14.5 km/h
Sensor: Nr:Datum:Temp:Abs-Feuchte:Windchill:Wind:
Aussen-T/F 3076 01-07-2020 16:15:00 25.2 C 13.97 g/m*3 25.2 C 20.9 km/h
3077 01-07-2020 16:20:00 24.9 C 13.96 g/m*3 24.9 C 19.3 km/h
3078 01-07-2020 16:25:00 24.7 C 14.03 g/m*3 24.7 C 19.3 km/h
3079 01-07-2020 16:30:00 24.8 C 14.34 g/m*3 24.8 C 17.7 km/h
3080 01-07-2020 16:35:00 24.9 C 14.42 g/m*3 24.9 C 12.9 km/h
3081 01-07-2020 16:40:00 25.3 C 14.51 g/m*3 25.3 C 11.3 km/h
3082 01-07-2020 16:45:00 25.6 C 14.76 g/m*3 25.6 C 11.3 km/h
3083 01-07-2020 16:50:00 25.7 C 14.36 g/m*3 25.7 C 12.9 km/h
3084 01-07-2020 16:55:00 25.6 C 14.28 g/m*3 25.6 C 16.1 km/h
3085 01-07-2020 17:00:00 25.4 C 14.13 g/m*3 25.4 C 20.9 km/h
3086 01-07-2020 17:05:00 25.3 C 14.28 g/m*3 25.3 C 11.3 km/h
3087 01-07-2020 17:10:00 25.3 C 14.28 g/m*3 25.3 C 14.5 km/h
3088 01-07-2020 17:15:00 25.4 C 14.6 g/m*3 25.4 C 19.3 km/h
3089 01-07-2020 17:20:00 25.6 C 14.05 g/m*3 25.6 C 24.1 km/h
3090 01-07-2020 17:25:00 25.3 C 14.28 g/m*3 25.3 C 16.1 km/h
3091 01-07-2020 17:30:00 25.5 C 14.2 g/m*3 25.5 C 14.5 km/h
3092 01-07-2020 17:35:00 25.9 C 14.28 g/m*3 25.9 C 16.1 km/h
3093 01-07-2020 17:40:00 26.4 C 14.44 g/m*3 26.4 C 12.9 km/h
3094 01-07-2020 17:45:00 26.2 C 13.79 g/m*3 26.2 C 19.3 km/h
3095 01-07-2020 17:50:00 25.7 C 13.65 g/m*3 25.7 C 17.7 km/h
3096 01-07-2020 17:55:00 25.4 C 13.89 g/m*3 25.4 C 20.9 km/h
3097 01-07-2020 18:00:00 25.4 C 14.13 g/m*3 25.4 C 12.9 km/h
3098 01-07-2020 18:05:00 25.3 C 13.81 g/m*3 25.3 C 22.5 km/h
3099 01-07-2020 18:10:00 25.3 C 13.58 g/m*3 25.3 C 14.5 km/h
3100 01-07-2020 18:15:00 25.2 C 13.74 g/m*3 25.2 C 16.1 km/h
Sensor: Nr:Datum:Temp:Abs-Feuchte:Windchill:Wind:
Aussen-T/F 3101 01-07-2020 18:20:00 25.1 C 13.66 g/m*3 25.1 C 17.7 km/h
3102 01-07-2020 18:25:00 25.2 C 13.97 g/m*3 25.2 C 16.1 km/h
3103 01-07-2020 18:30:00 25.1 C 13.66 g/m*3 25.1 C 12.9 km/h
3104 01-07-2020 18:35:00 24.9 C 13.73 g/m*3 24.9 C 14.5 km/h
3105 01-07-2020 18:40:00 24.8 C 13.88 g/m*3 24.8 C 9.7 km/h
3106 01-07-2020 18:45:00 24.8 C 13.88 g/m*3 24.8 C 9.7 km/h
3107 01-07-2020 18:50:00 24.8 C 13.88 g/m*3 24.8 C 9.7 km/h
3108 01-07-2020 18:55:00 24.8 C 13.88 g/m*3 24.8 C 14.5 km/h
3109 01-07-2020 19:00:00 24.7 C 13.81 g/m*3 24.7 C 19.3 km/h
3110 01-07-2020 19:05:00 24.6 C 13.73 g/m*3 24.6 C 16.1 km/h
3111 01-07-2020 19:10:00 24.5 C 13.88 g/m*3 24.5 C 9.7 km/h
3112 01-07-2020 19:15:00 24.5 C 14.1 g/m*3 24.5 C 12.9 km/h
3113 01-07-2020 19:20:00 24.6 C 13.95 g/m*3 24.6 C 9.7 km/h
3114 01-07-2020 19:25:00 24.7 C 14.03 g/m*3 24.7 C 12.9 km/h
3115 01-07-2020 19:30:00 24.8 C 13.88 g/m*3 24.8 C 16.1 km/h
3116 01-07-2020 19:35:00 24.6 C 13.95 g/m*3 24.6 C 14.5 km/h
3117 01-07-2020 19:40:00 24.4 C 14.02 g/m*3 24.4 C 9.7 km/h
3118 01-07-2020 19:45:00 24.3 C 13.72 g/m*3 24.3 C 19.3 km/h
3119 01-07-2020 19:50:00 24.3 C 13.94 g/m*3 24.3 C 11.3 km/h
3120 01-07-2020 19:55:00 24.2 C 14.08 g/m*3 24.2 C 11.3 km/h
3121 01-07-2020 20:00:00 24.2 C 14.08 g/m*3 24.2 C 11.3 km/h
3122 01-07-2020 20:05:00 24.1 C 14 g/m*3 24.1 C 11.3 km/h
3123 01-07-2020 20:10:00 24.1 C 14 g/m*3 24.1 C 4.8 km/h
3124 01-07-2020 20:15:00 24.1 C 14.22 g/m*3 24.1 C 11.3 km/h
3125 01-07-2020 20:20:00 24.2 C 13.86 g/m*3 24.2 C 14.5 km/h
Sensor: Nr:Datum:Temp:Abs-Feuchte:Windchill:Wind:
Aussen-T/F 3126 01-07-2020 20:25:00 24.4 C 14.02 g/m*3 24.4 C 11.3 km/h
3127 01-07-2020 20:30:00 24.7 C 14.03 g/m*3 24.7 C 19.3 km/h
3128 01-07-2020 20:35:00 24.8 C 13.88 g/m*3 24.8 C 9.7 km/h
3129 01-07-2020 20:40:00 24.9 C 14.19 g/m*3 24.9 C 14.5 km/h
3130 01-07-2020 20:45:00 25 C 14.04 g/m*3 25 C 14.5 km/h
3131 01-07-2020 20:50:00 25.1 C 14.12 g/m*3 25.1 C 9.7 km/h
3132 01-07-2020 20:55:00 24.8 C 13.88 g/m*3 24.8 C 11.3 km/h
3133 01-07-2020 21:00:00 24.4 C 13.8 g/m*3 24.4 C 14.5 km/h
3134 01-07-2020 21:05:00 24.2 C 13.86 g/m*3 24.2 C 9.7 km/h
3135 01-07-2020 21:10:00 23.9 C 13.85 g/m*3 23.9 C 14.5 km/h
3136 01-07-2020 21:15:00 23.7 C 13.9 g/m*3 23.7 C 9.7 km/h
3137 01-07-2020 21:20:00 23.6 C 13.82 g/m*3 23.6 C 11.3 km/h
3138 01-07-2020 21:25:00 23.3 C 13.8 g/m*3 23.3 C 12.9 km/h
3139 01-07-2020 21:30:00 23.2 C 13.72 g/m*3 23.2 C 6.4 km/h
3140 01-07-2020 21:35:00 23 C 13.77 g/m*3 23 C 8.1 km/h
3141 01-07-2020 21:40:00 22.8 C 13.61 g/m*3 22.8 C 8.1 km/h
3142 01-07-2020 21:45:00 22.7 C 13.74 g/m*3 22.7 C 9.7 km/h
3143 01-07-2020 21:50:00 22.7 C 13.74 g/m*3 22.7 C 8.1 km/h
3144 01-07-2020 21:55:00 22.6 C 13.66 g/m*3 22.6 C 6.4 km/h
3145 01-07-2020 22:00:00 22.6 C 13.86 g/m*3 22.6 C 0 km/h
3146 01-07-2020 22:05:00 22.6 C 13.86 g/m*3 22.6 C 0 km/h
3147 01-07-2020 22:10:00 22.4 C 13.9 g/m*3 22.4 C 3.2 km/h
3148 01-07-2020 22:15:00 22.3 C 13.82 g/m*3 22.3 C 3.2 km/h
3149 01-07-2020 22:20:00 22.2 C 13.74 g/m*3 22.2 C 4.8 km/h
3150 01-07-2020 22:25:00 22.2 C 13.94 g/m*3 22.2 C 3.2 km/h
Sensor: Nr:Datum:Temp:Abs-Feuchte:Windchill:Wind:
Aussen-T/F 3151 01-07-2020 22:30:00 22.1 C 13.86 g/m*3 22.1 C 4.8 km/h
3152 01-07-2020 22:35:00 22 C 13.97 g/m*3 22 C 0 km/h
3153 01-07-2020 22:40:00 21.9 C 13.89 g/m*3 21.9 C 1.6 km/h
3154 01-07-2020 22:45:00 21.8 C 14.01 g/m*3 21.8 C 4.8 km/h
3155 01-07-2020 22:50:00 21.7 C 13.93 g/m*3 21.7 C 3.2 km/h
3156 01-07-2020 22:55:00 21.7 C 13.93 g/m*3 21.7 C 8.1 km/h
3157 01-07-2020 23:00:00 21.7 C 14.31 g/m*3 21.7 C 14.5 km/h
3158 01-07-2020 23:05:00 21.4 C 14.25 g/m*3 21.4 C 11.3 km/h
3159 01-07-2020 23:10:00 21 C 14.29 g/m*3 21 C 14.5 km/h
3160 01-07-2020 23:15:00 20.7 C 14.4 g/m*3 20.7 C 12.9 km/h
3161 01-07-2020 23:20:00 20.2 C 14.34 g/m*3 20.2 C 12.9 km/h
3162 01-07-2020 23:25:00 19.5 C 14.1 g/m*3 19.5 C 19.3 km/h
3163 01-07-2020 23:30:00 18.9 C 14.09 g/m*3 18.9 C 14.5 km/h
3164 01-07-2020 23:35:00 18.6 C 14.01 g/m*3 18.6 C 8.1 km/h
3165 01-07-2020 23:40:00 18.3 C 13.92 g/m*3 18.3 C 3.2 km/h
3166 01-07-2020 23:45:00 18.2 C 13.99 g/m*3 18.2 C 4.8 km/h
3167 01-07-2020 23:50:00 18.1 C 13.91 g/m*3 18.1 C 6.4 km/h
3168 01-07-2020 23:55:00 18 C 13.98 g/m*3 18 C 0 km/h
3169 02-07-2020 00:00:00 17.9 C 14.05 g/m*3 17.9 C 1.6 km/h
3170 02-07-2020 00:05:00 17.9 C 14.05 g/m*3 17.9 C 0 km/h
3171 02-07-2020 00:10:00 17.9 C 14.05 g/m*3 17.9 C 0 km/h
3172 02-07-2020 00:15:00 17.9 C 14.05 g/m*3 17.9 C 1.6 km/h
3173 02-07-2020 00:20:00 17.9 C 14.2 g/m*3 17.9 C 0 km/h
3174 02-07-2020 00:25:00 17.8 C 14.12 g/m*3 17.8 C 0 km/h
3175 02-07-2020 00:30:00 17.8 C 14.12 g/m*3 17.8 C 0 km/h
Sensor: Nr:Datum:Temp:Abs-Feuchte:Windchill:Wind:
Aussen-T/F 3176 02-07-2020 00:35:00 17.8 C 14.12 g/m*3 17.8 C 0 km/h
3177 02-07-2020 00:40:00 17.8 C 14.12 g/m*3 17.8 C 0 km/h
3178 02-07-2020 00:45:00 17.8 C 14.12 g/m*3 17.8 C 0 km/h
3179 02-07-2020 00:50:00 17.8 C 14.12 g/m*3 17.8 C 0 km/h
3180 02-07-2020 00:55:00 17.7 C 14.03 g/m*3 17.7 C 0 km/h
3181 02-07-2020 01:00:00 17.7 C 14.03 g/m*3 17.7 C 0 km/h
3182 02-07-2020 01:05:00 17.7 C 14.03 g/m*3 17.7 C 0 km/h
3183 02-07-2020 01:10:00 17.7 C 14.18 g/m*3 17.7 C 0 km/h
3184 02-07-2020 01:15:00 17.7 C 14.18 g/m*3 17.7 C 0 km/h
3185 02-07-2020 01:20:00 17.8 C 14.27 g/m*3 17.8 C 0 km/h
3186 02-07-2020 01:25:00 17.7 C 14.18 g/m*3 17.7 C 0 km/h
3187 02-07-2020 01:30:00 17.7 C 14.18 g/m*3 17.7 C 0 km/h
3188 02-07-2020 01:35:00 17.7 C 14.18 g/m*3 17.7 C 0 km/h
3189 02-07-2020 01:40:00 17.8 C 14.27 g/m*3 17.8 C 0 km/h
3190 02-07-2020 01:45:00 17.7 C 14.18 g/m*3 17.7 C 0 km/h
3191 02-07-2020 01:50:00 17.7 C 14.18 g/m*3 17.7 C 0 km/h
3192 02-07-2020 01:55:00 17.7 C 14.18 g/m*3 17.7 C 0 km/h
3193 02-07-2020 02:00:00 17.7 C 14.18 g/m*3 17.7 C 0 km/h
3194 02-07-2020 02:05:00 17.7 C 14.18 g/m*3 17.7 C 0 km/h
3195 02-07-2020 02:10:00 17.6 C 14.1 g/m*3 17.6 C 0 km/h
3196 02-07-2020 02:15:00 17.6 C 14.1 g/m*3 17.6 C 0 km/h
3197 02-07-2020 02:20:00 17.6 C 14.1 g/m*3 17.6 C 0 km/h
3198 02-07-2020 02:25:00 17.5 C 14.01 g/m*3 17.5 C 0 km/h
3199 02-07-2020 02:30:00 17.4 C 14.08 g/m*3 17.4 C 1.6 km/h
3200 02-07-2020 02:35:00 17.4 C 13.93 g/m*3 17.4 C 3.2 km/h
Sensor: Nr:Datum:Temp:Abs-Feuchte:Windchill:Wind:
Aussen-T/F 3201 02-07-2020 02:40:00 17.3 C 13.85 g/m*3 17.3 C 0 km/h
3202 02-07-2020 02:45:00 17.3 C 13.85 g/m*3 17.3 C 3.2 km/h
3203 02-07-2020 02:50:00 17.3 C 14 g/m*3 17.3 C 0 km/h